Wetterdaten: Samstag, 13.07.2019
Datum Zeit Temp. A. Pool Temp. Temp. 5cm Feuchte A. Luftdruck Regen Wind Richtung Richtung Sonnenschein ET UV Solar Taupunkt Windchill Windben Empfang
13.07.2019 00:00 14,8 C 21,7 C 15,0 C 89 % 1010,4 hPa 0,0 l/m 6,4 km/h (2 Bft) S 179 0 min 0,000 mm 0,0 UV-I 0 W/m 13,0 C 14,8 C 9,7 km/h (2 Bft) 100,00 %
13.07.2019 00:02 14,8 C 21,7 C 15,0 C 89 % 1010,4 hPa 0,0 l/m 6,4 km/h (2 Bft) S 180 0 min 0,000 mm 0,0 UV-I 0 W/m 13,0 C 14,8 C 6,4 km/h (2 Bft) 9,09 %
13.07.2019 00:04 14,9 C 21,7 C 15,0 C 89 % 1010,4 hPa 0,0 l/m 5,7 km/h (1 Bft) S-SW 200 0 min 0,000 mm 0,0 UV-I 0 W/m 13,1 C 14,9 C 9,7 km/h (2 Bft) 66,67 %
13.07.2019 00:06 15,0 C 21,7 C 15,0 C 89 % 1010,4 hPa 0,0 l/m 7,4 km/h (2 Bft) S-SW 201 0 min 0,000 mm 0,0 UV-I 0 W/m 13,2 C 14,4 C 11,3 km/h (2 Bft) 100,00 %
13.07.2019 00:08 15,0 C 21,7 C 15,0 C 89 % 1010,4 hPa 0,0 l/m 6,9 km/h (2 Bft) S 189 0 min 0,000 mm 0,0 UV-I 0 W/m 13,2 C 14,7 C 11,3 km/h (2 Bft) 100,00 %
13.07.2019 00:10 15,1 C 21,7 C 15,0 C 89 % 1010,3 hPa 0,0 l/m 6,4 km/h (2 Bft) S-SW 192 0 min 0,000 mm 0,0 UV-I 0 W/m 13,3 C 15,1 C 9,7 km/h (2 Bft) 97,87 %
13.07.2019 00:12 15,1 C 21,7 C 15,0 C 89 % 1010,3 hPa 0,0 l/m 5,6 km/h (1 Bft) S-SW 196 0 min 0,000 mm 0,0 UV-I 0 W/m 13,3 C 15,1 C 8,0 km/h (2 Bft) 100,00 %
13.07.2019 00:14 15,1 C 21,7 C 15,0 C 89 % 1010,3 hPa 0,0 l/m 5,3 km/h (1 Bft) S 180 0 min 0,000 mm 0,0 UV-I 0 W/m 13,3 C 15,1 C 8,0 km/h (2 Bft) 97,87 %
13.07.2019 00:16 15,1 C 21,7 C 15,0 C 89 % 1010,2 hPa 0,0 l/m 5,0 km/h (1 Bft) S-SW 192 0 min 0,000 mm 0,0 UV-I 0 W/m 13,3 C 15,1 C 8,0 km/h (2 Bft) 97,87 %
13.07.2019 00:18 15,1 C 21,7 C 15,0 C 89 % 1010,2 hPa 0,0 l/m 5,7 km/h (1 Bft) S-SW 192 0 min 0,000 mm 0,0 UV-I 0 W/m 13,3 C 15,1 C 9,7 km/h (2 Bft) 100,00 %
13.07.2019 00:20 15,2 C 21,7 C 15,0 C 89 % 1010,2 hPa 0,0 l/m 4,8 km/h (1 Bft) S-SW 199 0 min 0,000 mm 0,0 UV-I 0 W/m 13,4 C 15,2 C 6,4 km/h (2 Bft) 97,87 %
13.07.2019 00:22 15,2 C 21,7 C 15,0 C 89 % 1010,3 hPa 0,0 l/m 5,9 km/h (2 Bft) S-SW 198 0 min 0,000 mm 0,0 UV-I 0 W/m 13,4 C 15,2 C 8,0 km/h (2 Bft) 97,87 %
13.07.2019 00:24 15,2 C 21,7 C 15,0 C 89 % 1010,3 hPa 0,0 l/m 4,8 km/h (1 Bft) S-SW 202 0 min 0,000 mm 0,0 UV-I 0 W/m 13,4 C 15,2 C 6,4 km/h (2 Bft) 93,62 %
13.07.2019 00:26 15,2 C 21,7 C 15,0 C 88 % 1010,3 hPa 0,0 l/m 4,4 km/h (1 Bft) S-SW 200 0 min 0,000 mm 0,0 UV-I 0 W/m 13,2 C 15,2 C 8,0 km/h (2 Bft) 97,87 %
13.07.2019 00:28 15,2 C 21,7 C 15,0 C 89 % 1010,3 hPa 0,0 l/m 5,0 km/h (1 Bft) S-SW 193 0 min 0,000 mm 0,0 UV-I 0 W/m 13,4 C 15,2 C 8,0 km/h (2 Bft) 96,00 %
13.07.2019 00:30 15,2 C 21,7 C 15,0 C 89 % 1010,3 hPa 0,0 l/m 4,9 km/h (1 Bft) SW 221 0 min 0,000 mm 0,0 UV-I 0 W/m 13,4 C 15,2 C 6,4 km/h (2 Bft) 97,87 %
13.07.2019 00:32 15,2 C 21,7 C 15,0 C 89 % 1010,3 hPa 0,0 l/m 4,9 km/h (1 Bft) SW 219 0 min 0,000 mm 0,0 UV-I 0 W/m 13,4 C 15,2 C 6,4 km/h (2 Bft) 97,87 %
13.07.2019 00:34 15,1 C 21,7 C 15,0 C 89 % 1010,3 hPa 0,0 l/m 6,1 km/h (2 Bft) SW 215 0 min 0,000 mm 0,0 UV-I 0 W/m 13,3 C 15,1 C 8,0 km/h (2 Bft) 97,22 %
13.07.2019 00:36 15,1 C 21,7 C 15,0 C 89 % 1010,3 hPa 0,0 l/m 6,2 km/h (2 Bft) S-SW 194 0 min 0,000 mm 0,0 UV-I 0 W/m 13,3 C 15,1 C 9,7 km/h (2 Bft) 98,00 %
13.07.2019 00:38 15,0 C 21,7 C 15,0 C 90 % 1010,2 hPa 0,0 l/m 6,0 km/h (2 Bft) S-SW 194 0 min 0,000 mm 0,0 UV-I 0 W/m 13,4 C 15,0 C 9,7 km/h (2 Bft) 97,87 %
13.07.2019 00:40 15,0 C 21,7 C 15,0 C 90 % 1010,2 hPa 0,0 l/m 6,3 km/h (2 Bft) S 186 0 min 0,000 mm 0,0 UV-I 0 W/m 13,4 C 15,0 C 8,0 km/h (2 Bft) 95,74 %
13.07.2019 00:42 15,0 C 21,7 C 15,0 C 90 % 1010,2 hPa 0,0 l/m 7,6 km/h (2 Bft) S-SW 205 0 min 0,000 mm 0,0 UV-I 0 W/m 13,4 C 14,3 C 9,7 km/h (2 Bft) 97,87 %
13.07.2019 00:44 15,0 C 21,7 C 15,0 C 90 % 1010,0 hPa 0,0 l/m 5,8 km/h (2 Bft) S 184 0 min 0,000 mm 0,0 UV-I 0 W/m 13,4 C 15,0 C 9,7 km/h (2 Bft) 98,00 %
13.07.2019 00:46 15,0 C 21,7 C 15,0 C 90 % 1010,0 hPa 0,0 l/m 4,2 km/h (1 Bft) S-SW 194 0 min 0,000 mm 0,0 UV-I 0 W/m 13,4 C 15,0 C 8,0 km/h (2 Bft) 97,87 %
13.07.2019 00:48 15,1 C 21,7 C 15,0 C 90 % 1009,9 hPa 0,0 l/m 4,0 km/h (1 Bft) S-SW 193 0 min 0,000 mm 0,0 UV-I 0 W/m 13,5 C 15,1 C 6,4 km/h (2 Bft) 100,00 %
13.07.2019 00:50 15,0 C 21,7 C 14,4 C 90 % 1009,9 hPa 0,0 l/m 4,4 km/h (1 Bft) S-SW 198 0 min 0,000 mm 0,0 UV-I 0 W/m 13,4 C 15,0 C 6,4 km/h (2 Bft) 100,00 %
13.07.2019 00:52 14,9 C 21,7 C 14,4 C 90 % 1009,8 hPa 0,0 l/m 3,9 km/h (1 Bft) S-SW 198 0 min 0,000 mm 0,0 UV-I 0 W/m 13,3 C 14,9 C 6,4 km/h (2 Bft) 100,00 %
13.07.2019 00:54 14,9 C 21,7 C 14,4 C 89 % 1009,8 hPa 0,0 l/m 3,8 km/h (1 Bft) S-SW 198 0 min 0,000 mm 0,0 UV-I 0 W/m 13,1 C 14,9 C 4,8 km/h (1 Bft) 97,37 %
13.07.2019 00:56 14,9 C 21,7 C 14,4 C 90 % 1009,8 hPa 0,0 l/m 2,6 km/h (1 Bft) S-SW 198 0 min 0,000 mm 0,0 UV-I 0 W/m 13,3 C 14,9 C 3,2 km/h (1 Bft) 100,00 %
13.07.2019 00:58 14,9 C 21,7 C 14,4 C 90 % 1009,8 hPa 0,0 l/m 2,5 km/h (1 Bft) S-SW 198 0 min 0,000 mm 0,0 UV-I 0 W/m 13,3 C 14,9 C 4,8 km/h (1 Bft) 100,00 %
13.07.2019 01:00 14,9 C 21,7 C 13,9 C 90 % 1009,8 hPa 0,0 l/m 2,1 km/h (1 Bft) S-SW 198 0 min 0,000 mm 0,0 UV-I 0 W/m 13,3 C 14,9 C 3,2 km/h (1 Bft) 97,87 %
13.07.2019 01:02 14,9 C 21,7 C 14,4 C 90 % 1009,8 hPa 0,0 l/m 3,4 km/h (1 Bft) S-SW 198 0 min 0,000 mm 0,0 UV-I 0 W/m 13,3 C 14,9 C 4,8 km/h (1 Bft) 95,74 %
13.07.2019 01:04 14,8 C 21,7 C 14,4 C 90 % 1009,9 hPa 0,0 l/m 4,5 km/h (1 Bft) S-SW 198 0 min 0,000 mm 0,0 UV-I 0 W/m 13,2 C 14,8 C 6,4 km/h (2 Bft) 96,00 %
13.07.2019 01:06 14,8 C 21,7 C 14,4 C 90 % 1009,9 hPa 0,0 l/m 4,5 km/h (1 Bft) S-SW 198 0 min 0,000 mm 0,0 UV-I 0 W/m 13,2 C 14,8 C 6,4 km/h (2 Bft) 93,62 %
13.07.2019 01:08 14,8 C 21,7 C 15,0 C 91 % 1009,9 hPa 0,0 l/m 4,9 km/h (1 Bft) S 188 0 min 0,000 mm 0,0 UV-I 0 W/m 13,3 C 14,8 C 8,0 km/h (2 Bft) 93,62 %
13.07.2019 01:10 14,7 C 21,7 C 15,0 C 91 % 1010,0 hPa 0,0 l/m 6,5 km/h (2 Bft) S-SW 198 0 min 0,000 mm 0,0 UV-I 0 W/m 13,2 C 14,7 C 9,7 km/h (2 Bft) 97,87 %
13.07.2019 01:12 14,7 C 21,7 C 15,0 C 91 % 1010,1 hPa 0,0 l/m 6,5 km/h (2 Bft) S-SW 207 0 min 0,000 mm 0,0 UV-I 0 W/m 13,2 C 14,7 C 8,0 km/h (2 Bft) 94,00 %
13.07.2019 01:14 14,7 C 21,7 C 15,0 C 91 % 1010,1 hPa 0,0 l/m 6,4 km/h (2 Bft) SW 230 0 min 0,000 mm 0,0 UV-I 0 W/m 13,2 C 14,7 C 9,7 km/h (2 Bft) 95,83 %
13.07.2019 01:16 14,7 C 21,7 C 15,0 C 92 % 1010,0 hPa 0,0 l/m 5,5 km/h (1 Bft) S-SW 204 0 min 0,000 mm 0,0 UV-I 0 W/m 13,4 C 14,7 C 8,0 km/h (2 Bft) 91,49 %
13.07.2019 01:18 14,8 C 21,7 C 15,0 C 91 % 1010,0 hPa 0,0 l/m 5,3 km/h (1 Bft) SW 215 0 min 0,000 mm 0,0 UV-I 0 W/m 13,3 C 14,8 C 9,7 km/h (2 Bft) 96,00 %
13.07.2019 01:20 14,9 C 21,7 C 15,0 C 92 % 1009,9 hPa 0,0 l/m 3,6 km/h (1 Bft) S 188 0 min 0,000 mm 0,0 UV-I 0 W/m 13,6 C 14,9 C 4,8 km/h (1 Bft) 94,74 %
13.07.2019 01:22 14,9 C 21,7 C 15,0 C 91 % 1009,9 hPa 0,0 l/m 4,8 km/h (1 Bft) W-SW 244 0 min 0,000 mm 0,0 UV-I 0 W/m 13,4 C 14,9 C 6,4 km/h (2 Bft) 94,00 %
13.07.2019 01:24 14,9 C 21,7 C 15,0 C 91 % 1010,2 hPa 0,0 l/m 3,6 km/h (1 Bft) W-SW 246 0 min 0,000 mm 0,0 UV-I 0 W/m 13,4 C 14,9 C 6,4 km/h (2 Bft) 91,49 %
13.07.2019 01:26 14,9 C 21,7 C 15,0 C 91 % 1010,2 hPa 0,0 l/m 5,1 km/h (1 Bft) W 264 0 min 0,000 mm 0,0 UV-I 0 W/m 13,4 C 14,9 C 9,7 km/h (2 Bft) 96,00 %
13.07.2019 01:28 14,8 C 21,7 C 15,0 C 92 % 1010,1 hPa 0,0 l/m 3,9 km/h (1 Bft) W-NW 299 0 min 0,000 mm 0,0 UV-I 0 W/m 13,5 C 14,8 C 6,4 km/h (2 Bft) 93,62 %
13.07.2019 01:30 14,8 C 21,7 C 15,0 C 92 % 1010,3 hPa 0,0 l/m 7,1 km/h (2 Bft) W 274 0 min 0,000 mm 0,0 UV-I 0 W/m 13,5 C 14,4 C 11,3 km/h (2 Bft) 95,74 %
13.07.2019 01:32 14,7 C 21,7 C 15,0 C 92 % 1010,2 hPa 0,0 l/m 5,3 km/h (1 Bft) W 269 0 min 0,000 mm 0,0 UV-I 0 W/m 13,4 C 14,7 C 9,7 km/h (2 Bft) 94,74 %
13.07.2019 01:34 14,7 C 21,7 C 15,0 C 93 % 1010,2 hPa 0,0 l/m 5,2 km/h (1 Bft) W-NW 290 0 min 0,000 mm 0,0 UV-I 0 W/m 13,6 C 14,7 C 11,3 km/h (2 Bft) 95,74 %
13.07.2019 01:36 14,7 C 21,7 C 15,0 C 93 % 1010,2 hPa 0,0 l/m 5,3 km/h (1 Bft) W 278 0 min 0,000 mm 0,0 UV-I 0 W/m 13,6 C 14,7 C 11,3 km/h (2 Bft) 97,87 %
13.07.2019 01:38 14,7 C 21,7 C 15,0 C 93 % 1010,2 hPa 0,2 l/m 2,7 km/h (1 Bft) W 278 0 min 0,000 mm 0,0 UV-I 0 W/m 13,6 C 14,7 C 4,8 km/h (1 Bft) 95,74 %
13.07.2019 01:40 14,7 C 21,7 C 15,0 C 93 % 1010,2 hPa 0,0 l/m 3,8 km/h (1 Bft) W-NW 282 0 min 0,000 mm 0,0 UV-I 0 W/m 13,6 C 14,7 C 6,4 km/h (2 Bft) 97,87 %
13.07.2019 01:42 14,7 C 21,7 C 15,0 C 93 % 1010,4 hPa 0,0 l/m 4,2 km/h (1 Bft) W 277 0 min 0,000 mm 0,0 UV-I 0 W/m 13,6 C 14,7 C 6,4 km/h (2 Bft) 95,74 %
13.07.2019 01:44 14,7 C 21,7 C 15,0 C 93 % 1010,4 hPa 0,0 l/m 4,2 km/h (1 Bft) W-SW 254 0 min 0,000 mm 0,0 UV-I 0 W/m 13,6 C 14,7 C 6,4 km/h (2 Bft) 95,74 %
13.07.2019 01:46 14,7 C 21,7 C 15,0 C 93 % 1010,3 hPa 0,0 l/m 4,4 km/h (1 Bft) W 260 0 min 0,000 mm 0,0 UV-I 0 W/m 13,6 C 14,7 C 6,4 km/h (2 Bft) 96,00 %
13.07.2019 01:48 14,7 C 21,7 C 15,0 C 93 % 1010,5 hPa 0,0 l/m 7,1 km/h (2 Bft) W-SW 248 0 min 0,000 mm 0,0 UV-I 0 W/m 13,6 C 14,3 C 11,3 km/h (2 Bft) 93,62 %
13.07.2019 01:50 14,8 C 21,7 C 15,0 C 94 % 1010,5 hPa 0,2 l/m 7,9 km/h (2 Bft) W 266 0 min 0,000 mm 0,0 UV-I 0 W/m 13,8 C 13,9 C 12,9 km/h (3 Bft) 95,83 %
13.07.2019 01:52 14,8 C 21,1 C 15,0 C 94 % 1010,6 hPa 0,0 l/m 10,8 km/h (2 Bft) W-SW 237 0 min 0,000 mm 0,0 UV-I 0 W/m 13,8 C 12,5 C 16,1 km/h (3 Bft) 95,74 %
13.07.2019 01:54 14,8 C 21,1 C 15,0 C 94 % 1010,8 hPa 0,8 l/m 12,4 km/h (3 Bft) W 266 0 min 0,000 mm 0,0 UV-I 0 W/m 13,8 C 11,9 C 17,7 km/h (3 Bft) 93,62 %
13.07.2019 01:56 14,8 C 21,1 C 14,4 C 94 % 1010,6 hPa 1,2 l/m 12,5 km/h (3 Bft) NW 323 0 min 0,000 mm 0,0 UV-I 0 W/m 13,8 C 11,8 C 24,1 km/h (4 Bft) 95,74 %
13.07.2019 01:58 14,8 C 21,1 C 14,4 C 94 % 1010,5 hPa 1,2 l/m 10,0 km/h (2 Bft) N-NW 329 0 min 0,000 mm 0,0 UV-I 0 W/m 13,8 C 12,9 C 19,3 km/h (3 Bft) 92,00 %
13.07.2019 02:00 14,8 C 21,1 C 14,4 C 93 % 1010,5 hPa 0,8 l/m 11,6 km/h (2 Bft) NW 321 0 min 0,000 mm 0,0 UV-I 0 W/m 13,7 C 12,2 C 25,7 km/h (4 Bft) 93,62 %
13.07.2019 02:02 14,7 C 21,1 C 14,4 C 93 % 1010,5 hPa 0,2 l/m 8,8 km/h (2 Bft) W-NW 294 0 min 0,000 mm 0,0 UV-I 0 W/m 13,6 C 13,4 C 14,5 km/h (3 Bft) 97,37 %
13.07.2019 02:04 14,7 C 21,1 C 14,4 C 93 % 1010,6 hPa 0,0 l/m 6,6 km/h (2 Bft) N-NW 332 0 min 0,000 mm 0,0 UV-I 0 W/m 13,6 C 14,6 C 11,3 km/h (2 Bft) 95,74 %
13.07.2019 02:06 14,7 C 21,1 C 14,4 C 93 % 1010,6 hPa 0,0 l/m 7,5 km/h (2 Bft) W 276 0 min 0,000 mm 0,0 UV-I 0 W/m 13,6 C 14,1 C 12,9 km/h (3 Bft) 95,74 %
13.07.2019 02:08 14,7 C 21,1 C 14,4 C 93 % 1010,6 hPa 0,0 l/m 9,6 km/h (2 Bft) W 277 0 min 0,000 mm 0,0 UV-I 0 W/m 13,6 C 13,0 C 16,1 km/h (3 Bft) 95,74 %
13.07.2019 02:10 14,7 C 21,1 C 14,4 C 94 % 1010,5 hPa 0,2 l/m 7,7 km/h (2 Bft) W 273 0 min 0,000 mm 0,0 UV-I 0 W/m 13,7 C 14,0 C 14,5 km/h (3 Bft) 93,62 %
13.07.2019 02:12 14,7 C 21,1 C 14,4 C 94 % 1010,6 hPa 0,2 l/m 11,1 km/h (2 Bft) W 269 0 min 0,000 mm 0,0 UV-I 0 W/m 13,7 C 12,3 C 14,5 km/h (3 Bft) 100,00 %
13.07.2019 02:14 14,7 C 21,1 C 14,4 C 94 % 1010,5 hPa 0,2 l/m 10,9 km/h (2 Bft) W-SW 245 0 min 0,000 mm 0,0 UV-I 0 W/m 13,7 C 12,4 C 17,7 km/h (3 Bft) 100,00 %
13.07.2019 02:16 14,7 C 21,1 C 14,4 C 94 % 1010,5 hPa 0,0 l/m 10,4 km/h (2 Bft) W 277 0 min 0,000 mm 0,0 UV-I 0 W/m 13,7 C 12,6 C 14,5 km/h (3 Bft) 100,00 %
13.07.2019 02:18 14,7 C 21,1 C 14,4 C 94 % 1010,5 hPa 0,0 l/m 9,1 km/h (2 Bft) W 264 0 min 0,000 mm 0,0 UV-I 0 W/m 13,7 C 13,2 C 11,3 km/h (2 Bft) 100,00 %
13.07.2019 02:20 14,6 C 21,1 C 14,4 C 94 % 1010,4 hPa 0,0 l/m 8,6 km/h (2 Bft) W-SW 257 0 min 0,000 mm 0,0 UV-I 0 W/m 13,6 C 13,4 C 12,9 km/h (3 Bft) 100,00 %
13.07.2019 02:22 14,6 C 21,1 C 14,4 C 94 % 1010,4 hPa 0,0 l/m 5,3 km/h (1 Bft) W-SW 237 0 min 0,000 mm 0,0 UV-I 0 W/m 13,6 C 14,6 C 8,0 km/h (2 Bft) 100,00 %
13.07.2019 02:24 14,6 C 21,1 C 14,4 C 94 % 1010,4 hPa 0,0 l/m 5,3 km/h (1 Bft) SW 230 0 min 0,000 mm 0,0 UV-I 0 W/m 13,6 C 14,6 C 8,0 km/h (2 Bft) 97,87 %
13.07.2019 02:26 14,6 C 21,1 C 14,4 C 94 % 1010,4 hPa 0,0 l/m 5,3 km/h (1 Bft) SW 214 0 min 0,000 mm 0,0 UV-I 0 W/m 13,6 C 14,6 C 8,0 km/h (2 Bft) 100,00 %
13.07.2019 02:28 14,6 C 21,1 C 14,4 C 94 % 1010,5 hPa 0,0 l/m 5,3 km/h (1 Bft) W-SW 238 0 min 0,000 mm 0,0 UV-I 0 W/m 13,6 C 14,6 C 8,0 km/h (2 Bft) 100,00 %
13.07.2019 02:30 14,6 C 21,1 C 14,4 C 95 % 1010,6 hPa 0,0 l/m 4,2 km/h (1 Bft) W-SW 245 0 min 0,000 mm 0,0 UV-I 0 W/m 13,8 C 14,6 C 6,4 km/h (2 Bft) 100,00 %
13.07.2019 02:32 14,6 C 21,1 C 14,4 C 95 % 1010,6 hPa 0,0 l/m 10,1 km/h (2 Bft) W 271 0 min 0,000 mm 0,0 UV-I 0 W/m 13,8 C 12,6 C 22,5 km/h (4 Bft) 100,00 %
13.07.2019 02:34 14,6 C 21,1 C 14,4 C 94 % 1010,7 hPa 0,0 l/m 17,2 km/h (3 Bft) S-SW 202 0 min 0,000 mm 0,0 UV-I 0 W/m 13,6 C 10,0 C 33,8 km/h (5 Bft) 100,00 %
13.07.2019 02:36 14,6 C 21,1 C 14,4 C 94 % 1010,7 hPa 0,0 l/m 19,2 km/h (3 Bft) SW 231 0 min 0,000 mm 0,0 UV-I 0 W/m 13,6 C 9,4 C 27,4 km/h (4 Bft) 93,62 %
13.07.2019 02:38 14,6 C 21,1 C 13,9 C 93 % 1010,6 hPa 0,0 l/m 21,3 km/h (4 Bft) SW 217 0 min 0,000 mm 0,0 UV-I 0 W/m 13,5 C 8,9 C 38,6 km/h (5 Bft) 97,87 %
13.07.2019 02:40 14,5 C 21,1 C 13,9 C 92 % 1010,6 hPa 0,2 l/m 18,6 km/h (3 Bft) W-SW 245 0 min 0,000 mm 0,0 UV-I 0 W/m 13,2 C 9,5 C 32,2 km/h (5 Bft) 100,00 %
13.07.2019 02:42 14,4 C 21,1 C 13,9 C 91 % 1010,6 hPa 0,0 l/m 20,3 km/h (4 Bft) SW 228 0 min 0,000 mm 0,0 UV-I 0 W/m 12,9 C 8,9 C 30,6 km/h (5 Bft) 100,00 %
13.07.2019 02:44 14,3 C 21,1 C 13,9 C 91 % 1010,7 hPa 0,0 l/m 22,4 km/h (4 Bft) W-SW 255 0 min 0,000 mm 0,0 UV-I 0 W/m 12,8 C 8,2 C 35,4 km/h (5 Bft) 97,87 %
13.07.2019 02:46 14,2 C 21,1 C 13,3 C 91 % 1010,6 hPa 0,2 l/m 19,3 km/h (3 Bft) S-SW 205 0 min 0,000 mm 0,0 UV-I 0 W/m 12,8 C 8,9 C 29,0 km/h (5 Bft) 97,87 %
13.07.2019 02:48 14,2 C 21,1 C 13,9 C 91 % 1010,5 hPa 0,0 l/m 19,1 km/h (3 Bft) SW 234 0 min 0,000 mm 0,0 UV-I 0 W/m 12,8 C 9,0 C 27,4 km/h (4 Bft) 100,00 %
13.07.2019 02:50 14,1 C 21,1 C 13,3 C 91 % 1010,5 hPa 0,0 l/m 15,4 km/h (3 Bft) W-SW 242 0 min 0,000 mm 0,0 UV-I 0 W/m 12,7 C 10,0 C 20,9 km/h (4 Bft) 100,00 %
13.07.2019 02:52 14,1 C 21,1 C 13,9 C 91 % 1010,5 hPa 0,0 l/m 18,2 km/h (3 Bft) W-SW 244 0 min 0,000 mm 0,0 UV-I 0 W/m 12,7 C 9,1 C 29,0 km/h (5 Bft) 100,00 %
13.07.2019 02:54 14,0 C 21,1 C 13,3 C 91 % 1010,4 hPa 0,0 l/m 14,6 km/h (3 Bft) W-SW 246 0 min 0,000 mm 0,0 UV-I 0 W/m 12,6 C 10,1 C 22,5 km/h (4 Bft) 100,00 %
13.07.2019 02:56 13,9 C 21,1 C 13,3 C 91 % 1010,4 hPa 0,0 l/m 14,5 km/h (3 Bft) W-SW 240 0 min 0,000 mm 0,0 UV-I 0 W/m 12,5 C 10,0 C 22,5 km/h (4 Bft) 95,74 %
13.07.2019 02:58 13,9 C 21,1 C 13,3 C 91 % 1010,3 hPa 0,0 l/m 15,8 km/h (3 Bft) W-SW 248 0 min 0,000 mm 0,0 UV-I 0 W/m 12,5 C 9,6 C 22,5 km/h (4 Bft) 100,00 %
13.07.2019 03:00 13,9 C 21,1 C 13,3 C 91 % 1010,4 hPa 0,0 l/m 16,1 km/h (3 Bft) W-SW 252 0 min 0,025 mm 0,0 UV-I 0 W/m 12,5 C 9,5 C 24,1 km/h (4 Bft) 100,00 %
13.07.2019 03:02 13,9 C 21,1 C 13,3 C 91 % 1010,4 hPa 0,0 l/m 14,0 km/h (3 Bft) S-SW 198 0 min 0,000 mm 0,0 UV-I 0 W/m 12,5 C 10,2 C 20,9 km/h (4 Bft) 95,74 %
13.07.2019 03:04 13,9 C 21,1 C 13,3 C 91 % 1010,4 hPa 0,0 l/m 11,7 km/h (2 Bft) W 278 0 min 0,000 mm 0,0 UV-I 0 W/m 12,5 C 11,1 C 19,3 km/h (3 Bft) 95,74 %
13.07.2019 03:06 13,8 C 21,1 C 13,3 C 91 % 1010,5 hPa 0,0 l/m 13,6 km/h (3 Bft) W 259 0 min 0,000 mm 0,0 UV-I 0 W/m 12,4 C 10,2 C 20,9 km/h (4 Bft) 95,74 %
13.07.2019 03:08 13,8 C 21,1 C 13,3 C 91 % 1010,5 hPa 0,0 l/m 15,1 km/h (3 Bft) SW 224 0 min 0,000 mm 0,0 UV-I 0 W/m 12,4 C 9,7 C 22,5 km/h (4 Bft) 97,87 %
13.07.2019 03:10 13,8 C 21,1 C 13,3 C 91 % 1010,5 hPa 0,0 l/m 17,1 km/h (3 Bft) W-SW 239 0 min 0,000 mm 0,0 UV-I 0 W/m 12,4 C 9,0 C 25,7 km/h (4 Bft) 94,00 %
13.07.2019 03:12 13,9 C 21,1 C 13,3 C 91 % 1010,5 hPa 0,0 l/m 14,2 km/h (3 Bft) W-SW 248 0 min 0,000 mm 0,0 UV-I 0 W/m 12,5 C 10,1 C 22,5 km/h (4 Bft) 98,00 %
13.07.2019 03:14 13,9 C 21,1 C 13,3 C 91 % 1010,6 hPa 0,0 l/m 16,9 km/h (3 Bft) SW 222 0 min 0,000 mm 0,0 UV-I 0 W/m 12,5 C 9,2 C 24,1 km/h (4 Bft) 95,74 %
13.07.2019 03:16 13,9 C 21,1 C 13,3 C 90 % 1010,6 hPa 0,0 l/m 13,2 km/h (3 Bft) W 271 0 min 0,000 mm 0,0 UV-I 0 W/m 12,3 C 10,5 C 19,3 km/h (3 Bft) 94,74 %
13.07.2019 03:18 13,9 C 21,1 C 13,3 C 91 % 1010,6 hPa 0,0 l/m 16,1 km/h (3 Bft) W 277 0 min 0,000 mm 0,0 UV-I 0 W/m 12,5 C 9,5 C 25,7 km/h (4 Bft) 92,00 %
13.07.2019 03:20 13,8 C 21,1 C 13,3 C 91 % 1010,5 hPa 0,0 l/m 14,4 km/h (3 Bft) SW 236 0 min 0,000 mm 0,0 UV-I 0 W/m 12,4 C 10,0 C 20,9 km/h (4 Bft) 96,00 %
13.07.2019 03:22 13,8 C 21,1 C 13,3 C 91 % 1010,6 hPa 0,0 l/m 17,0 km/h (3 Bft) W 265 0 min 0,000 mm 0,0 UV-I 0 W/m 12,4 C 9,1 C 25,7 km/h (4 Bft) 91,49 %
13.07.2019 03:24 13,8 C 21,1 C 13,3 C 90 % 1010,6 hPa 0,0 l/m 16,1 km/h (3 Bft) W-SW 248 0 min 0,000 mm 0,0 UV-I 0 W/m 12,2 C 9,4 C 22,5 km/h (4 Bft) 96,00 %
13.07.2019 03:26 13,8 C 21,1 C 13,3 C 90 % 1010,6 hPa 0,0 l/m 15,5 km/h (3 Bft) W 264 0 min 0,000 mm 0,0 UV-I 0 W/m 12,2 C 9,6 C 22,5 km/h (4 Bft) 94,29 %
13.07.2019 03:28 13,9 C 21,1 C 13,3 C 90 % 1010,6 hPa 0,0 l/m 15,1 km/h (3 Bft) W 275 0 min 0,000 mm 0,0 UV-I 0 W/m 12,3 C 9,8 C 22,5 km/h (4 Bft) 96,00 %
13.07.2019 03:30 13,8 C 21,1 C 13,3 C 90 % 1010,6 hPa 0,0 l/m 12,9 km/h (3 Bft) SW 236 0 min 0,000 mm 0,0 UV-I 0 W/m 12,2 C 10,5 C 20,9 km/h (4 Bft) 95,74 %
13.07.2019 03:32 13,8 C 21,1 C 13,3 C 90 % 1010,5 hPa 0,0 l/m 11,4 km/h (2 Bft) W-SW 248 0 min 0,000 mm 0,0 UV-I 0 W/m 12,2 C 11,1 C 19,3 km/h (3 Bft) 94,00 %
13.07.2019 03:34 13,9 C 21,1 C 13,3 C 90 % 1010,5 hPa 0,0 l/m 11,6 km/h (2 Bft) W-NW 289 0 min 0,000 mm 0,0 UV-I 0 W/m 12,3 C 11,2 C 19,3 km/h (3 Bft) 95,74 %
13.07.2019 03:36 13,8 C 21,1 C 13,3 C 90 % 1010,5 hPa 0,0 l/m 13,3 km/h (3 Bft) W 261 0 min 0,000 mm 0,0 UV-I 0 W/m 12,2 C 10,4 C 17,7 km/h (3 Bft) 95,74 %
13.07.2019 03:38 13,8 C 21,1 C 13,3 C 91 % 1010,5 hPa 0,0 l/m 13,5 km/h (3 Bft) W-SW 238 0 min 0,000 mm 0,0 UV-I 0 W/m 12,4 C 10,3 C 19,3 km/h (3 Bft) 97,87 %
13.07.2019 03:40 13,8 C 21,1 C 13,3 C 90 % 1010,6 hPa 0,0 l/m 8,4 km/h (2 Bft) W 271 0 min 0,000 mm 0,0 UV-I 0 W/m 12,2 C 12,6 C 12,9 km/h (3 Bft) 100,00 %
13.07.2019 03:42 13,8 C 21,1 C 13,3 C 91 % 1010,6 hPa 0,0 l/m 10,6 km/h (2 Bft) W 264 0 min 0,000 mm 0,0 UV-I 0 W/m 12,4 C 11,5 C 14,5 km/h (3 Bft) 97,87 %
13.07.2019 03:44 13,8 C 21,1 C 13,3 C 91 % 1010,5 hPa 0,0 l/m 7,9 km/h (2 Bft) W-SW 246 0 min 0,000 mm 0,0 UV-I 0 W/m 12,4 C 12,9 C 12,9 km/h (3 Bft) 100,00 %
13.07.2019 03:46 13,8 C 21,1 C 13,3 C 91 % 1010,6 hPa 0,0 l/m 10,0 km/h (2 Bft) W-SW 254 0 min 0,000 mm 0,0 UV-I 0 W/m 12,4 C 11,8 C 14,5 km/h (3 Bft) 97,87 %
13.07.2019 03:48 13,8 C 21,1 C 13,9 C 91 % 1010,5 hPa 0,0 l/m 10,2 km/h (2 Bft) W-SW 254 0 min 0,000 mm 0,0 UV-I 0 W/m 12,4 C 11,7 C 12,9 km/h (3 Bft) 97,87 %
13.07.2019 03:50 13,8 C 21,1 C 13,9 C 91 % 1010,5 hPa 0,0 l/m 6,9 km/h (2 Bft) W 275 0 min 0,000 mm 0,0 UV-I 0 W/m 12,4 C 13,5 C 9,7 km/h (2 Bft) 97,87 %
13.07.2019 03:52 13,8 C 21,1 C 13,9 C 92 % 1010,5 hPa 0,0 l/m 7,6 km/h (2 Bft) W-SW 257 0 min 0,000 mm 0,0 UV-I 0 W/m 12,5 C 13,1 C 11,3 km/h (2 Bft) 100,00 %
13.07.2019 03:54 13,8 C 21,1 C 13,9 C 92 % 1010,5 hPa 0,0 l/m 6,8 km/h (2 Bft) W-SW 252 0 min 0,000 mm 0,0 UV-I 0 W/m 12,5 C 13,6 C 11,3 km/h (2 Bft) 100,00 %
13.07.2019 03:56 13,8 C 21,1 C 13,9 C 92 % 1010,4 hPa 0,0 l/m 6,6 km/h (2 Bft) W 259 0 min 0,000 mm 0,0 UV-I 0 W/m 12,5 C 13,7 C 11,3 km/h (2 Bft) 100,00 %
13.07.2019 03:58 13,8 C 21,1 C 13,9 C 92 % 1010,5 hPa 0,0 l/m 6,6 km/h (2 Bft) W-SW 258 0 min 0,000 mm 0,0 UV-I 0 W/m 12,5 C 13,7 C 12,9 km/h (3 Bft) 100,00 %
13.07.2019 04:00 13,8 C 21,1 C 13,9 C 92 % 1010,4 hPa 0,0 l/m 6,1 km/h (2 Bft) W-SW 248 0 min 0,000 mm 0,0 UV-I 0 W/m 12,5 C 13,8 C 11,3 km/h (2 Bft) 100,00 %
13.07.2019 04:02 13,8 C 21,1 C 13,9 C 92 % 1010,4 hPa 0,0 l/m 5,9 km/h (2 Bft) W 260 0 min 0,026 mm 0,0 UV-I 0 W/m 12,5 C 13,8 C 9,7 km/h (2 Bft) 100,00 %
13.07.2019 04:04 13,8 C 21,1 C 13,9 C 92 % 1010,4 hPa 0,0 l/m 6,2 km/h (2 Bft) W-SW 248 0 min 0,000 mm 0,0 UV-I 0 W/m 12,5 C 13,8 C 9,7 km/h (2 Bft) 100,00 %
13.07.2019 04:06 13,8 C 21,1 C 13,9 C 92 % 1010,4 hPa 0,0 l/m 7,6 km/h (2 Bft) SW 230 0 min 0,000 mm 0,0 UV-I 0 W/m 12,5 C 13,1 C 11,3 km/h (2 Bft) 97,87 %
13.07.2019 04:08 13,8 C 21,1 C 13,9 C 92 % 1010,4 hPa 0,0 l/m 6,7 km/h (2 Bft) W-SW 238 0 min 0,000 mm 0,0 UV-I 0 W/m 12,5 C 13,6 C 9,7 km/h (2 Bft) 100,00 %
13.07.2019 04:10 13,8 C 21,1 C 13,9 C 92 % 1010,4 hPa 0,0 l/m 6,7 km/h (2 Bft) W-SW 240 0 min 0,000 mm 0,0 UV-I 0 W/m 12,5 C 13,6 C 9,7 km/h (2 Bft) 98,00 %
13.07.2019 04:12 13,8 C 21,1 C 13,9 C 92 % 1010,4 hPa 0,0 l/m 6,1 km/h (2 Bft) W-SW 237 0 min 0,000 mm 0,0 UV-I 0 W/m 12,5 C 13,8 C 8,0 km/h (2 Bft) 100,00 %
13.07.2019 04:14 13,8 C 21,1 C 13,9 C 92 % 1010,4 hPa 0,0 l/m 6,1 km/h (2 Bft) W-SW 241 0 min 0,000 mm 0,0 UV-I 0 W/m 12,5 C 13,8 C 8,0 km/h (2 Bft) 97,87 %
13.07.2019 04:16 13,8 C 21,1 C 13,9 C 92 % 1010,4 hPa 0,0 l/m 6,0 km/h (2 Bft) W-SW 244 0 min 0,000 mm 0,0 UV-I 0 W/m 12,5 C 13,8 C 9,7 km/h (2 Bft) 97,87 %
13.07.2019 04:18 13,8 C 21,1 C 13,9 C 92 % 1010,4 hPa 0,0 l/m 7,5 km/h (2 Bft) SW 228 0 min 0,000 mm 0,0 UV-I 0 W/m 12,5 C 13,1 C 11,3 km/h (2 Bft) 97,87 %
13.07.2019 04:20 13,7 C 21,1 C 13,9 C 93 % 1010,4 hPa 0,0 l/m 5,0 km/h (1 Bft) W-SW 243 0 min 0,000 mm 0,0 UV-I 0 W/m 12,6 C 13,7 C 8,0 km/h (2 Bft) 97,92 %
13.07.2019 04:22 13,7 C 21,1 C 13,9 C 93 % 1010,4 hPa 0,0 l/m 5,8 km/h (2 Bft) W-SW 243 0 min 0,000 mm 0,0 UV-I 0 W/m 12,6 C 13,7 C 9,7 km/h (2 Bft) 100,00 %
13.07.2019 04:24 13,7 C 21,1 C 13,9 C 93 % 1010,3 hPa 0,0 l/m 6,4 km/h (2 Bft) SW 235 0 min 0,000 mm 0,0 UV-I 0 W/m 12,6 C 13,7 C 8,0 km/h (2 Bft) 95,74 %
13.07.2019 04:26 13,7 C 21,1 C 13,9 C 93 % 1010,3 hPa 0,0 l/m 6,4 km/h (2 Bft) W-SW 240 0 min 0,000 mm 0,0 UV-I 0 W/m 12,6 C 13,7 C 8,0 km/h (2 Bft) 100,00 %
13.07.2019 04:28 13,7 C 21,1 C 13,9 C 93 % 1010,3 hPa 0,0 l/m 5,7 km/h (1 Bft) SW 228 0 min 0,000 mm 0,0 UV-I 0 W/m 12,6 C 13,7 C 8,0 km/h (2 Bft) 95,74 %
13.07.2019 04:30 13,7 C 21,1 C 13,9 C 93 % 1010,3 hPa 0,0 l/m 5,6 km/h (1 Bft) SW 215 0 min 0,000 mm 0,0 UV-I 0 W/m 12,6 C 13,7 C 8,0 km/h (2 Bft) 100,00 %
13.07.2019 04:32 13,7 C 21,1 C 13,9 C 93 % 1010,3 hPa 0,0 l/m 6,3 km/h (2 Bft) SW 225 0 min 0,000 mm 0,0 UV-I 0 W/m 12,6 C 13,7 C 11,3 km/h (2 Bft) 97,83 %
13.07.2019 04:34 13,7 C 21,1 C 13,9 C 93 % 1010,4 hPa 0,0 l/m 7,4 km/h (2 Bft) SW 214 0 min 0,000 mm 0,0 UV-I 0 W/m 12,6 C 13,1 C 11,3 km/h (2 Bft) 97,87 %
13.07.2019 04:36 13,7 C 21,1 C 13,9 C 93 % 1010,4 hPa 0,0 l/m 7,4 km/h (2 Bft) W-SW 250 0 min 0,000 mm 0,0 UV-I 0 W/m 12,6 C 13,1 C 12,9 km/h (3 Bft) 100,00 %
13.07.2019 04:38 13,7 C 21,1 C 13,9 C 93 % 1010,3 hPa 0,0 l/m 7,2 km/h (2 Bft) SW 216 0 min 0,000 mm 0,0 UV-I 0 W/m 12,6 C 13,2 C 14,5 km/h (3 Bft) 97,96 %
13.07.2019 04:40 13,7 C 21,1 C 13,9 C 93 % 1010,3 hPa 0,0 l/m 8,2 km/h (2 Bft) W-SW 250 0 min 0,000 mm 0,0 UV-I 0 W/m 12,6 C 12,6 C 11,3 km/h (2 Bft) 94,00 %
13.07.2019 04:42 13,8 C 21,1 C 13,9 C 93 % 1010,3 hPa 0,0 l/m 6,4 km/h (2 Bft) W-SW 240 0 min 0,000 mm 0,0 UV-I 0 W/m 12,7 C 13,8 C 9,7 km/h (2 Bft) 97,87 %
13.07.2019 04:44 13,8 C 21,1 C 13,9 C 93 % 1010,3 hPa 0,0 l/m 7,9 km/h (2 Bft) SW 236 0 min 0,000 mm 0,0 UV-I 0 W/m 12,7 C 12,9 C 9,7 km/h (2 Bft) 98,00 %
13.07.2019 04:46 13,8 C 21,1 C 13,9 C 93 % 1010,3 hPa 0,0 l/m 5,5 km/h (1 Bft) SW 234 0 min 0,000 mm 0,0 UV-I 0 W/m 12,7 C 13,8 C 8,0 km/h (2 Bft) 97,87 %
13.07.2019 04:48 13,8 C 21,1 C 13,9 C 93 % 1010,3 hPa 0,0 l/m 5,9 km/h (2 Bft) W-SW 240 0 min 0,000 mm 0,0 UV-I 0 W/m 12,7 C 13,8 C 9,7 km/h (2 Bft) 95,74 %
13.07.2019 04:50 13,8 C 21,1 C 13,9 C 93 % 1010,3 hPa 0,0 l/m 7,3 km/h (2 Bft) SW 232 0 min 0,000 mm 0,0 UV-I 0 W/m 12,7 C 13,3 C 11,3 km/h (2 Bft) 95,74 %
13.07.2019 04:52 13,8 C 21,1 C 13,9 C 93 % 1010,3 hPa 0,0 l/m 6,7 km/h (2 Bft) W-SW 250 0 min 0,000 mm 0,0 UV-I 0 W/m 12,7 C 13,6 C 11,3 km/h (2 Bft) 100,00 %
13.07.2019 04:54 13,8 C 21,1 C 13,9 C 93 % 1010,3 hPa 0,0 l/m 6,5 km/h (2 Bft) W-SW 242 0 min 0,000 mm 0,0 UV-I 0 W/m 12,7 C 13,8 C 8,0 km/h (2 Bft) 93,22 %
13.07.2019 04:56 13,8 C 21,1 C 13,9 C 93 % 1010,3 hPa 0,0 l/m 7,1 km/h (2 Bft) W-SW 242 0 min 0,000 mm 0,0 UV-I 0 W/m 12,7 C 13,4 C 11,3 km/h (2 Bft) 97,22 %
13.07.2019 04:58 13,8 C 21,1 C 13,9 C 93 % 1010,3 hPa 0,0 l/m 7,3 km/h (2 Bft) SW 235 0 min 0,000 mm 0,0 UV-I 0 W/m 12,7 C 13,3 C 12,9 km/h (3 Bft) 94,00 %
13.07.2019 05:00 13,8 C 21,1 C 13,9 C 93 % 1010,4 hPa 0,0 l/m 8,5 km/h (2 Bft) W-SW 242 0 min 0,000 mm 0,0 UV-I 0 W/m 12,7 C 12,6 C 12,9 km/h (3 Bft) 95,74 %
13.07.2019 05:02 13,8 C 21,1 C 13,9 C 93 % 1010,4 hPa 0,0 l/m 9,8 km/h (2 Bft) W-SW 244 0 min 0,000 mm 0,0 UV-I 0 W/m 12,7 C 11,9 C 14,5 km/h (3 Bft) 93,62 %
13.07.2019 05:04 13,8 C 21,1 C 13,9 C 93 % 1010,4 hPa 0,0 l/m 11,5 km/h (2 Bft) W-SW 252 0 min 0,000 mm 0,0 UV-I 0 W/m 12,7 C 11,1 C 16,1 km/h (3 Bft) 93,62 %
13.07.2019 05:06 13,8 C 21,1 C 13,9 C 93 % 1010,5 hPa 0,0 l/m 9,0 km/h (2 Bft) W-SW 240 0 min 0,000 mm 0,0 UV-I 0 W/m 12,7 C 12,3 C 12,9 km/h (3 Bft) 95,92 %
13.07.2019 05:08 13,8 C 21,1 C 13,9 C 93 % 1010,4 hPa 0,0 l/m 7,0 km/h (2 Bft) SW 235 0 min 0,000 mm 0,0 UV-I 0 W/m 12,7 C 13,4 C 11,3 km/h (2 Bft) 95,74 %
13.07.2019 05:10 13,8 C 21,1 C 13,9 C 93 % 1010,4 hPa 0,0 l/m 7,3 km/h (2 Bft) W-SW 242 0 min 0,000 mm 0,0 UV-I 0 W/m 12,7 C 13,3 C 12,9 km/h (3 Bft) 94,74 %
13.07.2019 05:12 13,8 C 21,1 C 13,9 C 93 % 1010,4 hPa 0,0 l/m 7,4 km/h (2 Bft) W 272 0 min 0,000 mm 0,0 UV-I 0 W/m 12,7 C 13,2 C 11,3 km/h (2 Bft) 94,00 %
13.07.2019 05:14 13,9 C 21,1 C 13,9 C 92 % 1010,4 hPa 0,0 l/m 8,0 km/h (2 Bft) W-SW 257 0 min 0,000 mm 0,0 UV-I 0 W/m 12,6 C 12,9 C 11,3 km/h (2 Bft) 95,74 %
13.07.2019 05:16 13,9 C 21,1 C 13,9 C 93 % 1010,4 hPa 0,0 l/m 7,5 km/h (2 Bft) W-SW 246 0 min 0,000 mm 0,0 UV-I 0 W/m 12,8 C 13,2 C 11,3 km/h (2 Bft) 91,84 %
13.07.2019 05:18 13,9 C 21,1 C 13,9 C 92 % 1010,4 hPa 0,0 l/m 9,7 km/h (2 Bft) W-SW 252 0 min 0,000 mm 0,0 UV-I 0 W/m 12,6 C 12,0 C 14,5 km/h (3 Bft) 94,34 %
13.07.2019 05:20 13,9 C 21,1 C 13,9 C 92 % 1010,4 hPa 0,0 l/m 8,2 km/h (2 Bft) W-SW 241 0 min 0,000 mm 0,0 UV-I 0 W/m 12,6 C 12,8 C 12,9 km/h (3 Bft) 95,74 %
13.07.2019 05:22 14,0 C 21,1 C 13,9 C 92 % 1010,4 hPa 0,0 l/m 11,9 km/h (2 Bft) W-NW 291 0 min 0,000 mm 0,0 UV-I 0 W/m 12,7 C 11,2 C 17,7 km/h (3 Bft) 95,74 %
13.07.2019 05:24 14,1 C 21,1 C 13,9 C 92 % 1010,4 hPa 0,0 l/m 12,2 km/h (2 Bft) W-SW 249 0 min 0,000 mm 0,0 UV-I 0 W/m 12,8 C 11,2 C 22,5 km/h (4 Bft) 92,68 %
13.07.2019 05:26 14,1 C 21,1 C 13,9 C 92 % 1010,4 hPa 0,0 l/m 11,2 km/h (2 Bft) SW 224 0 min 0,000 mm 0,0 UV-I 1 W/m 12,8 C 11,6 C 17,7 km/h (3 Bft) 96,00 %
13.07.2019 05:28 14,1 C 21,1 C 13,9 C 92 % 1010,4 hPa 0,0 l/m 8,6 km/h (2 Bft) W 264 0 min 0,000 mm 0,0 UV-I 5 W/m 12,8 C 12,8 C 12,9 km/h (3 Bft) 95,74 %
13.07.2019 05:30 14,1 C 21,1 C 13,9 C 92 % 1010,4 hPa 0,0 l/m 12,9 km/h (3 Bft) W-SW 256 0 min 0,000 mm 0,0 UV-I 5 W/m 12,8 C 10,9 C 17,7 km/h (3 Bft) 95,74 %
13.07.2019 05:32 14,1 C 21,1 C 13,9 C 92 % 1010,4 hPa 0,0 l/m 9,0 km/h (2 Bft) W-SW 255 0 min 0,000 mm 0,0 UV-I 5 W/m 12,8 C 12,6 C 12,9 km/h (3 Bft) 96,00 %
13.07.2019 05:34 14,1 C 21,1 C 13,9 C 92 % 1010,4 hPa 0,0 l/m 8,9 km/h (2 Bft) W-SW 247 0 min 0,000 mm 0,0 UV-I 5 W/m 12,8 C 12,7 C 14,5 km/h (3 Bft) 91,49 %
13.07.2019 05:36 14,1 C 21,1 C 13,9 C 92 % 1010,4 hPa 0,0 l/m 11,5 km/h (2 Bft) SW 226 0 min 0,000 mm 0,0 UV-I 5 W/m 12,8 C 11,4 C 16,1 km/h (3 Bft) 95,74 %
13.07.2019 05:38 14,1 C 21,1 C 13,9 C 92 % 1010,4 hPa 0,0 l/m 8,8 km/h (2 Bft) W 269 0 min 0,000 mm 0,0 UV-I 5 W/m 12,8 C 12,7 C 14,5 km/h (3 Bft) 95,83 %
13.07.2019 05:40 14,1 C 21,1 C 13,9 C 92 % 1010,4 hPa 0,0 l/m 8,6 km/h (2 Bft) W-SW 257 0 min 0,000 mm 0,0 UV-I 5 W/m 12,8 C 12,8 C 12,9 km/h (3 Bft) 97,37 %
13.07.2019 05:42 14,1 C 21,1 C 13,9 C 92 % 1010,4 hPa 0,0 l/m 8,2 km/h (2 Bft) W 273 0 min 0,000 mm 0,0 UV-I 5 W/m 12,8 C 13,0 C 11,3 km/h (2 Bft) 95,74 %
13.07.2019 05:44 14,1 C 21,1 C 13,9 C 92 % 1010,5 hPa 0,0 l/m 9,5 km/h (2 Bft) W 262 0 min 0,000 mm 0,0 UV-I 5 W/m 12,8 C 12,4 C 14,5 km/h (3 Bft) 97,87 %
13.07.2019 05:46 14,1 C 21,1 C 13,9 C 92 % 1010,5 hPa 0,0 l/m 8,4 km/h (2 Bft) W 259 0 min 0,000 mm 0,0 UV-I 5 W/m 12,8 C 12,9 C 14,5 km/h (3 Bft) 93,62 %
13.07.2019 05:48 14,1 C 21,1 C 13,9 C 93 % 1010,5 hPa 0,0 l/m 10,4 km/h (2 Bft) W 280 0 min 0,000 mm 0,0 UV-I 5 W/m 13,0 C 11,9 C 16,1 km/h (3 Bft) 95,74 %
13.07.2019 05:50 14,1 C 21,1 C 13,9 C 93 % 1010,5 hPa 0,0 l/m 7,5 km/h (2 Bft) W 265 0 min 0,000 mm 0,0 UV-I 5 W/m 13,0 C 13,4 C 12,9 km/h (3 Bft) 97,87 %
13.07.2019 05:52 14,1 C 21,1 C 13,9 C 93 % 1010,6 hPa 0,0 l/m 9,5 km/h (2 Bft) W-SW 239 0 min 0,000 mm 0,0 UV-I 7 W/m 13,0 C 12,4 C 14,5 km/h (3 Bft) 97,87 %
13.07.2019 05:54 14,1 C 21,1 C 13,9 C 93 % 1010,6 hPa 0,0 l/m 10,6 km/h (2 Bft) W-SW 254 0 min 0,000 mm 0,0 UV-I 9 W/m 13,0 C 11,8 C 19,3 km/h (3 Bft) 98,00 %
13.07.2019 05:56 14,1 C 21,1 C 13,9 C 93 % 1010,6 hPa 0,0 l/m 11,5 km/h (2 Bft) W-SW 248 0 min 0,000 mm 0,0 UV-I 10 W/m 13,0 C 11,4 C 20,9 km/h (4 Bft) 97,87 %
13.07.2019 05:58 14,1 C 21,1 C 13,9 C 93 % 1010,6 hPa 0,0 l/m 9,5 km/h (2 Bft) W-SW 256 0 min 0,000 mm 0,0 UV-I 9 W/m 13,0 C 12,4 C 16,1 km/h (3 Bft) 95,74 %
13.07.2019 06:00 14,1 C 21,1 C 13,9 C 93 % 1010,6 hPa 0,0 l/m 9,2 km/h (2 Bft) W-SW 254 0 min 0,000 mm 0,0 UV-I 9 W/m 13,0 C 12,5 C 16,1 km/h (3 Bft) 95,74 %
13.07.2019 06:02 14,1 C 21,1 C 13,9 C 93 % 1010,6 hPa 0,0 l/m 11,1 km/h (2 Bft) W 273 0 min 0,000 mm 0,0 UV-I 9 W/m 13,0 C 11,6 C 17,7 km/h (3 Bft) 97,87 %
13.07.2019 06:04 14,1 C 21,1 C 13,9 C 93 % 1010,6 hPa 0,2 l/m 8,3 km/h (2 Bft) W 259 0 min 0,000 mm 0,0 UV-I 9 W/m 13,0 C 13,0 C 14,5 km/h (3 Bft) 100,00 %
13.07.2019 06:06 14,1 C 21,1 C 13,9 C 93 % 1010,5 hPa 0,0 l/m 13,2 km/h (3 Bft) W 268 0 min 0,000 mm 0,0 UV-I 9 W/m 13,0 C 10,8 C 20,9 km/h (4 Bft) 100,00 %
13.07.2019 06:08 14,1 C 21,1 C 13,9 C 93 % 1010,6 hPa 0,0 l/m 11,8 km/h (2 Bft) SW 232 0 min 0,000 mm 0,0 UV-I 10 W/m 13,0 C 11,3 C 19,3 km/h (3 Bft) 100,00 %
13.07.2019 06:10 14,1 C 21,1 C 13,9 C 93 % 1010,6 hPa 0,0 l/m 13,8 km/h (3 Bft) SW 225 0 min 0,000 mm 0,0 UV-I 11 W/m 13,0 C 10,5 C 20,9 km/h (4 Bft) 97,87 %
13.07.2019 06:12 14,1 C 21,1 C 13,9 C 93 % 1010,6 hPa 0,0 l/m 14,1 km/h (3 Bft) W-SW 253 0 min 0,000 mm 0,0 UV-I 12 W/m 13,0 C 10,4 C 25,7 km/h (4 Bft) 97,87 %
13.07.2019 06:14 14,1 C 21,1 C 13,9 C 93 % 1010,7 hPa 0,0 l/m 12,7 km/h (3 Bft) W-SW 251 0 min 0,000 mm 0,0 UV-I 11 W/m 13,0 C 11,0 C 17,7 km/h (3 Bft) 97,87 %
13.07.2019 06:16 14,1 C 21,1 C 13,9 C 94 % 1010,7 hPa 0,2 l/m 14,9 km/h (3 Bft) W-SW 241 0 min 0,000 mm 0,0 UV-I 11 W/m 13,1 C 10,1 C 24,1 km/h (4 Bft) 97,87 %
13.07.2019 06:18 14,0 C 21,1 C 13,9 C 94 % 1010,7 hPa 0,0 l/m 17,3 km/h (3 Bft) W 277 0 min 0,000 mm 0,0 UV-I 12 W/m 13,0 C 9,2 C 25,7 km/h (4 Bft) 96,00 %
13.07.2019 06:20 14,0 C 21,1 C 13,9 C 94 % 1010,7 hPa 0,0 l/m 14,5 km/h (3 Bft) W-NW 285 0 min 0,000 mm 0,0 UV-I 12 W/m 13,0 C 10,2 C 24,1 km/h (4 Bft) 97,87 %
13.07.2019 06:22 14,0 C 20,6 C 13,9 C 94 % 1010,7 hPa 0,0 l/m 14,1 km/h (3 Bft) W-SW 246 0 min 0,000 mm 0,0 UV-I 12 W/m 13,0 C 10,3 C 19,3 km/h (3 Bft) 97,87 %
13.07.2019 06:24 14,0 C 20,6 C 13,9 C 94 % 1010,7 hPa 0,0 l/m 15,3 km/h (3 Bft) W 259 0 min 0,000 mm 0,0 UV-I 11 W/m 13,0 C 9,9 C 24,1 km/h (4 Bft) 98,00 %
13.07.2019 06:26 14,0 C 21,1 C 13,9 C 94 % 1010,7 hPa 0,0 l/m 13,0 km/h (3 Bft) SW 232 0 min 0,000 mm 0,0 UV-I 10 W/m 13,0 C 10,7 C 19,3 km/h (3 Bft) 97,87 %
13.07.2019 06:28 14,0 C 21,1 C 13,9 C 94 % 1010,7 hPa 0,0 l/m 13,0 km/h (3 Bft) W-SW 250 0 min 0,000 mm 0,0 UV-I 10 W/m 13,0 C 10,7 C 19,3 km/h (3 Bft) 97,87 %
13.07.2019 06:30 13,9 C 20,6 C 13,9 C 94 % 1010,7 hPa 0,2 l/m 15,1 km/h (3 Bft) SW 227 0 min 0,000 mm 0,0 UV-I 8 W/m 12,9 C 9,8 C 20,9 km/h (4 Bft) 97,87 %
13.07.2019 06:32 13,9 C 20,6 C 13,9 C 94 % 1010,7 hPa 0,0 l/m 12,4 km/h (3 Bft) W 263 0 min 0,000 mm 0,0 UV-I 8 W/m 12,9 C 10,8 C 17,7 km/h (3 Bft) 97,87 %
13.07.2019 06:34 13,9 C 21,1 C 13,9 C 94 % 1010,8 hPa 0,0 l/m 14,1 km/h (3 Bft) W 259 0 min 0,000 mm 0,0 UV-I 6 W/m 12,9 C 10,2 C 17,7 km/h (3 Bft) 100,00 %
13.07.2019 06:36 13,9 C 21,1 C 13,9 C 94 % 1010,8 hPa 0,6 l/m 13,8 km/h (3 Bft) W 269 0 min 0,000 mm 0,0 UV-I 7 W/m 12,9 C 10,3 C 20,9 km/h (4 Bft) 100,00 %
13.07.2019 06:38 13,9 C 21,1 C 13,9 C 95 % 1010,8 hPa 0,2 l/m 12,0 km/h (2 Bft) W 270 0 min 0,000 mm 0,0 UV-I 7 W/m 13,1 C 11,0 C 16,1 km/h (3 Bft) 100,00 %
13.07.2019 06:40 13,9 C 21,1 C 13,9 C 95 % 1010,8 hPa 0,2 l/m 10,7 km/h (2 Bft) W 271 0 min 0,000 mm 0,0 UV-I 9 W/m 13,1 C 11,6 C 14,5 km/h (3 Bft) 98,00 %
13.07.2019 06:42 13,8 C 21,1 C 13,9 C 95 % 1010,8 hPa 0,2 l/m 10,6 km/h (2 Bft) W-SW 242 0 min 0,000 mm 0,0 UV-I 11 W/m 13,0 C 11,5 C 16,1 km/h (3 Bft) 97,87 %
13.07.2019 06:44 13,8 C 21,1 C 13,9 C 95 % 1010,8 hPa 0,0 l/m 11,4 km/h (2 Bft) W-SW 255 0 min 0,000 mm 0,0 UV-I 11 W/m 13,0 C 11,1 C 19,3 km/h (3 Bft) 100,00 %
13.07.2019 06:46 13,8 C 21,1 C 13,9 C 95 % 1010,9 hPa 0,2 l/m 10,5 km/h (2 Bft) W 259 0 min 0,000 mm 0,0 UV-I 11 W/m 13,0 C 11,6 C 17,7 km/h (3 Bft) 100,00 %
13.07.2019 06:48 13,8 C 21,1 C 13,9 C 95 % 1010,9 hPa 0,2 l/m 9,9 km/h (2 Bft) W 267 0 min 0,000 mm 0,0 UV-I 12 W/m 13,0 C 11,8 C 16,1 km/h (3 Bft) 100,00 %
13.07.2019 06:50 13,8 C 21,1 C 13,9 C 95 % 1010,8 hPa 0,0 l/m 13,7 km/h (3 Bft) W-SW 248 0 min 0,000 mm 0,0 UV-I 12 W/m 13,0 C 10,2 C 24,1 km/h (4 Bft) 100,00 %
13.07.2019 06:52 13,8 C 21,1 C 13,9 C 95 % 1010,9 hPa 0,2 l/m 13,6 km/h (3 Bft) W 266 0 min 0,000 mm 0,0 UV-I 14 W/m 13,0 C 10,2 C 20,9 km/h (4 Bft) 97,92 %
13.07.2019 06:54 13,8 C 21,1 C 13,9 C 95 % 1010,8 hPa 0,0 l/m 16,0 km/h (3 Bft) W-NW 292 0 min 0,000 mm 0,0 UV-I 16 W/m 13,0 C 9,4 C 24,1 km/h (4 Bft) 100,00 %
13.07.2019 06:56 13,8 C 20,6 C 13,9 C 95 % 1010,8 hPa 0,0 l/m 17,3 km/h (3 Bft) W 267 0 min 0,000 mm 0,0 UV-I 18 W/m 13,0 C 9,0 C 25,7 km/h (4 Bft) 98,00 %
13.07.2019 06:58 13,8 C 20,6 C 13,9 C 95 % 1010,8 hPa 0,0 l/m 13,6 km/h (3 Bft) W-SW 256 0 min 0,000 mm 0,0 UV-I 22 W/m 13,0 C 10,2 C 19,3 km/h (3 Bft) 100,00 %
13.07.2019 07:00 13,8 C 20,6 C 13,9 C 95 % 1010,8 hPa 0,0 l/m 14,8 km/h (3 Bft) W-SW 252 0 min 0,000 mm 0,0 UV-I 30 W/m 13,0 C 9,8 C 22,5 km/h (4 Bft) 100,00 %
13.07.2019 07:02 13,8 C 20,6 C 14,4 C 95 % 1010,8 hPa 0,0 l/m 12,7 km/h (3 Bft) W-NW 284 0 min 0,025 mm 0,0 UV-I 39 W/m 13,0 C 10,6 C 16,1 km/h (3 Bft) 95,74 %
13.07.2019 07:04 13,9 C 20,6 C 14,4 C 95 % 1010,8 hPa 0,0 l/m 13,1 km/h (3 Bft) W 269 0 min 0,000 mm 0,0 UV-I 45 W/m 13,1 C 10,6 C 17,7 km/h (3 Bft) 100,00 %
13.07.2019 07:06 13,9 C 20,6 C 14,4 C 95 % 1010,9 hPa 0,0 l/m 10,2 km/h (2 Bft) W-SW 253 0 min 0,000 mm 0,0 UV-I 44 W/m 13,1 C 11,8 C 16,1 km/h (3 Bft) 96,00 %
13.07.2019 07:08 13,9 C 20,6 C 14,4 C 95 % 1010,8 hPa 0,0 l/m 10,0 km/h (2 Bft) W-SW 257 0 min 0,000 mm 0,0 UV-I 42 W/m 13,1 C 11,9 C 16,1 km/h (3 Bft) 97,87 %
13.07.2019 07:10 13,9 C 20,6 C 14,4 C 95 % 1010,8 hPa 0,0 l/m 9,9 km/h (2 Bft) W 271 0 min 0,000 mm 0,0 UV-I 38 W/m 13,1 C 12,0 C 14,5 km/h (3 Bft) 97,87 %
13.07.2019 07:12 13,9 C 20,6 C 14,4 C 95 % 1010,9 hPa 0,2 l/m 10,0 km/h (2 Bft) W 265 0 min 0,000 mm 0,0 UV-I 35 W/m 13,1 C 11,9 C 16,1 km/h (3 Bft) 98,00 %
13.07.2019 07:14 13,9 C 20,6 C 14,4 C 95 % 1010,9 hPa 0,0 l/m 9,4 km/h (2 Bft) SW 232 0 min 0,000 mm 0,0 UV-I 31 W/m 13,1 C 12,2 C 14,5 km/h (3 Bft) 97,87 %
13.07.2019 07:16 13,9 C 20,6 C 14,4 C 95 % 1010,9 hPa 0,0 l/m 12,2 km/h (2 Bft) W 266 0 min 0,000 mm 0,0 UV-I 26 W/m 13,1 C 10,9 C 17,7 km/h (3 Bft) 97,87 %
13.07.2019 07:18 14,0 C 20,6 C 14,4 C 95 % 1010,9 hPa 0,2 l/m 11,4 km/h (2 Bft) W 263 0 min 0,000 mm 0,0 UV-I 28 W/m 13,2 C 11,4 C 19,3 km/h (3 Bft) 95,74 %
13.07.2019 07:20 13,9 C 20,6 C 14,4 C 95 % 1010,9 hPa 0,0 l/m 16,6 km/h (3 Bft) W 273 0 min 0,000 mm 0,0 UV-I 34 W/m 13,1 C 9,3 C 27,4 km/h (4 Bft) 97,37 %
13.07.2019 07:22 13,9 C 20,6 C 14,4 C 95 % 1010,9 hPa 0,2 l/m 16,2 km/h (3 Bft) W 274 0 min 0,000 mm 0,0 UV-I 38 W/m 13,1 C 9,5 C 24,1 km/h (4 Bft) 95,74 %
13.07.2019 07:24 13,9 C 20,6 C 14,4 C 95 % 1010,9 hPa 0,0 l/m 17,1 km/h (3 Bft) W 274 0 min 0,000 mm 0,0 UV-I 41 W/m 13,1 C 9,2 C 29,0 km/h (5 Bft) 97,87 %
13.07.2019 07:26 13,9 C 20,6 C 14,4 C 95 % 1011,0 hPa 0,0 l/m 17,6 km/h (3 Bft) W 279 0 min 0,000 mm 0,0 UV-I 51 W/m 13,1 C 9,0 C 24,1 km/h (4 Bft) 96,23 %
13.07.2019 07:28 13,9 C 20,6 C 14,4 C 95 % 1011,0 hPa 0,0 l/m 15,2 km/h (3 Bft) W-NW 282 0 min 0,000 mm 0,0 UV-I 64 W/m 13,1 C 9,8 C 20,9 km/h (4 Bft) 97,87 %
13.07.2019 07:30 13,9 C 20,6 C 14,4 C 95 % 1011,1 hPa 0,2 l/m 13,6 km/h (3 Bft) W-SW 252 0 min 0,000 mm 0,0 UV-I 69 W/m 13,1 C 10,4 C 20,9 km/h (4 Bft) 97,87 %
13.07.2019 07:32 13,9 C 20,6 C 14,4 C 95 % 1011,1 hPa 0,0 l/m 17,4 km/h (3 Bft) W 275 0 min 0,000 mm 0,0 UV-I 64 W/m 13,1 C 9,1 C 24,1 km/h (4 Bft) 97,92 %
13.07.2019 07:34 14,0 C 20,6 C 14,4 C 95 % 1011,3 hPa 0,0 l/m 12,3 km/h (3 Bft) W-SW 247 0 min 0,000 mm 0,0 UV-I 73 W/m 13,2 C 11,0 C 19,3 km/h (3 Bft) 94,74 %
13.07.2019 07:36 14,0 C 20,6 C 14,4 C 95 % 1011,3 hPa 0,0 l/m 12,6 km/h (3 Bft) W-SW 258 0 min 0,000 mm 0,0 UV-I 75 W/m 13,2 C 10,9 C 19,3 km/h (3 Bft) 96,00 %
13.07.2019 07:38 14,0 C 20,6 C 14,4 C 95 % 1011,2 hPa 0,0 l/m 14,6 km/h (3 Bft) W 267 0 min 0,000 mm 0,0 UV-I 78 W/m 13,2 C 10,1 C 20,9 km/h (4 Bft) 95,74 %
13.07.2019 07:40 14,1 C 20,6 C 14,4 C 95 % 1011,3 hPa 0,0 l/m 12,6 km/h (3 Bft) W-SW 250 0 min 0,000 mm 0,0 UV-I 76 W/m 13,3 C 11,0 C 17,7 km/h (3 Bft) 96,00 %
13.07.2019 07:42 14,0 C 20,6 C 14,4 C 95 % 1011,3 hPa 0,0 l/m 16,1 km/h (3 Bft) W-NW 291 0 min 0,000 mm 0,0 UV-I 67 W/m 13,2 C 9,6 C 24,1 km/h (4 Bft) 93,62 %
13.07.2019 07:44 14,1 C 20,6 C 14,4 C 95 % 1011,3 hPa 0,0 l/m 14,7 km/h (3 Bft) W-SW 252 0 min 0,000 mm 0,0 UV-I 62 W/m 13,3 C 10,2 C 22,5 km/h (4 Bft) 98,00 %
13.07.2019 07:46 14,1 C 20,6 C 14,4 C 95 % 1011,2 hPa 0,0 l/m 15,4 km/h (3 Bft) W-SW 244 0 min 0,000 mm 0,0 UV-I 63 W/m 13,3 C 10,0 C 22,5 km/h (4 Bft) 97,87 %
13.07.2019 07:48 14,1 C 20,6 C 14,4 C 95 % 1011,2 hPa 0,0 l/m 12,5 km/h (3 Bft) W-SW 252 0 min 0,000 mm 0,0 UV-I 70 W/m 13,3 C 11,0 C 19,3 km/h (3 Bft) 97,14 %
13.07.2019 07:50 14,1 C 20,6 C 14,4 C 94 % 1011,3 hPa 0,2 l/m 15,7 km/h (3 Bft) W-NW 286 0 min 0,000 mm 0,0 UV-I 76 W/m 13,1 C 9,9 C 29,0 km/h (5 Bft) 98,11 %
13.07.2019 07:52 14,1 C 20,6 C 14,4 C 94 % 1011,4 hPa 0,0 l/m 15,4 km/h (3 Bft) W 273 0 min 0,000 mm 0,0 UV-I 76 W/m 13,1 C 10,0 C 22,5 km/h (4 Bft) 97,87 %
13.07.2019 07:54 14,1 C 20,6 C 14,4 C 94 % 1011,4 hPa 0,0 l/m 16,9 km/h (3 Bft) W 261 0 min 0,000 mm 0,0 UV-I 74 W/m 13,1 C 9,5 C 22,5 km/h (4 Bft) 97,87 %
13.07.2019 07:56 14,1 C 20,6 C 14,4 C 94 % 1011,4 hPa 0,0 l/m 14,1 km/h (3 Bft) W-NW 294 0 min 0,000 mm 0,0 UV-I 91 W/m 13,1 C 10,4 C 20,9 km/h (4 Bft) 98,00 %
13.07.2019 07:58 14,1 C 20,6 C 15,0 C 94 % 1011,4 hPa 0,0 l/m 13,2 km/h (3 Bft) W 269 0 min 0,000 mm 0,0 UV-I 111 W/m 13,1 C 10,8 C 19,3 km/h (3 Bft) 97,87 %
13.07.2019 08:00 14,1 C 20,6 C 15,0 C 94 % 1011,4 hPa 0,0 l/m 11,8 km/h (2 Bft) W 263 0 min 0,051 mm 0,0 UV-I 106 W/m 13,1 C 11,3 C 19,3 km/h (3 Bft) 97,87 %
13.07.2019 08:02 14,1 C 20,6 C 15,0 C 94 % 1011,4 hPa 0,0 l/m 14,1 km/h (3 Bft) W-SW 249 0 min 0,000 mm 0,0 UV-I 111 W/m 13,1 C 10,4 C 19,3 km/h (3 Bft) 97,87 %
13.07.2019 08:04 14,1 C 20,6 C 15,0 C 94 % 1011,4 hPa 0,0 l/m 14,8 km/h (3 Bft) W 272 0 min 0,000 mm 0,0 UV-I 102 W/m 13,1 C 10,2 C 22,5 km/h (4 Bft) 100,00 %
13.07.2019 08:06 14,1 C 20,6 C 15,0 C 94 % 1011,4 hPa 0,0 l/m 14,5 km/h (3 Bft) W 278 0 min 0,000 mm 0,0 UV-I 96 W/m 13,1 C 10,3 C 20,9 km/h (4 Bft) 97,87 %
13.07.2019 08:08 14,1 C 20,6 C 15,0 C 94 % 1011,4 hPa 0,0 l/m 13,1 km/h (3 Bft) W 260 0 min 0,000 mm 0,0 UV-I 96 W/m 13,1 C 10,8 C 17,7 km/h (3 Bft) 100,00 %
13.07.2019 08:10 14,1 C 20,6 C 15,0 C 94 % 1011,5 hPa 0,0 l/m 13,0 km/h (3 Bft) W-SW 245 0 min 0,000 mm 0,0 UV-I 104 W/m 13,1 C 10,8 C 20,9 km/h (4 Bft) 98,00 %
13.07.2019 08:12 14,1 C 20,6 C 15,0 C 94 % 1011,5 hPa 0,0 l/m 12,7 km/h (3 Bft) W 259 0 min 0,000 mm 0,0 UV-I 96 W/m 13,1 C 11,0 C 19,3 km/h (3 Bft) 100,00 %
13.07.2019 08:14 14,1 C 20,6 C 14,4 C 94 % 1011,5 hPa 0,0 l/m 13,2 km/h (3 Bft) W-SW 241 0 min 0,000 mm 0,0 UV-I 100 W/m 13,1 C 10,8 C 20,9 km/h (4 Bft) 100,00 %
13.07.2019 08:16 14,1 C 20,6 C 15,0 C 94 % 1011,5 hPa 0,0 l/m 13,1 km/h (3 Bft) W-SW 252 0 min 0,000 mm 0,0 UV-I 103 W/m 13,1 C 10,8 C 19,3 km/h (3 Bft) 100,00 %
13.07.2019 08:18 14,1 C 20,6 C 14,4 C 94 % 1011,5 hPa 0,0 l/m 12,0 km/h (2 Bft) W-NW 291 0 min 0,000 mm 0,0 UV-I 98 W/m 13,1 C 11,2 C 16,1 km/h (3 Bft) 98,00 %
13.07.2019 08:20 14,1 C 20,6 C 15,0 C 94 % 1011,6 hPa 0,0 l/m 14,8 km/h (3 Bft) W-SW 252 0 min 0,000 mm 0,0 UV-I 100 W/m 13,1 C 10,2 C 20,9 km/h (4 Bft) 100,00 %
13.07.2019 08:22 14,1 C 20,6 C 15,0 C 94 % 1011,6 hPa 0,0 l/m 14,6 km/h (3 Bft) W 263 0 min 0,000 mm 0,0 UV-I 100 W/m 13,1 C 10,2 C 19,3 km/h (3 Bft) 100,00 %
13.07.2019 08:24 14,1 C 20,6 C 15,0 C 94 % 1011,6 hPa 0,0 l/m 10,7 km/h (2 Bft) W-SW 238 0 min 0,000 mm 0,0 UV-I 113 W/m 13,1 C 11,8 C 17,7 km/h (3 Bft) 100,00 %
13.07.2019 08:26 14,1 C 20,6 C 15,0 C 93 % 1011,6 hPa 0,0 l/m 12,0 km/h (2 Bft) W 259 0 min 0,000 mm 0,0 UV-I 102 W/m 13,0 C 11,2 C 17,7 km/h (3 Bft) 100,00 %
13.07.2019 08:28 14,2 C 20,6 C 15,0 C 93 % 1011,6 hPa 0,0 l/m 11,2 km/h (2 Bft) W 272 0 min 0,000 mm 0,0 UV-I 95 W/m 13,1 C 11,7 C 17,7 km/h (3 Bft) 100,00 %
13.07.2019 08:30 14,1 C 20,6 C 14,4 C 93 % 1011,7 hPa 0,0 l/m 12,8 km/h (3 Bft) W-NW 287 0 min 0,000 mm 0,0 UV-I 77 W/m 13,0 C 10,9 C 20,9 km/h (4 Bft) 97,87 %
13.07.2019 08:32 14,1 C 20,6 C 14,4 C 93 % 1011,6 hPa 0,0 l/m 12,2 km/h (2 Bft) W-SW 240 0 min 0,000 mm 0,0 UV-I 80 W/m 13,0 C 11,2 C 20,9 km/h (4 Bft) 100,00 %
13.07.2019 08:34 14,1 C 20,6 C 14,4 C 94 % 1011,7 hPa 0,0 l/m 11,9 km/h (2 Bft) W-SW 238 0 min 0,000 mm 0,0 UV-I 88 W/m 13,1 C 11,3 C 19,3 km/h (3 Bft) 100,00 %
13.07.2019 08:36 14,1 C 20,6 C 14,4 C 94 % 1011,7 hPa 0,0 l/m 11,7 km/h (2 Bft) W-SW 238 0 min 0,000 mm 0,0 UV-I 84 W/m 13,1 C 11,4 C 16,1 km/h (3 Bft) 100,00 %
13.07.2019 08:38 14,1 C 20,6 C 14,4 C 94 % 1011,7 hPa 0,0 l/m 11,5 km/h (2 Bft) W-SW 241 0 min 0,000 mm 0,0 UV-I 76 W/m 13,1 C 11,4 C 16,1 km/h (3 Bft) 100,00 %
13.07.2019 08:40 14,1 C 20,6 C 14,4 C 94 % 1011,7 hPa 0,0 l/m 12,2 km/h (2 Bft) W 273 0 min 0,000 mm 0,0 UV-I 75 W/m 13,1 C 11,2 C 17,7 km/h (3 Bft) 100,00 %
13.07.2019 08:42 14,1 C 20,6 C 14,4 C 94 % 1011,8 hPa 0,0 l/m 10,3 km/h (2 Bft) W-SW 243 0 min 0,000 mm 0,0 UV-I 73 W/m 13,1 C 12,0 C 17,7 km/h (3 Bft) 100,00 %
13.07.2019 08:44 14,1 C 20,6 C 14,4 C 94 % 1011,8 hPa 0,2 l/m 8,4 km/h (2 Bft) W 260 0 min 0,000 mm 0,0 UV-I 78 W/m 13,1 C 12,9 C 14,5 km/h (3 Bft) 100,00 %
13.07.2019 08:46 14,1 C 20,6 C 14,4 C 94 % 1011,8 hPa 0,0 l/m 11,7 km/h (2 Bft) W-NW 282 0 min 0,000 mm 0,0 UV-I 86 W/m 13,1 C 11,4 C 19,3 km/h (3 Bft) 100,00 %
13.07.2019 08:48 14,1 C 20,6 C 15,0 C 94 % 1011,9 hPa 0,0 l/m 9,9 km/h (2 Bft) W-NW 282 0 min 0,000 mm 0,0 UV-I 91 W/m 13,1 C 12,2 C 14,5 km/h (3 Bft) 95,74 %
13.07.2019 08:50 14,0 C 20,6 C 15,0 C 94 % 1011,8 hPa 0,0 l/m 11,1 km/h (2 Bft) W-NW 289 0 min 0,000 mm 0,0 UV-I 110 W/m 13,0 C 11,5 C 16,1 km/h (3 Bft) 100,00 %
13.07.2019 08:52 14,1 C 20,6 C 15,0 C 94 % 1011,8 hPa 0,0 l/m 8,5 km/h (2 Bft) W 275 0 min 0,000 mm 0,5 UV-I 125 W/m 13,1 C 12,9 C 17,7 km/h (3 Bft) 97,87 %
13.07.2019 08:54 14,1 C 20,6 C 15,0 C 94 % 1011,8 hPa 0,0 l/m 11,8 km/h (2 Bft) W-NW 282 0 min 0,000 mm 0,4 UV-I 125 W/m 13,1 C 11,3 C 17,7 km/h (3 Bft) 100,00 %
13.07.2019 08:56 14,1 C 20,6 C 15,0 C 95 % 1011,8 hPa 0,0 l/m 7,3 km/h (2 Bft) W 261 0 min 0,000 mm 0,4 UV-I 124 W/m 13,3 C 13,6 C 14,5 km/h (3 Bft) 100,00 %
13.07.2019 08:58 14,1 C 20,6 C 15,0 C 95 % 1011,8 hPa 0,0 l/m 7,3 km/h (2 Bft) W 281 0 min 0,000 mm 0,5 UV-I 134 W/m 13,3 C 13,6 C 14,5 km/h (3 Bft) 97,87 %
13.07.2019 09:00 14,1 C 20,6 C 15,6 C 95 % 1011,9 hPa 0,0 l/m 5,1 km/h (1 Bft) W 273 0 min 0,051 mm 0,5 UV-I 134 W/m 13,3 C 14,1 C 8,0 km/h (2 Bft) 97,87 %
13.07.2019 09:02 14,2 C 20,6 C 15,6 C 95 % 1011,9 hPa 0,0 l/m 7,7 km/h (2 Bft) W-NW 294 0 min 0,000 mm 0,5 UV-I 132 W/m 13,4 C 13,4 C 12,9 km/h (3 Bft) 95,74 %
13.07.2019 09:04 14,2 C 20,6 C 15,6 C 95 % 1011,9 hPa 0,0 l/m 7,0 km/h (2 Bft) NW 311 0 min 0,000 mm 0,5 UV-I 130 W/m 13,4 C 13,8 C 12,9 km/h (3 Bft) 91,49 %
13.07.2019 09:06 14,2 C 20,6 C 15,6 C 95 % 1011,9 hPa 0,0 l/m 8,5 km/h (2 Bft) W-NW 288 0 min 0,000 mm 0,5 UV-I 129 W/m 13,4 C 13,0 C 17,7 km/h (3 Bft) 91,49 %
13.07.2019 09:08 14,2 C 20,6 C 15,6 C 95 % 1011,9 hPa 0,0 l/m 8,7 km/h (2 Bft) NW 305 0 min 0,000 mm 0,5 UV-I 121 W/m 13,4 C 12,9 C 14,5 km/h (3 Bft) 92,11 %
13.07.2019 09:10 14,2 C 20,6 C 15,6 C 95 % 1011,9 hPa 0,0 l/m 7,9 km/h (2 Bft) W 271 0 min 0,000 mm 0,2 UV-I 116 W/m 13,4 C 13,3 C 11,3 km/h (2 Bft) 93,62 %
13.07.2019 09:12 14,3 C 20,6 C 15,6 C 95 % 1011,9 hPa 0,0 l/m 4,4 km/h (1 Bft) W-NW 282 0 min 0,000 mm 0,0 UV-I 112 W/m 13,5 C 14,3 C 9,7 km/h (2 Bft) 91,49 %
13.07.2019 09:14 14,2 C 20,6 C 15,6 C 95 % 1012,0 hPa 0,0 l/m 8,3 km/h (2 Bft) W-NW 300 0 min 0,000 mm 0,0 UV-I 103 W/m 13,4 C 13,1 C 12,9 km/h (3 Bft) 93,62 %
13.07.2019 09:16 14,2 C 20,6 C 15,6 C 95 % 1012,0 hPa 0,0 l/m 9,0 km/h (2 Bft) NW 317 0 min 0,000 mm 0,0 UV-I 104 W/m 13,4 C 12,7 C 16,1 km/h (3 Bft) 93,62 %
13.07.2019 09:18 14,3 C 20,6 C 15,6 C 95 % 1012,0 hPa 0,0 l/m 7,6 km/h (2 Bft) W 262 0 min 0,000 mm 0,0 UV-I 102 W/m 13,5 C 13,6 C 12,9 km/h (3 Bft) 93,62 %
13.07.2019 09:20 14,3 C 20,6 C 15,0 C 95 % 1012,0 hPa 0,0 l/m 10,7 km/h (2 Bft) W 274 0 min 0,000 mm 0,0 UV-I 93 W/m 13,5 C 12,0 C 16,1 km/h (3 Bft) 93,62 %
13.07.2019 09:22 14,3 C 20,6 C 15,0 C 95 % 1012,0 hPa 0,0 l/m 9,9 km/h (2 Bft) W-SW 250 0 min 0,000 mm 0,0 UV-I 84 W/m 13,5 C 12,4 C 16,1 km/h (3 Bft) 91,67 %
13.07.2019 09:24 14,3 C 20,6 C 15,0 C 95 % 1012,1 hPa 0,0 l/m 9,1 km/h (2 Bft) W 275 0 min 0,000 mm 0,0 UV-I 81 W/m 13,5 C 12,8 C 16,1 km/h (3 Bft) 91,49 %
13.07.2019 09:26 14,3 C 20,6 C 15,0 C 95 % 1012,0 hPa 0,0 l/m 12,5 km/h (3 Bft) W-NW 282 0 min 0,000 mm 0,0 UV-I 84 W/m 13,5 C 11,3 C 22,5 km/h (4 Bft) 93,62 %
13.07.2019 09:28 14,3 C 20,6 C 15,0 C 94 % 1012,1 hPa 0,0 l/m 11,6 km/h (2 Bft) W 267 0 min 0,000 mm 0,0 UV-I 85 W/m 13,3 C 11,6 C 17,7 km/h (3 Bft) 93,62 %
13.07.2019 09:30 14,3 C 20,6 C 15,0 C 94 % 1012,1 hPa 0,0 l/m 15,3 km/h (3 Bft) W 259 0 min 0,000 mm 0,0 UV-I 90 W/m 13,3 C 10,2 C 22,5 km/h (4 Bft) 93,62 %
13.07.2019 09:32 14,3 C 20,6 C 15,0 C 94 % 1012,1 hPa 0,0 l/m 10,7 km/h (2 Bft) W-SW 248 0 min 0,000 mm 0,0 UV-I 89 W/m 13,3 C 12,0 C 17,7 km/h (3 Bft) 93,62 %
13.07.2019 09:34 14,3 C 20,6 C 15,0 C 94 % 1012,1 hPa 0,0 l/m 13,5 km/h (3 Bft) W 259 0 min 0,000 mm 0,0 UV-I 88 W/m 13,3 C 10,9 C 20,9 km/h (4 Bft) 93,62 %
13.07.2019 09:36 14,2 C 20,6 C 14,4 C 94 % 1012,1 hPa 0,0 l/m 13,2 km/h (3 Bft) W-SW 246 0 min 0,000 mm 0,0 UV-I 84 W/m 13,2 C 10,9 C 22,5 km/h (4 Bft) 95,74 %
13.07.2019 09:38 14,2 C 20,6 C 14,4 C 94 % 1012,2 hPa 0,0 l/m 14,2 km/h (3 Bft) W 262 0 min 0,000 mm 0,0 UV-I 84 W/m 13,2 C 10,5 C 22,5 km/h (4 Bft) 92,00 %
13.07.2019 09:40 14,2 C 20,6 C 14,4 C 94 % 1012,1 hPa 0,0 l/m 15,9 km/h (3 Bft) W-SW 250 0 min 0,000 mm 0,0 UV-I 85 W/m 13,2 C 9,9 C 27,4 km/h (4 Bft) 95,74 %
13.07.2019 09:42 14,2 C 20,6 C 14,4 C 94 % 1012,2 hPa 0,0 l/m 13,7 km/h (3 Bft) W-SW 252 0 min 0,000 mm 0,0 UV-I 84 W/m 13,2 C 10,7 C 20,9 km/h (4 Bft) 92,11 %
13.07.2019 09:44 14,1 C 20,6 C 14,4 C 94 % 1012,2 hPa 0,2 l/m 14,6 km/h (3 Bft) W-SW 255 0 min 0,000 mm 0,0 UV-I 84 W/m 13,1 C 10,2 C 25,7 km/h (4 Bft) 95,74 %
13.07.2019 09:46 14,1 C 20,6 C 14,4 C 94 % 1012,3 hPa 0,0 l/m 11,9 km/h (2 Bft) W-SW 257 0 min 0,000 mm 0,0 UV-I 86 W/m 13,1 C 11,3 C 19,3 km/h (3 Bft) 97,87 %
13.07.2019 09:48 14,1 C 20,6 C 14,4 C 94 % 1012,3 hPa 0,0 l/m 14,4 km/h (3 Bft) W 267 0 min 0,000 mm 0,0 UV-I 86 W/m 13,1 C 10,3 C 25,7 km/h (4 Bft) 95,74 %
13.07.2019 09:50 14,0 C 20,6 C 14,4 C 94 % 1012,3 hPa 0,2 l/m 12,3 km/h (3 Bft) W 263 0 min 0,000 mm 0,0 UV-I 82 W/m 13,0 C 11,0 C 17,7 km/h (3 Bft) 98,00 %
13.07.2019 09:52 14,0 C 20,6 C 14,4 C 94 % 1012,3 hPa 0,0 l/m 11,8 km/h (2 Bft) W 264 0 min 0,000 mm 0,0 UV-I 80 W/m 13,0 C 11,2 C 22,5 km/h (4 Bft) 96,23 %
13.07.2019 09:54 13,9 C 20,6 C 14,4 C 94 % 1012,3 hPa 0,2 l/m 11,8 km/h (2 Bft) W 259 0 min 0,000 mm 0,0 UV-I 80 W/m 12,9 C 11,1 C 20,9 km/h (4 Bft) 91,49 %
13.07.2019 09:56 13,9 C 20,6 C 14,4 C 94 % 1012,4 hPa 0,0 l/m 14,4 km/h (3 Bft) SW 225 0 min 0,000 mm 0,0 UV-I 76 W/m 12,9 C 10,1 C 24,1 km/h (4 Bft) 100,00 %
13.07.2019 09:58 13,9 C 20,6 C 14,4 C 94 % 1012,3 hPa 0,2 l/m 10,0 km/h (2 Bft) W-SW 257 0 min 0,000 mm 0,0 UV-I 74 W/m 12,9 C 11,9 C 16,1 km/h (3 Bft) 95,83 %
13.07.2019 10:00 13,9 C 20,6 C 14,4 C 94 % 1012,3 hPa 0,2 l/m 11,5 km/h (2 Bft) W 275 0 min 0,051 mm 0,0 UV-I 76 W/m 12,9 C 11,2 C 17,7 km/h (3 Bft) 97,87 %
13.07.2019 10:02 13,9 C 20,6 C 14,4 C 94 % 1012,3 hPa 0,2 l/m 11,0 km/h (2 Bft) W 279 0 min 0,000 mm 0,0 UV-I 81 W/m 12,9 C 11,4 C 19,3 km/h (3 Bft) 97,87 %
13.07.2019 10:04 13,8 C 20,6 C 14,4 C 95 % 1012,3 hPa 0,0 l/m 7,5 km/h (2 Bft) W-SW 252 0 min 0,000 mm 0,0 UV-I 88 W/m 13,0 C 13,1 C 12,9 km/h (3 Bft) 95,74 %
13.07.2019 10:06 13,8 C 20,6 C 14,4 C 95 % 1012,3 hPa 0,2 l/m 13,3 km/h (3 Bft) NW 304 0 min 0,000 mm 0,0 UV-I 93 W/m 13,0 C 10,4 C 27,4 km/h (4 Bft) 100,00 %
13.07.2019 10:08 13,8 C 20,6 C 14,4 C 94 % 1012,3 hPa 0,2 l/m 9,9 km/h (2 Bft) W-SW 240 0 min 0,000 mm 0,5 UV-I 100 W/m 12,9 C 11,8 C 17,7 km/h (3 Bft) 100,00 %
13.07.2019 10:10 13,8 C 20,6 C 14,4 C 95 % 1012,3 hPa 0,0 l/m 14,1 km/h (3 Bft) W 273 0 min 0,000 mm 0,5 UV-I 105 W/m 13,0 C 10,1 C 24,1 km/h (4 Bft) 100,00 %
13.07.2019 10:12 13,8 C 20,6 C 14,4 C 95 % 1012,3 hPa 0,0 l/m 14,6 km/h (3 Bft) W 274 0 min 0,000 mm 0,5 UV-I 112 W/m 13,0 C 9,9 C 22,5 km/h (4 Bft) 100,00 %
13.07.2019 10:14 13,8 C 20,6 C 14,4 C 95 % 1012,3 hPa 0,0 l/m 15,0 km/h (3 Bft) W-NW 293 0 min 0,000 mm 0,6 UV-I 114 W/m 13,0 C 9,7 C 22,5 km/h (4 Bft) 100,00 %
13.07.2019 10:16 13,8 C 20,6 C 14,4 C 95 % 1012,4 hPa 0,2 l/m 11,3 km/h (2 Bft) W 277 0 min 0,000 mm 0,6 UV-I 114 W/m 13,0 C 11,2 C 17,7 km/h (3 Bft) 98,00 %
13.07.2019 10:18 13,8 C 20,6 C 15,0 C 95 % 1012,4 hPa 0,0 l/m 10,7 km/h (2 Bft) W-SW 256 0 min 0,000 mm 0,6 UV-I 114 W/m 13,0 C 11,5 C 17,7 km/h (3 Bft) 100,00 %
13.07.2019 10:20 13,9 C 20,6 C 15,0 C 95 % 1012,4 hPa 0,2 l/m 13,5 km/h (3 Bft) W 267 0 min 0,000 mm 0,6 UV-I 112 W/m 13,1 C 10,4 C 20,9 km/h (4 Bft) 100,00 %
13.07.2019 10:22 13,9 C 20,6 C 14,4 C 95 % 1012,4 hPa 0,2 l/m 15,3 km/h (3 Bft) SW 232 0 min 0,000 mm 0,6 UV-I 117 W/m 13,1 C 9,8 C 22,5 km/h (4 Bft) 100,00 %
13.07.2019 10:24 13,9 C 20,6 C 14,4 C 95 % 1012,4 hPa 0,0 l/m 14,4 km/h (3 Bft) W-NW 286 0 min 0,000 mm 0,6 UV-I 124 W/m 13,1 C 10,1 C 20,9 km/h (4 Bft) 98,00 %
13.07.2019 10:26 13,9 C 20,6 C 15,0 C 95 % 1012,4 hPa 0,0 l/m 13,8 km/h (3 Bft) W-SW 254 0 min 0,000 mm 0,7 UV-I 130 W/m 13,1 C 10,3 C 22,5 km/h (4 Bft) 100,00 %
13.07.2019 10:28 13,9 C 20,6 C 15,0 C 95 % 1012,4 hPa 0,2 l/m 10,5 km/h (2 Bft) W-SW 254 0 min 0,000 mm 0,7 UV-I 135 W/m 13,1 C 11,7 C 16,1 km/h (3 Bft) 98,00 %
13.07.2019 10:30 14,0 C 20,6 C 15,0 C 95 % 1012,4 hPa 0,0 l/m 10,2 km/h (2 Bft) W 262 0 min 0,000 mm 0,7 UV-I 141 W/m 13,2 C 11,9 C 14,5 km/h (3 Bft) 95,74 %
13.07.2019 10:32 13,9 C 20,6 C 15,0 C 95 % 1012,4 hPa 0,0 l/m 11,8 km/h (2 Bft) W 261 0 min 0,000 mm 0,8 UV-I 148 W/m 13,1 C 11,1 C 20,9 km/h (4 Bft) 95,74 %
13.07.2019 10:34 14,0 C 20,6 C 15,0 C 95 % 1012,4 hPa 0,0 l/m 14,1 km/h (3 Bft) W 264 0 min 0,000 mm 0,8 UV-I 151 W/m 13,2 C 10,3 C 25,7 km/h (4 Bft) 97,87 %
13.07.2019 10:36 14,1 C 20,6 C 15,6 C 95 % 1012,5 hPa 0,2 l/m 10,2 km/h (2 Bft) W 273 0 min 0,000 mm 0,8 UV-I 153 W/m 13,3 C 12,0 C 17,7 km/h (3 Bft) 97,56 %
13.07.2019 10:38 14,1 C 20,6 C 15,0 C 95 % 1012,5 hPa 0,0 l/m 12,1 km/h (2 Bft) W-NW 284 0 min 0,000 mm 0,8 UV-I 153 W/m 13,3 C 11,2 C 17,7 km/h (3 Bft) 97,92 %
13.07.2019 10:40 14,1 C 20,6 C 15,6 C 95 % 1012,6 hPa 0,0 l/m 13,3 km/h (3 Bft) W 276 0 min 0,000 mm 0,8 UV-I 149 W/m 13,3 C 10,7 C 20,9 km/h (4 Bft) 97,87 %
13.07.2019 10:42 14,1 C 20,6 C 15,0 C 95 % 1012,6 hPa 0,0 l/m 12,1 km/h (2 Bft) W-SW 251 0 min 0,000 mm 0,8 UV-I 148 W/m 13,3 C 11,2 C 19,3 km/h (3 Bft) 96,00 %
13.07.2019 10:44 14,1 C 20,6 C 15,0 C 95 % 1012,6 hPa 0,2 l/m 10,6 km/h (2 Bft) W-SW 249 0 min 0,000 mm 0,8 UV-I 148 W/m 13,3 C 11,8 C 14,5 km/h (3 Bft) 98,00 %
13.07.2019 10:46 14,1 C 20,6 C 15,6 C 95 % 1012,6 hPa 0,0 l/m 14,0 km/h (3 Bft) W 264 0 min 0,000 mm 0,8 UV-I 151 W/m 13,3 C 10,5 C 20,9 km/h (4 Bft) 97,37 %
13.07.2019 10:48 14,1 C 20,6 C 15,0 C 95 % 1012,6 hPa 0,0 l/m 13,9 km/h (3 Bft) SW 231 0 min 0,000 mm 0,8 UV-I 157 W/m 13,3 C 10,5 C 22,5 km/h (4 Bft) 95,74 %
13.07.2019 10:50 14,2 C 20,6 C 15,6 C 95 % 1012,6 hPa 0,2 l/m 13,7 km/h (3 Bft) W-SW 252 0 min 0,000 mm 0,9 UV-I 165 W/m 13,4 C 10,7 C 22,5 km/h (4 Bft) 97,87 %
13.07.2019 10:52 14,2 C 20,6 C 15,6 C 95 % 1012,6 hPa 0,0 l/m 13,2 km/h (3 Bft) W 259 0 min 0,000 mm 0,9 UV-I 171 W/m 13,4 C 10,9 C 22,5 km/h (4 Bft) 97,87 %
13.07.2019 10:54 14,3 C 20,6 C 15,6 C 95 % 1012,6 hPa 0,0 l/m 11,4 km/h (2 Bft) SW 234 0 min 0,000 mm 0,9 UV-I 175 W/m 13,5 C 11,7 C 16,1 km/h (3 Bft) 100,00 %
13.07.2019 10:56 14,3 C 20,6 C 15,6 C 95 % 1012,7 hPa 0,0 l/m 11,1 km/h (2 Bft) SW 234 0 min 0,000 mm 1,0 UV-I 181 W/m 13,5 C 11,8 C 19,3 km/h (3 Bft) 100,00 %
13.07.2019 10:58 14,4 C 20,6 C 16,1 C 95 % 1012,7 hPa 0,2 l/m 11,0 km/h (2 Bft) W-NW 282 0 min 0,000 mm 1,0 UV-I 188 W/m 13,6 C 12,0 C 17,7 km/h (3 Bft) 97,87 %
13.07.2019 11:00 14,4 C 20,6 C 16,1 C 95 % 1012,7 hPa 0,0 l/m 13,1 km/h (3 Bft) W-SW 241 0 min 0,076 mm 1,0 UV-I 196 W/m 13,6 C 11,1 C 17,7 km/h (3 Bft) 98,00 %
13.07.2019 11:02 14,4 C 20,6 C 16,1 C 95 % 1012,6 hPa 0,0 l/m 12,2 km/h (2 Bft) W 279 0 min 0,000 mm 1,1 UV-I 201 W/m 13,6 C 11,5 C 19,3 km/h (3 Bft) 100,00 %
13.07.2019 11:04 14,5 C 20,6 C 16,1 C 95 % 1012,7 hPa 0,0 l/m 13,0 km/h (3 Bft) W-SW 245 0 min 0,000 mm 1,1 UV-I 208 W/m 13,7 C 11,3 C 17,7 km/h (3 Bft) 100,00 %
13.07.2019 11:06 14,6 C 20,6 C 16,1 C 95 % 1012,7 hPa 0,0 l/m 13,7 km/h (3 Bft) W 277 0 min 0,000 mm 1,2 UV-I 219 W/m 13,8 C 11,2 C 17,7 km/h (3 Bft) 100,00 %
13.07.2019 11:08 14,6 C 20,6 C 16,1 C 95 % 1012,7 hPa 0,2 l/m 13,5 km/h (3 Bft) W-SW 250 0 min 0,000 mm 1,2 UV-I 226 W/m 13,8 C 11,2 C 20,9 km/h (4 Bft) 95,74 %
13.07.2019 11:10 14,6 C 20,6 C 16,1 C 95 % 1012,7 hPa 0,0 l/m 12,7 km/h (3 Bft) W-SW 248 0 min 0,000 mm 1,3 UV-I 237 W/m 13,8 C 11,5 C 19,3 km/h (3 Bft) 96,00 %
13.07.2019 11:12 14,7 C 20,6 C 16,7 C 95 % 1012,7 hPa 0,0 l/m 15,1 km/h (3 Bft) SW 228 0 min 0,000 mm 1,3 UV-I 234 W/m 13,9 C 10,8 C 20,9 km/h (4 Bft) 97,87 %
13.07.2019 11:14 14,7 C 20,6 C 16,1 C 95 % 1012,7 hPa 0,0 l/m 11,8 km/h (2 Bft) SW 214 0 min 0,000 mm 1,2 UV-I 214 W/m 13,9 C 12,0 C 16,1 km/h (3 Bft) 98,00 %
13.07.2019 11:16 14,7 C 20,6 C 16,1 C 95 % 1012,7 hPa 0,0 l/m 15,6 km/h (3 Bft) SW 227 0 min 0,000 mm 1,1 UV-I 198 W/m 13,9 C 10,6 C 20,9 km/h (4 Bft) 97,87 %
13.07.2019 11:18 14,6 C 20,6 C 16,1 C 95 % 1012,7 hPa 0,2 l/m 15,4 km/h (3 Bft) W-SW 239 0 min 0,000 mm 1,1 UV-I 203 W/m 13,8 C 10,6 C 24,1 km/h (4 Bft) 93,62 %
13.07.2019 11:20 14,6 C 20,6 C 16,1 C 95 % 1012,7 hPa 0,0 l/m 13,3 km/h (3 Bft) W-SW 255 0 min 0,000 mm 1,3 UV-I 237 W/m 13,8 C 11,3 C 22,5 km/h (4 Bft) 95,83 %
13.07.2019 11:22 14,7 C 20,6 C 16,7 C 95 % 1012,8 hPa 0,0 l/m 11,8 km/h (2 Bft) W-SW 242 0 min 0,000 mm 1,2 UV-I 208 W/m 13,9 C 12,0 C 19,3 km/h (3 Bft) 95,74 %
13.07.2019 11:24 14,7 C 20,6 C 16,7 C 95 % 1012,8 hPa 0,0 l/m 13,5 km/h (3 Bft) W-SW 246 0 min 0,000 mm 1,1 UV-I 198 W/m 13,9 C 11,4 C 22,5 km/h (4 Bft) 97,56 %
13.07.2019 11:26 14,6 C 20,6 C 16,7 C 95 % 1012,8 hPa 0,0 l/m 15,5 km/h (3 Bft) W 259 0 min 0,000 mm 1,4 UV-I 243 W/m 13,8 C 10,5 C 20,9 km/h (4 Bft) 96,00 %
13.07.2019 11:28 14,6 C 20,6 C 16,7 C 95 % 1012,8 hPa 0,2 l/m 12,5 km/h (3 Bft) S-SW 213 0 min 0,000 mm 1,4 UV-I 242 W/m 13,8 C 11,6 C 19,3 km/h (3 Bft) 97,87 %
13.07.2019 11:30 14,6 C 20,6 C 16,7 C 95 % 1012,8 hPa 0,0 l/m 14,3 km/h (3 Bft) W-SW 239 0 min 0,000 mm 1,3 UV-I 229 W/m 13,8 C 10,9 C 22,5 km/h (4 Bft) 97,87 %
13.07.2019 11:32 14,6 C 20,6 C 16,7 C 95 % 1012,8 hPa 0,0 l/m 14,5 km/h (3 Bft) W-SW 242 0 min 0,000 mm 1,3 UV-I 234 W/m 13,8 C 10,9 C 22,5 km/h (4 Bft) 97,87 %
13.07.2019 11:34 14,5 C 20,6 C 16,1 C 95 % 1012,9 hPa 0,0 l/m 15,3 km/h (3 Bft) W-SW 238 0 min 0,000 mm 1,3 UV-I 225 W/m 13,7 C 10,5 C 22,5 km/h (4 Bft) 95,74 %
13.07.2019 11:36 14,5 C 20,6 C 16,1 C 95 % 1012,9 hPa 0,0 l/m 12,7 km/h (3 Bft) S-SW 192 0 min 0,000 mm 1,3 UV-I 227 W/m 13,7 C 11,4 C 17,7 km/h (3 Bft) 98,00 %
13.07.2019 11:38 14,5 C 20,6 C 16,1 C 95 % 1012,9 hPa 0,2 l/m 13,1 km/h (3 Bft) SW 225 0 min 0,000 mm 1,3 UV-I 227 W/m 13,7 C 11,3 C 20,9 km/h (4 Bft) 95,74 %
13.07.2019 11:40 14,5 C 20,6 C 16,1 C 95 % 1012,8 hPa 0,0 l/m 12,3 km/h (3 Bft) SW 218 0 min 0,000 mm 1,3 UV-I 231 W/m 13,7 C 11,6 C 22,5 km/h (4 Bft) 97,37 %
13.07.2019 11:42 14,5 C 20,6 C 16,1 C 95 % 1012,8 hPa 0,0 l/m 15,3 km/h (3 Bft) SW 229 0 min 0,000 mm 1,1 UV-I 194 W/m 13,7 C 10,5 C 27,4 km/h (4 Bft) 97,87 %
13.07.2019 11:44 14,5 C 20,6 C 16,1 C 95 % 1012,9 hPa 0,0 l/m 10,5 km/h (2 Bft) W-SW 246 0 min 0,000 mm 0,9 UV-I 161 W/m 13,7 C 12,3 C 17,7 km/h (3 Bft) 100,00 %
13.07.2019 11:46 14,5 C 20,6 C 16,1 C 95 % 1012,9 hPa 0,0 l/m 12,8 km/h (3 Bft) SW 229 0 min 0,000 mm 1,2 UV-I 194 W/m 13,7 C 11,4 C 19,3 km/h (3 Bft) 97,87 %
13.07.2019 11:48 14,4 C 20,6 C 16,1 C 95 % 1012,9 hPa 0,2 l/m 15,9 km/h (3 Bft) SW 226 0 min 0,000 mm 1,4 UV-I 236 W/m 13,6 C 10,2 C 25,7 km/h (4 Bft) 96,00 %
13.07.2019 11:50 14,4 C 20,6 C 16,1 C 95 % 1012,9 hPa 0,0 l/m 14,6 km/h (3 Bft) W-SW 239 0 min 0,000 mm 1,5 UV-I 248 W/m 13,6 C 10,6 C 27,4 km/h (4 Bft) 100,00 %
13.07.2019 11:52 14,5 C 20,6 C 16,1 C 95 % 1012,9 hPa 0,0 l/m 10,2 km/h (2 Bft) W-SW 245 0 min 0,000 mm 1,5 UV-I 260 W/m 13,7 C 12,5 C 20,9 km/h (4 Bft) 100,00 %
13.07.2019 11:54 14,6 C 20,6 C 16,7 C 95 % 1012,9 hPa 0,0 l/m 13,7 km/h (3 Bft) W-SW 257 0 min 0,000 mm 1,7 UV-I 283 W/m 13,8 C 11,2 C 20,9 km/h (4 Bft) 100,00 %
13.07.2019 11:56 14,7 C 20,6 C 16,7 C 95 % 1012,9 hPa 0,0 l/m 11,6 km/h (2 Bft) W 261 0 min 0,000 mm 1,9 UV-I 302 W/m 13,9 C 12,1 C 22,5 km/h (4 Bft) 96,00 %
13.07.2019 11:58 14,7 C 20,6 C 16,7 C 95 % 1012,9 hPa 0,0 l/m 13,7 km/h (3 Bft) W-SW 258 0 min 0,000 mm 2,0 UV-I 319 W/m 13,9 C 11,3 C 19,3 km/h (3 Bft) 94,00 %
13.07.2019 12:00 14,8 C 20,6 C 17,2 C 95 % 1012,9 hPa 0,2 l/m 13,8 km/h (3 Bft) W-SW 258 0 min 0,127 mm 2,0 UV-I 311 W/m 14,0 C 11,4 C 19,3 km/h (3 Bft) 95,74 %
13.07.2019 12:02 14,9 C 20,6 C 16,7 C 95 % 1012,9 hPa 0,0 l/m 11,4 km/h (2 Bft) W-SW 246 0 min 0,000 mm 1,4 UV-I 227 W/m 14,1 C 12,4 C 19,3 km/h (3 Bft) 93,62 %
13.07.2019 12:04 14,9 C 20,6 C 16,7 C 95 % 1012,9 hPa 0,0 l/m 11,2 km/h (2 Bft) SW 219 0 min 0,000 mm 1,7 UV-I 270 W/m 14,1 C 12,5 C 17,7 km/h (3 Bft) 98,00 %
13.07.2019 12:06 14,9 C 20,6 C 16,7 C 95 % 1012,9 hPa 0,0 l/m 13,6 km/h (3 Bft) W-NW 283 0 min 0,000 mm 1,5 UV-I 242 W/m 14,1 C 11,6 C 25,7 km/h (4 Bft) 97,87 %
13.07.2019 12:08 14,8 C 20,6 C 16,1 C 94 % 1012,9 hPa 0,0 l/m 12,5 km/h (3 Bft) W-SW 244 0 min 0,000 mm 1,3 UV-I 209 W/m 13,8 C 11,8 C 19,3 km/h (3 Bft) 97,87 %
13.07.2019 12:10 14,8 C 20,6 C 16,7 C 94 % 1012,9 hPa 0,0 l/m 17,0 km/h (3 Bft) W-SW 246 0 min 0,000 mm 1,9 UV-I 303 W/m 13,8 C 10,3 C 27,4 km/h (4 Bft) 95,74 %
13.07.2019 12:12 14,9 C 20,6 C 16,7 C 94 % 1012,9 hPa 0,0 l/m 12,1 km/h (2 Bft) W-SW 254 0 min 0,000 mm 2,0 UV-I 330 W/m 13,9 C 12,1 C 19,3 km/h (3 Bft) 95,74 %
13.07.2019 12:14 14,9 C 20,6 C 16,7 C 95 % 1013,0 hPa 0,0 l/m 14,7 km/h (3 Bft) W 265 0 min 0,000 mm 1,9 UV-I 313 W/m 14,1 C 11,2 C 27,4 km/h (4 Bft) 95,74 %
13.07.2019 12:16 14,9 C 20,6 C 16,7 C 94 % 1013,0 hPa 0,0 l/m 17,5 km/h (3 Bft) W-NW 286 0 min 0,000 mm 1,6 UV-I 268 W/m 13,9 C 10,3 C 24,1 km/h (4 Bft) 97,87 %
13.07.2019 12:18 14,9 C 20,6 C 16,7 C 94 % 1012,9 hPa 0,0 l/m 17,7 km/h (3 Bft) W-SW 256 0 min 0,000 mm 1,3 UV-I 218 W/m 13,9 C 10,2 C 32,2 km/h (5 Bft) 100,00 %
13.07.2019 12:20 14,8 C 20,6 C 16,1 C 94 % 1012,9 hPa 0,2 l/m 16,2 km/h (3 Bft) W 275 0 min 0,000 mm 1,2 UV-I 197 W/m 13,8 C 10,6 C 27,4 km/h (4 Bft) 96,00 %
13.07.2019 12:22 14,8 C 20,6 C 16,1 C 94 % 1012,9 hPa 0,0 l/m 15,6 km/h (3 Bft) W-SW 245 0 min 0,000 mm 1,2 UV-I 201 W/m 13,8 C 10,8 C 22,5 km/h (4 Bft) 100,00 %
13.07.2019 12:24 14,8 C 20,6 C 15,6 C 94 % 1012,9 hPa 0,0 l/m 16,2 km/h (3 Bft) W 268 0 min 0,000 mm 1,0 UV-I 165 W/m 13,8 C 10,6 C 25,7 km/h (4 Bft) 100,00 %
13.07.2019 12:26 14,8 C 20,6 C 15,6 C 94 % 1012,9 hPa 0,0 l/m 15,1 km/h (3 Bft) W-SW 255 0 min 0,000 mm 0,6 UV-I 107 W/m 13,8 C 10,9 C 22,5 km/h (4 Bft) 97,87 %
13.07.2019 12:28 14,8 C 20,6 C 15,0 C 93 % 1012,9 hPa 0,0 l/m 16,8 km/h (3 Bft) SW 228 0 min 0,000 mm 0,1 UV-I 74 W/m 13,7 C 10,4 C 24,1 km/h (4 Bft) 100,00 %
13.07.2019 12:30 14,7 C 20,6 C 15,0 C 93 % 1013,0 hPa 0,2 l/m 17,8 km/h (3 Bft) SW 225 0 min 0,000 mm 0,5 UV-I 79 W/m 13,6 C 10,0 C 24,1 km/h (4 Bft) 95,74 %
13.07.2019 12:32 14,7 C 20,6 C 15,0 C 94 % 1013,0 hPa 0,4 l/m 17,4 km/h (3 Bft) W-SW 240 0 min 0,000 mm 0,6 UV-I 88 W/m 13,7 C 10,1 C 25,7 km/h (4 Bft) 100,00 %
13.07.2019 12:34 14,6 C 20,6 C 15,0 C 94 % 1013,0 hPa 0,4 l/m 17,5 km/h (3 Bft) W 275 0 min 0,000 mm 0,5 UV-I 79 W/m 13,6 C 9,9 C 27,4 km/h (4 Bft) 100,00 %
13.07.2019 12:36 14,5 C 20,6 C 15,0 C 94 % 1013,0 hPa 0,2 l/m 15,6 km/h (3 Bft) SW 219 0 min 0,000 mm 0,2 UV-I 65 W/m 13,5 C 10,4 C 24,1 km/h (4 Bft) 100,00 %
13.07.2019 12:38 14,4 C 20,6 C 15,0 C 94 % 1013,0 hPa 0,2 l/m 11,0 km/h (2 Bft) SW 230 0 min 0,000 mm 0,0 UV-I 57 W/m 13,4 C 12,0 C 17,7 km/h (3 Bft) 100,00 %
13.07.2019 12:40 14,4 C 20,6 C 15,0 C 94 % 1013,0 hPa 0,2 l/m 16,4 km/h (3 Bft) W 267 0 min 0,000 mm 0,0 UV-I 62 W/m 13,4 C 10,0 C 29,0 km/h (5 Bft) 100,00 %
13.07.2019 12:42 14,4 C 20,6 C 15,0 C 94 % 1013,0 hPa 0,0 l/m 13,5 km/h (3 Bft) SW 236 0 min 0,000 mm 0,4 UV-I 85 W/m 13,4 C 11,0 C 19,3 km/h (3 Bft) 100,00 %
13.07.2019 12:44 14,4 C 20,6 C 15,0 C 94 % 1013,0 hPa 0,2 l/m 16,3 km/h (3 Bft) W-SW 258 0 min 0,000 mm 0,7 UV-I 123 W/m 13,4 C 10,0 C 22,5 km/h (4 Bft) 100,00 %
13.07.2019 12:46 14,4 C 20,6 C 15,6 C 94 % 1013,1 hPa 0,0 l/m 13,9 km/h (3 Bft) W-SW 253 0 min 0,000 mm 1,3 UV-I 208 W/m 13,4 C 10,9 C 22,5 km/h (4 Bft) 100,00 %
13.07.2019 12:48 14,5 C 20,6 C 16,1 C 95 % 1013,1 hPa 0,0 l/m 13,4 km/h (3 Bft) W 263 0 min 0,000 mm 1,5 UV-I 237 W/m 13,7 C 11,2 C 19,3 km/h (3 Bft) 97,37 %
13.07.2019 12:50 14,6 C 20,6 C 16,1 C 95 % 1013,2 hPa 0,0 l/m 14,3 km/h (3 Bft) W 266 0 min 0,000 mm 1,5 UV-I 236 W/m 13,8 C 10,9 C 19,3 km/h (3 Bft) 100,00 %
13.07.2019 12:52 14,7 C 20,6 C 16,7 C 95 % 1013,1 hPa 0,0 l/m 12,3 km/h (3 Bft) W-SW 257 0 min 0,000 mm 1,3 UV-I 212 W/m 13,9 C 11,8 C 17,7 km/h (3 Bft) 100,00 %
13.07.2019 12:54 14,7 C 20,6 C 16,7 C 95 % 1013,2 hPa 0,0 l/m 12,8 km/h (3 Bft) W 270 0 min 0,000 mm 1,2 UV-I 191 W/m 13,9 C 11,6 C 19,3 km/h (3 Bft) 100,00 %
13.07.2019 12:56 14,8 C 20,6 C 16,7 C 95 % 1013,1 hPa 0,0 l/m 13,3 km/h (3 Bft) W-SW 256 0 min 0,000 mm 1,1 UV-I 177 W/m 14,0 C 11,5 C 20,9 km/h (4 Bft) 100,00 %
13.07.2019 12:58 14,8 C 20,6 C 16,7 C 95 % 1013,1 hPa 0,0 l/m 15,4 km/h (3 Bft) W-SW 258 0 min 0,000 mm 1,3 UV-I 205 W/m 14,0 C 10,8 C 19,3 km/h (3 Bft) 100,00 %
13.07.2019 13:00 14,8 C 20,6 C 16,7 C 95 % 1013,1 hPa 0,0 l/m 11,9 km/h (2 Bft) W-SW 256 0 min 0,000 mm 1,4 UV-I 221 W/m 14,0 C 12,1 C 19,3 km/h (3 Bft) 100,00 %
13.07.2019 13:02 14,8 C 20,6 C 16,7 C 95 % 1013,2 hPa 0,0 l/m 14,6 km/h (3 Bft) W 265 0 min 0,101 mm 1,5 UV-I 246 W/m 14,0 C 11,1 C 22,5 km/h (4 Bft) 100,00 %
13.07.2019 13:04 14,9 C 20,6 C 16,7 C 95 % 1013,2 hPa 0,0 l/m 13,0 km/h (3 Bft) W-SW 255 0 min 0,000 mm 1,7 UV-I 275 W/m 14,1 C 11,8 C 24,1 km/h (4 Bft) 97,87 %
13.07.2019 13:06 14,9 C 20,6 C 17,2 C 94 % 1013,1 hPa 0,0 l/m 12,0 km/h (2 Bft) W 281 0 min 0,000 mm 1,7 UV-I 273 W/m 13,9 C 12,2 C 17,7 km/h (3 Bft) 97,22 %
13.07.2019 13:08 15,0 C 20,6 C 17,2 C 95 % 1013,2 hPa 0,0 l/m 12,7 km/h (3 Bft) W 269 0 min 0,000 mm 1,5 UV-I 231 W/m 14,2 C 12,0 C 19,3 km/h (3 Bft) 93,62 %
13.07.2019 13:10 15,1 C 20,6 C 17,2 C 95 % 1013,2 hPa 0,0 l/m 13,2 km/h (3 Bft) W-SW 247 0 min 0,000 mm 1,6 UV-I 254 W/m 14,3 C 11,9 C 17,7 km/h (3 Bft) 93,62 %
13.07.2019 13:12 15,1 C 20,6 C 17,2 C 94 % 1013,1 hPa 0,0 l/m 17,3 km/h (3 Bft) W-SW 257 0 min 0,000 mm 1,4 UV-I 221 W/m 14,1 C 10,6 C 25,7 km/h (4 Bft) 96,00 %
13.07.2019 13:14 15,1 C 20,6 C 17,2 C 94 % 1013,2 hPa 0,0 l/m 12,9 km/h (3 Bft) S-SW 203 0 min 0,000 mm 1,4 UV-I 214 W/m 14,1 C 12,0 C 19,3 km/h (3 Bft) 95,74 %
13.07.2019 13:16 15,2 C 20,6 C 17,2 C 94 % 1013,2 hPa 0,0 l/m 12,0 km/h (2 Bft) S-SW 206 0 min 0,000 mm 1,3 UV-I 198 W/m 14,2 C 12,5 C 19,3 km/h (3 Bft) 96,00 %
13.07.2019 13:18 15,2 C 20,6 C 16,7 C 94 % 1013,1 hPa 0,0 l/m 13,3 km/h (3 Bft) SW 234 0 min 0,000 mm 1,1 UV-I 172 W/m 14,2 C 12,0 C 20,9 km/h (4 Bft) 95,74 %
13.07.2019 13:20 15,1 C 20,6 C 16,7 C 94 % 1013,1 hPa 0,0 l/m 11,4 km/h (2 Bft) W 263 0 min 0,000 mm 0,9 UV-I 124 W/m 14,1 C 12,6 C 14,5 km/h (3 Bft) 95,74 %
13.07.2019 13:22 15,1 C 20,6 C 16,1 C 94 % 1013,2 hPa 0,0 l/m 12,6 km/h (3 Bft) W-SW 240 0 min 0,000 mm 0,6 UV-I 100 W/m 14,1 C 12,2 C 20,9 km/h (4 Bft) 95,74 %
13.07.2019 13:24 15,1 C 20,6 C 16,1 C 94 % 1013,2 hPa 0,0 l/m 14,4 km/h (3 Bft) SW 222 0 min 0,000 mm 0,8 UV-I 120 W/m 14,1 C 11,5 C 27,4 km/h (4 Bft) 91,49 %
13.07.2019 13:26 15,1 C 20,6 C 16,7 C 94 % 1013,1 hPa 0,0 l/m 16,6 km/h (3 Bft) W 280 0 min 0,000 mm 1,1 UV-I 164 W/m 14,1 C 10,8 C 25,7 km/h (4 Bft) 93,62 %
13.07.2019 13:28 15,2 C 20,6 C 16,7 C 94 % 1013,1 hPa 0,0 l/m 18,0 km/h (3 Bft) SW 236 0 min 0,000 mm 1,2 UV-I 178 W/m 14,2 C 10,5 C 24,1 km/h (4 Bft) 90,00 %
13.07.2019 13:30 15,2 C 20,6 C 16,7 C 94 % 1013,2 hPa 0,0 l/m 15,8 km/h (3 Bft) W 264 0 min 0,000 mm 1,6 UV-I 235 W/m 14,2 C 11,2 C 20,9 km/h (4 Bft) 93,62 %
13.07.2019 13:32 15,3 C 20,6 C 17,2 C 94 % 1013,2 hPa 0,0 l/m 13,0 km/h (3 Bft) W-SW 241 0 min 0,000 mm 1,7 UV-I 245 W/m 14,3 C 12,2 C 20,9 km/h (4 Bft) 88,57 %
13.07.2019 13:34 15,4 C 20,6 C 17,2 C 93 % 1013,2 hPa 0,0 l/m 16,4 km/h (3 Bft) W 265 0 min 0,000 mm 1,5 UV-I 227 W/m 14,3 C 11,2 C 25,7 km/h (4 Bft) 91,49 %
13.07.2019 13:36 15,4 C 20,6 C 17,2 C 93 % 1013,2 hPa 0,0 l/m 11,7 km/h (2 Bft) W 270 0 min 0,000 mm 1,2 UV-I 183 W/m 14,3 C 12,8 C 20,9 km/h (4 Bft) 93,62 %
13.07.2019 13:38 15,4 C 20,6 C 16,7 C 93 % 1013,2 hPa 0,0 l/m 14,3 km/h (3 Bft) W 270 0 min 0,000 mm 1,0 UV-I 147 W/m 14,3 C 11,9 C 22,5 km/h (4 Bft) 92,00 %
13.07.2019 13:40 15,6 C 20,6 C 16,7 C 93 % 1013,2 hPa 0,0 l/m 13,4 km/h (3 Bft) W-SW 258 0 min 0,000 mm 1,0 UV-I 147 W/m 14,5 C 12,5 C 17,7 km/h (3 Bft) 93,62 %
13.07.2019 13:42 15,5 C 20,6 C 16,7 C 93 % 1013,2 hPa 0,0 l/m 12,0 km/h (2 Bft) W-SW 248 0 min 0,000 mm 1,1 UV-I 161 W/m 14,4 C 12,8 C 17,7 km/h (3 Bft) 89,36 %
13.07.2019 13:44 15,6 C 20,6 C 16,7 C 93 % 1013,3 hPa 0,0 l/m 11,2 km/h (2 Bft) W-SW 254 0 min 0,000 mm 1,2 UV-I 178 W/m 14,5 C 13,3 C 20,9 km/h (4 Bft) 91,49 %
13.07.2019 13:46 15,5 C 20,6 C 16,7 C 93 % 1013,2 hPa 0,0 l/m 12,0 km/h (2 Bft) W-NW 294 0 min 0,000 mm 1,2 UV-I 188 W/m 14,4 C 12,8 C 17,7 km/h (3 Bft) 95,74 %
13.07.2019 13:48 15,6 C 20,6 C 16,7 C 93 % 1013,2 hPa 0,2 l/m 10,5 km/h (2 Bft) W 266 0 min 0,000 mm 1,3 UV-I 196 W/m 14,5 C 13,6 C 14,5 km/h (3 Bft) 95,83 %
13.07.2019 13:50 15,6 C 20,6 C 17,2 C 93 % 1013,2 hPa 0,0 l/m 10,5 km/h (2 Bft) W 271 0 min 0,000 mm 1,5 UV-I 230 W/m 14,5 C 13,6 C 14,5 km/h (3 Bft) 95,74 %
13.07.2019 13:52 15,6 C 20,6 C 17,2 C 93 % 1013,2 hPa 0,0 l/m 15,0 km/h (3 Bft) W 259 0 min 0,000 mm 1,9 UV-I 279 W/m 14,5 C 11,9 C 22,5 km/h (4 Bft) 96,00 %
13.07.2019 13:54 15,6 C 20,6 C 17,2 C 93 % 1013,2 hPa 0,0 l/m 14,3 km/h (3 Bft) SW 225 0 min 0,000 mm 1,3 UV-I 193 W/m 14,5 C 12,1 C 20,9 km/h (4 Bft) 97,87 %
13.07.2019 13:56 15,6 C 20,6 C 16,7 C 92 % 1013,2 hPa 0,0 l/m 14,8 km/h (3 Bft) W-SW 258 0 min 0,000 mm 0,9 UV-I 141 W/m 14,3 C 12,0 C 25,7 km/h (4 Bft) 98,00 %
13.07.2019 13:58 15,6 C 20,6 C 16,7 C 93 % 1013,3 hPa 0,0 l/m 14,7 km/h (3 Bft) W-SW 250 0 min 0,000 mm 0,9 UV-I 147 W/m 14,5 C 12,0 C 20,9 km/h (4 Bft) 97,14 %
13.07.2019 14:00 15,5 C 20,6 C 16,1 C 92 % 1013,3 hPa 0,0 l/m 15,9 km/h (3 Bft) W-SW 237 0 min 0,000 mm 0,8 UV-I 132 W/m 14,2 C 11,5 C 22,5 km/h (4 Bft) 94,12 %
13.07.2019 14:02 15,5 C 20,6 C 16,1 C 92 % 1013,3 hPa 0,0 l/m 16,0 km/h (3 Bft) W 273 0 min 0,102 mm 0,6 UV-I 99 W/m 14,2 C 11,5 C 25,7 km/h (4 Bft) 97,87 %
13.07.2019 14:04 15,5 C 20,6 C 15,6 C 92 % 1013,3 hPa 0,0 l/m 16,4 km/h (3 Bft) W 269 0 min 0,000 mm 0,6 UV-I 92 W/m 14,2 C 11,4 C 24,1 km/h (4 Bft) 97,87 %
13.07.2019 14:06 15,4 C 20,6 C 16,1 C 92 % 1013,3 hPa 0,2 l/m 12,9 km/h (3 Bft) W-NW 286 0 min 0,000 mm 0,7 UV-I 109 W/m 14,1 C 12,4 C 16,1 km/h (3 Bft) 95,74 %
13.07.2019 14:08 15,4 C 20,6 C 16,1 C 92 % 1013,3 hPa 0,0 l/m 11,0 km/h (2 Bft) W-SW 258 0 min 0,000 mm 0,9 UV-I 143 W/m 14,1 C 13,1 C 16,1 km/h (3 Bft) 96,00 %
13.07.2019 14:10 15,4 C 20,6 C 16,1 C 92 % 1013,3 hPa 0,0 l/m 16,2 km/h (3 Bft) W 260 0 min 0,000 mm 1,0 UV-I 160 W/m 14,1 C 11,3 C 29,0 km/h (5 Bft) 95,74 %
13.07.2019 14:12 15,4 C 20,6 C 16,1 C 92 % 1013,3 hPa 0,0 l/m 16,6 km/h (3 Bft) W 262 0 min 0,000 mm 1,1 UV-I 172 W/m 14,1 C 11,2 C 25,7 km/h (4 Bft) 95,74 %
13.07.2019 14:14 15,4 C 20,6 C 16,7 C 92 % 1013,3 hPa 0,0 l/m 15,6 km/h (3 Bft) W 275 0 min 0,000 mm 1,3 UV-I 210 W/m 14,1 C 11,5 C 25,7 km/h (4 Bft) 96,00 %
13.07.2019 14:16 15,5 C 20,6 C 16,7 C 92 % 1013,3 hPa 0,0 l/m 14,0 km/h (3 Bft) W 261 0 min 0,000 mm 1,4 UV-I 217 W/m 14,2 C 12,1 C 20,9 km/h (4 Bft) 97,87 %
13.07.2019 14:18 15,5 C 20,6 C 16,7 C 92 % 1013,2 hPa 0,0 l/m 12,5 km/h (3 Bft) W 262 0 min 0,000 mm 1,5 UV-I 228 W/m 14,2 C 12,7 C 20,9 km/h (4 Bft) 100,00 %
13.07.2019 14:20 15,6 C 20,6 C 16,7 C 92 % 1013,2 hPa 0,0 l/m 12,9 km/h (3 Bft) W-SW 244 0 min 0,000 mm 1,4 UV-I 214 W/m 14,3 C 12,6 C 17,7 km/h (3 Bft) 100,00 %
13.07.2019 14:22 15,7 C 20,6 C 16,7 C 92 % 1013,2 hPa 0,0 l/m 13,5 km/h (3 Bft) W-SW 255 0 min 0,000 mm 1,2 UV-I 185 W/m 14,4 C 12,5 C 20,9 km/h (4 Bft) 100,00 %
13.07.2019 14:24 15,7 C 20,6 C 16,7 C 92 % 1013,1 hPa 0,0 l/m 16,5 km/h (3 Bft) W 268 0 min 0,000 mm 1,1 UV-I 166 W/m 14,4 C 11,6 C 25,7 km/h (4 Bft) 100,00 %
13.07.2019 14:26 15,7 C 20,6 C 16,7 C 92 % 1013,2 hPa 0,0 l/m 14,6 km/h (3 Bft) W 275 0 min 0,000 mm 0,9 UV-I 137 W/m 14,4 C 12,2 C 25,7 km/h (4 Bft) 100,00 %
13.07.2019 14:28 15,7 C 20,6 C 16,1 C 91 % 1013,2 hPa 0,2 l/m 17,9 km/h (3 Bft) W-SW 254 0 min 0,000 mm 0,7 UV-I 114 W/m 14,2 C 11,2 C 33,8 km/h (5 Bft) 100,00 %
13.07.2019 14:30 15,6 C 20,6 C 15,6 C 91 % 1013,2 hPa 0,0 l/m 16,3 km/h (3 Bft) W 269 0 min 0,000 mm 0,6 UV-I 103 W/m 14,1 C 11,5 C 25,7 km/h (4 Bft) 98,00 %
13.07.2019 14:32 15,6 C 20,6 C 15,6 C 91 % 1013,2 hPa 0,0 l/m 14,4 km/h (3 Bft) W 271 0 min 0,000 mm 0,7 UV-I 115 W/m 14,1 C 12,1 C 30,6 km/h (5 Bft) 97,87 %
13.07.2019 14:34 15,6 C 20,6 C 16,1 C 91 % 1013,1 hPa 0,0 l/m 12,8 km/h (3 Bft) W-SW 249 0 min 0,000 mm 1,0 UV-I 151 W/m 14,1 C 12,7 C 19,3 km/h (3 Bft) 100,00 %
13.07.2019 14:36 15,5 C 20,6 C 16,1 C 91 % 1013,1 hPa 0,2 l/m 12,6 km/h (3 Bft) W-SW 240 0 min 0,000 mm 1,0 UV-I 155 W/m 14,0 C 12,6 C 19,3 km/h (3 Bft) 100,00 %
13.07.2019 14:38 15,4 C 20,6 C 15,6 C 91 % 1013,1 hPa 0,0 l/m 13,2 km/h (3 Bft) SW 235 0 min 0,000 mm 0,5 UV-I 98 W/m 13,9 C 12,3 C 20,9 km/h (4 Bft) 100,00 %
13.07.2019 14:40 15,4 C 20,6 C 15,6 C 91 % 1013,0 hPa 0,0 l/m 14,5 km/h (3 Bft) W-SW 246 0 min 0,000 mm 0,0 UV-I 64 W/m 13,9 C 11,8 C 20,9 km/h (4 Bft) 100,00 %
13.07.2019 14:42 15,3 C 20,6 C 15,6 C 91 % 1013,0 hPa 0,0 l/m 15,4 km/h (3 Bft) W 261 0 min 0,000 mm 0,0 UV-I 61 W/m 13,8 C 11,4 C 25,7 km/h (4 Bft) 100,00 %
13.07.2019 14:44 15,3 C 20,6 C 15,6 C 91 % 1013,0 hPa 0,0 l/m 18,3 km/h (3 Bft) SW 221 0 min 0,000 mm 0,5 UV-I 82 W/m 13,8 C 10,6 C 29,0 km/h (5 Bft) 95,74 %
13.07.2019 14:46 15,3 C 20,6 C 15,6 C 92 % 1012,9 hPa 0,0 l/m 18,7 km/h (3 Bft) SW 227 0 min 0,000 mm 0,6 UV-I 89 W/m 14,0 C 10,5 C 25,7 km/h (4 Bft) 100,00 %
13.07.2019 14:48 15,2 C 20,6 C 15,6 C 91 % 1013,0 hPa 0,4 l/m 15,7 km/h (3 Bft) SW 221 0 min 0,000 mm 0,5 UV-I 84 W/m 13,7 C 11,2 C 27,4 km/h (4 Bft) 100,00 %
13.07.2019 14:50 15,2 C 20,6 C 15,0 C 92 % 1012,9 hPa 0,4 l/m 15,8 km/h (3 Bft) W-SW 242 0 min 0,000 mm 0,5 UV-I 89 W/m 13,9 C 11,2 C 25,7 km/h (4 Bft) 100,00 %
13.07.2019 14:52 15,2 C 20,6 C 15,6 C 93 % 1012,9 hPa 0,4 l/m 13,2 km/h (3 Bft) SW 224 0 min 0,000 mm 0,7 UV-I 115 W/m 14,1 C 12,1 C 20,9 km/h (4 Bft) 97,87 %
13.07.2019 14:54 15,2 C 20,6 C 15,6 C 93 % 1012,8 hPa 0,0 l/m 16,9 km/h (3 Bft) W-SW 254 0 min 0,000 mm 0,9 UV-I 149 W/m 14,1 C 10,8 C 24,1 km/h (4 Bft) 95,74 %
13.07.2019 14:56 15,2 C 20,6 C 16,1 C 93 % 1012,8 hPa 0,0 l/m 19,1 km/h (3 Bft) SW 221 0 min 0,000 mm 1,1 UV-I 168 W/m 14,1 C 10,2 C 33,8 km/h (5 Bft) 96,00 %
13.07.2019 14:58 15,3 C 20,6 C 16,1 C 93 % 1012,8 hPa 0,0 l/m 20,8 km/h (4 Bft) SW 234 0 min 0,000 mm 0,8 UV-I 134 W/m 14,2 C 9,9 C 30,6 km/h (5 Bft) 97,87 %
13.07.2019 15:00 15,3 C 20,6 C 15,6 C 93 % 1012,9 hPa 0,0 l/m 21,9 km/h (4 Bft) W 271 0 min 0,000 mm 0,6 UV-I 90 W/m 14,2 C 9,7 C 32,2 km/h (5 Bft) 97,87 %
13.07.2019 15:02 15,3 C 20,6 C 15,6 C 93 % 1012,9 hPa 0,8 l/m 19,8 km/h (3 Bft) SW 227 0 min 0,076 mm 0,3 UV-I 72 W/m 14,2 C 10,2 C 29,0 km/h (5 Bft) 97,62 %
13.07.2019 15:04 15,3 C 20,6 C 15,6 C 93 % 1013,0 hPa 0,8 l/m 18,8 km/h (3 Bft) W-SW 252 0 min 0,000 mm 0,6 UV-I 85 W/m 14,2 C 10,4 C 29,0 km/h (5 Bft) 94,00 %
13.07.2019 15:06 15,2 C 20,6 C 15,6 C 93 % 1013,0 hPa 0,8 l/m 18,4 km/h (3 Bft) W 262 0 min 0,000 mm 0,6 UV-I 84 W/m 14,1 C 10,4 C 29,0 km/h (5 Bft) 98,00 %
13.07.2019 15:08 15,2 C 20,6 C 15,6 C 93 % 1013,1 hPa 0,4 l/m 16,2 km/h (3 Bft) W-SW 258 0 min 0,000 mm 0,4 UV-I 74 W/m 14,1 C 11,1 C 29,0 km/h (5 Bft) 97,87 %
13.07.2019 15:10 15,2 C 20,6 C 15,0 C 93 % 1013,0 hPa 0,6 l/m 20,0 km/h (4 Bft) SW 231 0 min 0,000 mm 0,4 UV-I 69 W/m 14,1 C 10,0 C 30,6 km/h (5 Bft) 96,00 %
13.07.2019 15:12 15,2 C 20,6 C 15,0 C 93 % 1013,2 hPa 0,6 l/m 17,2 km/h (3 Bft) W 268 0 min 0,000 mm 0,5 UV-I 73 W/m 14,1 C 10,8 C 32,2 km/h (5 Bft) 94,29 %
13.07.2019 15:14 15,1 C 20,6 C 15,0 C 93 % 1013,3 hPa 0,2 l/m 17,0 km/h (3 Bft) W-SW 249 0 min 0,000 mm 0,1 UV-I 74 W/m 14,0 C 10,7 C 27,4 km/h (4 Bft) 97,87 %
13.07.2019 15:16 15,1 C 20,6 C 15,6 C 94 % 1013,3 hPa 0,4 l/m 8,4 km/h (2 Bft) W-NW 303 0 min 0,000 mm 0,7 UV-I 132 W/m 14,1 C 14,0 C 17,7 km/h (3 Bft) 95,74 %
13.07.2019 15:18 15,1 C 20,6 C 16,1 C 94 % 1013,3 hPa 0,6 l/m 8,5 km/h (2 Bft) W-SW 237 0 min 0,000 mm 0,9 UV-I 150 W/m 14,1 C 13,9 C 17,7 km/h (3 Bft) 97,14 %
13.07.2019 15:20 15,1 C 20,6 C 15,6 C 94 % 1013,3 hPa 0,2 l/m 13,6 km/h (3 Bft) W-SW 254 0 min 0,000 mm 0,8 UV-I 120 W/m 14,1 C 11,8 C 19,3 km/h (3 Bft) 98,46 %
13.07.2019 15:22 15,1 C 20,6 C 15,6 C 94 % 1013,3 hPa 0,2 l/m 9,0 km/h (2 Bft) W-SW 257 0 min 0,000 mm 0,4 UV-I 81 W/m 14,1 C 13,7 C 16,1 km/h (3 Bft) 97,87 %
13.07.2019 15:24 15,1 C 20,6 C 16,1 C 95 % 1013,4 hPa 0,2 l/m 8,1 km/h (2 Bft) W-SW 254 0 min 0,000 mm 0,7 UV-I 118 W/m 14,3 C 14,2 C 14,5 km/h (3 Bft) 97,87 %
13.07.2019 15:26 15,2 C 20,6 C 16,7 C 95 % 1013,4 hPa 0,2 l/m 9,4 km/h (2 Bft) W 280 0 min 0,000 mm 1,2 UV-I 195 W/m 14,4 C 13,6 C 14,5 km/h (3 Bft) 95,74 %
13.07.2019 15:28 15,2 C 20,6 C 16,7 C 95 % 1013,3 hPa 0,0 l/m 11,8 km/h (2 Bft) W-SW 248 0 min 0,000 mm 1,2 UV-I 194 W/m 14,4 C 12,6 C 17,7 km/h (3 Bft) 98,00 %
13.07.2019 15:30 15,1 C 20,6 C 16,7 C 95 % 1013,3 hPa 0,0 l/m 11,8 km/h (2 Bft) W-SW 255 0 min 0,000 mm 1,3 UV-I 216 W/m 14,3 C 12,5 C 17,7 km/h (3 Bft) 97,87 %
13.07.2019 15:32 15,2 C 20,6 C 16,7 C 95 % 1013,3 hPa 0,0 l/m 12,5 km/h (3 Bft) SW 224 0 min 0,000 mm 1,0 UV-I 173 W/m 14,4 C 12,3 C 16,1 km/h (3 Bft) 97,37 %
13.07.2019 15:34 15,2 C 20,6 C 16,1 C 95 % 1013,4 hPa 0,0 l/m 12,0 km/h (2 Bft) W-SW 246 0 min 0,000 mm 0,6 UV-I 119 W/m 14,4 C 12,5 C 24,1 km/h (4 Bft) 98,00 %
13.07.2019 15:36 15,2 C 20,6 C 16,1 C 95 % 1013,4 hPa 0,0 l/m 9,9 km/h (2 Bft) W-SW 247 0 min 0,000 mm 0,1 UV-I 90 W/m 14,4 C 13,4 C 14,5 km/h (3 Bft) 97,87 %
13.07.2019 15:38 15,1 C 20,6 C 16,7 C 95 % 1013,3 hPa 0,0 l/m 12,0 km/h (2 Bft) W-SW 257 0 min 0,000 mm 0,9 UV-I 171 W/m 14,3 C 12,4 C 16,1 km/h (3 Bft) 98,00 %
13.07.2019 15:40 15,2 C 20,6 C 16,7 C 95 % 1013,3 hPa 0,0 l/m 11,8 km/h (2 Bft) S-SW 209 0 min 0,000 mm 1,2 UV-I 220 W/m 14,4 C 12,6 C 19,3 km/h (3 Bft) 97,44 %
13.07.2019 15:42 15,2 C 20,6 C 16,7 C 95 % 1013,3 hPa 0,0 l/m 16,5 km/h (3 Bft) W-NW 285 0 min 0,000 mm 1,2 UV-I 214 W/m 14,4 C 11,0 C 30,6 km/h (5 Bft) 97,87 %
13.07.2019 15:44 15,2 C 20,6 C 16,7 C 95 % 1013,3 hPa 0,0 l/m 11,7 km/h (2 Bft) SW 236 0 min 0,000 mm 1,3 UV-I 224 W/m 14,4 C 12,6 C 19,3 km/h (3 Bft) 97,87 %
13.07.2019 15:46 15,3 C 20,6 C 17,2 C 95 % 1013,2 hPa 0,0 l/m 13,8 km/h (3 Bft) W-SW 239 0 min 0,000 mm 1,5 UV-I 268 W/m 14,5 C 12,0 C 19,3 km/h (3 Bft) 100,00 %
13.07.2019 15:48 15,3 C 20,6 C 18,3 C 95 % 1013,2 hPa 0,0 l/m 12,6 km/h (3 Bft) SW 228 0 min 0,000 mm 1,9 UV-I 353 W/m 14,5 C 12,4 C 24,1 km/h (4 Bft) 100,00 %
13.07.2019 15:50 15,4 C 20,6 C 18,9 C 95 % 1013,2 hPa 0,0 l/m 16,3 km/h (3 Bft) W-SW 254 0 min 0,000 mm 1,9 UV-I 358 W/m 14,6 C 11,3 C 27,4 km/h (4 Bft) 97,87 %
13.07.2019 15:52 15,4 C 20,6 C 18,3 C 95 % 1013,2 hPa 0,0 l/m 18,6 km/h (3 Bft) SW 231 0 min 0,000 mm 1,9 UV-I 378 W/m 14,6 C 10,6 C 30,6 km/h (5 Bft) 100,00 %
13.07.2019 15:54 15,5 C 20,6 C 18,3 C 94 % 1013,2 hPa 0,0 l/m 19,5 km/h (3 Bft) SW 236 0 min 0,000 mm 2,0 UV-I 401 W/m 14,5 C 10,5 C 25,7 km/h (4 Bft) 95,74 %
13.07.2019 15:56 15,6 C 20,6 C 18,3 C 94 % 1013,2 hPa 0,0 l/m 19,1 km/h (3 Bft) SW 232 0 min 0,000 mm 1,9 UV-I 371 W/m 14,6 C 10,7 C 30,6 km/h (5 Bft) 94,00 %
13.07.2019 15:58 15,6 C 20,6 C 18,3 C 94 % 1013,1 hPa 0,0 l/m 19,7 km/h (3 Bft) SW 231 0 min 0,000 mm 1,9 UV-I 355 W/m 14,6 C 10,6 C 29,0 km/h (5 Bft) 100,00 %
13.07.2019 16:00 15,7 C 20,6 C 18,3 C 94 % 1013,2 hPa 0,0 l/m 20,9 km/h (4 Bft) SW 230 0 min 0,000 mm 1,8 UV-I 348 W/m 14,7 C 10,4 C 29,0 km/h (5 Bft) 100,00 %
13.07.2019 16:02 15,7 C 20,6 C 17,8 C 94 % 1013,2 hPa 0,0 l/m 18,9 km/h (3 Bft) SW 215 0 min 0,102 mm 1,8 UV-I 344 W/m 14,7 C 10,9 C 27,4 km/h (4 Bft) 100,00 %
13.07.2019 16:04 15,7 C 20,6 C 18,3 C 94 % 1013,1 hPa 0,0 l/m 18,0 km/h (3 Bft) W 273 0 min 0,000 mm 1,6 UV-I 302 W/m 14,7 C 11,2 C 27,4 km/h (4 Bft) 100,00 %
13.07.2019 16:06 15,7 C 20,6 C 17,8 C 94 % 1013,2 hPa 0,0 l/m 21,4 km/h (4 Bft) SW 234 0 min 0,000 mm 1,3 UV-I 263 W/m 14,7 C 10,3 C 32,2 km/h (5 Bft) 100,00 %
13.07.2019 16:08 15,7 C 20,6 C 17,2 C 94 % 1013,1 hPa 0,0 l/m 19,4 km/h (3 Bft) SW 225 0 min 0,000 mm 1,1 UV-I 231 W/m 14,7 C 10,8 C 30,6 km/h (5 Bft) 100,00 %
13.07.2019 16:10 15,7 C 20,6 C 17,2 C 94 % 1013,1 hPa 0,0 l/m 17,4 km/h (3 Bft) W 259 0 min 0,000 mm 1,1 UV-I 221 W/m 14,7 C 11,3 C 29,0 km/h (5 Bft) 100,00 %
13.07.2019 16:12 15,7 C 20,6 C 17,2 C 94 % 1013,1 hPa 0,0 l/m 16,1 km/h (3 Bft) W-SW 252 0 min 0,000 mm 1,2 UV-I 232 W/m 14,7 C 11,7 C 24,1 km/h (4 Bft) 100,00 %
13.07.2019 16:14 15,7 C 20,6 C 17,2 C 94 % 1013,1 hPa 0,0 l/m 21,2 km/h (4 Bft) SW 228 0 min 0,000 mm 1,2 UV-I 219 W/m 14,7 C 10,4 C 29,0 km/h (5 Bft) 100,00 %
13.07.2019 16:16 15,6 C 20,6 C 17,2 C 93 % 1013,1 hPa 0,0 l/m 22,4 km/h (4 Bft) SW 234 0 min 0,000 mm 1,2 UV-I 212 W/m 14,5 C 10,0 C 32,2 km/h (5 Bft) 97,87 %
13.07.2019 16:18 15,6 C 20,6 C 17,2 C 93 % 1013,2 hPa 0,0 l/m 16,2 km/h (3 Bft) W-SW 237 0 min 0,000 mm 1,2 UV-I 230 W/m 14,5 C 11,5 C 27,4 km/h (4 Bft) 100,00 %
13.07.2019 16:20 15,6 C 20,6 C 17,2 C 93 % 1013,0 hPa 0,0 l/m 17,1 km/h (3 Bft) W-SW 242 0 min 0,000 mm 1,2 UV-I 249 W/m 14,5 C 11,3 C 27,4 km/h (4 Bft) 97,87 %
13.07.2019 16:22 15,6 C 20,6 C 17,2 C 93 % 1013,1 hPa 0,0 l/m 18,7 km/h (3 Bft) SW 219 0 min 0,000 mm 1,1 UV-I 237 W/m 14,5 C 10,9 C 25,7 km/h (4 Bft) 97,22 %
13.07.2019 16:24 15,7 C 20,6 C 17,2 C 94 % 1013,1 hPa 0,0 l/m 19,1 km/h (3 Bft) W-SW 240 0 min 0,000 mm 1,0 UV-I 211 W/m 14,7 C 10,9 C 29,0 km/h (5 Bft) 98,04 %
13.07.2019 16:26 15,7 C 20,6 C 17,2 C 93 % 1013,1 hPa 0,0 l/m 17,7 km/h (3 Bft) W 275 0 min 0,000 mm 1,0 UV-I 196 W/m 14,6 C 11,2 C 29,0 km/h (5 Bft) 95,74 %
13.07.2019 16:28 15,7 C 20,6 C 17,2 C 93 % 1013,0 hPa 0,0 l/m 17,3 km/h (3 Bft) W-SW 244 0 min 0,000 mm 1,0 UV-I 182 W/m 14,6 C 11,4 C 25,7 km/h (4 Bft) 95,74 %
13.07.2019 16:30 15,7 C 20,6 C 17,2 C 93 % 1013,1 hPa 0,0 l/m 20,7 km/h (4 Bft) W-SW 248 0 min 0,000 mm 1,0 UV-I 177 W/m 14,6 C 10,5 C 32,2 km/h (5 Bft) 95,74 %
13.07.2019 16:32 15,7 C 20,6 C 16,7 C 93 % 1013,1 hPa 0,0 l/m 18,9 km/h (3 Bft) SW 225 0 min 0,000 mm 1,0 UV-I 170 W/m 14,6 C 10,9 C 25,7 km/h (4 Bft) 97,87 %
13.07.2019 16:34 15,7 C 20,6 C 16,7 C 93 % 1013,0 hPa 0,0 l/m 18,2 km/h (3 Bft) W-NW 283 0 min 0,000 mm 1,0 UV-I 186 W/m 14,6 C 11,1 C 27,4 km/h (4 Bft) 95,74 %
13.07.2019 16:36 15,7 C 20,6 C 17,2 C 93 % 1013,0 hPa 0,0 l/m 20,1 km/h (4 Bft) W-SW 254 0 min 0,000 mm 1,1 UV-I 220 W/m 14,6 C 10,6 C 25,7 km/h (4 Bft) 97,87 %
13.07.2019 16:38 15,7 C 20,6 C 17,2 C 93 % 1013,0 hPa 0,0 l/m 23,4 km/h (4 Bft) SW 231 0 min 0,000 mm 1,2 UV-I 268 W/m 14,6 C 9,9 C 32,2 km/h (5 Bft) 97,37 %
13.07.2019 16:40 15,9 C 20,6 C 17,8 C 93 % 1013,0 hPa 0,0 l/m 18,0 km/h (3 Bft) SW 228 0 min 0,000 mm 1,4 UV-I 313 W/m 14,8 C 11,4 C 25,7 km/h (4 Bft) 98,39 %
13.07.2019 16:42 15,9 C 20,6 C 17,8 C 93 % 1013,1 hPa 0,0 l/m 19,6 km/h (3 Bft) SW 234 0 min 0,000 mm 1,4 UV-I 292 W/m 14,8 C 11,0 C 32,2 km/h (5 Bft) 94,74 %
13.07.2019 16:44 16,0 C 20,6 C 17,8 C 93 % 1013,1 hPa 0,0 l/m 19,2 km/h (3 Bft) W 261 0 min 0,000 mm 1,2 UV-I 246 W/m 14,9 C 11,2 C 29,0 km/h (5 Bft) 97,87 %
13.07.2019 16:46 16,1 C 20,6 C 17,2 C 93 % 1013,1 hPa 0,0 l/m 18,0 km/h (3 Bft) SW 232 0 min 0,000 mm 0,8 UV-I 162 W/m 15,0 C 11,7 C 30,6 km/h (5 Bft) 100,00 %
13.07.2019 16:48 16,1 C 20,6 C 17,2 C 92 % 1013,1 hPa 0,0 l/m 18,8 km/h (3 Bft) SW 230 0 min 0,000 mm 0,7 UV-I 146 W/m 14,8 C 11,5 C 29,0 km/h (5 Bft) 100,00 %
13.07.2019 16:50 16,1 C 20,6 C 17,2 C 92 % 1013,0 hPa 0,0 l/m 19,5 km/h (3 Bft) SW 223 0 min 0,000 mm 0,9 UV-I 185 W/m 14,8 C 11,3 C 30,6 km/h (5 Bft) 100,00 %
13.07.2019 16:52 16,1 C 20,6 C 17,2 C 92 % 1013,0 hPa 0,0 l/m 15,5 km/h (3 Bft) W-SW 244 0 min 0,000 mm 1,0 UV-I 219 W/m 14,8 C 12,4 C 27,4 km/h (4 Bft) 95,74 %
13.07.2019 16:54 16,1 C 20,6 C 17,2 C 92 % 1013,1 hPa 0,0 l/m 19,9 km/h (4 Bft) W-SW 248 0 min 0,000 mm 1,2 UV-I 255 W/m 14,8 C 11,2 C 29,0 km/h (5 Bft) 100,00 %
13.07.2019 16:56 16,1 C 20,6 C 17,8 C 92 % 1013,1 hPa 0,0 l/m 20,9 km/h (4 Bft) W-SW 241 0 min 0,000 mm 1,3 UV-I 241 W/m 14,8 C 11,0 C 29,0 km/h (5 Bft) 100,00 %
13.07.2019 16:58 16,1 C 20,6 C 17,8 C 92 % 1013,1 hPa 0,0 l/m 16,4 km/h (3 Bft) S-SW 206 0 min 0,000 mm 1,3 UV-I 267 W/m 14,8 C 12,1 C 24,1 km/h (4 Bft) 100,00 %
13.07.2019 17:00 16,3 C 20,6 C 20,0 C 93 % 1013,1 hPa 0,0 l/m 13,8 km/h (3 Bft) S-SW 196 2 min 0,000 mm 1,6 UV-I 337 W/m 15,2 C 13,1 C 22,5 km/h (4 Bft) 100,00 %
13.07.2019 17:02 16,5 C 20,6 C 21,7 C 92 % 1013,0 hPa 0,0 l/m 16,7 km/h (3 Bft) W-SW 237 2 min 0,127 mm 1,9 UV-I 482 W/m 15,2 C 12,5 C 29,0 km/h (5 Bft) 100,00 %
13.07.2019 17:04 16,8 C 20,6 C 22,8 C 93 % 1013,0 hPa 0,0 l/m 13,4 km/h (3 Bft) W-SW 246 2 min 0,000 mm 1,8 UV-I 642 W/m 15,7 C 13,9 C 19,3 km/h (3 Bft) 100,00 %
13.07.2019 17:06 17,0 C 20,6 C 22,8 C 92 % 1013,0 hPa 0,0 l/m 15,5 km/h (3 Bft) W 275 2 min 0,000 mm 1,6 UV-I 598 W/m 15,7 C 13,5 C 24,1 km/h (4 Bft) 100,00 %
13.07.2019 17:08 17,1 C 20,6 C 20,6 C 91 % 1013,0 hPa 0,0 l/m 21,0 km/h (4 Bft) SW 236 2 min 0,000 mm 1,3 UV-I 454 W/m 15,6 C 12,2 C 29,0 km/h (5 Bft) 100,00 %
13.07.2019 17:10 16,9 C 20,6 C 19,4 C 90 % 1012,9 hPa 0,0 l/m 15,5 km/h (3 Bft) W-SW 247 0 min 0,000 mm 1,0 UV-I 192 W/m 15,2 C 13,3 C 29,0 km/h (5 Bft) 100,00 %
13.07.2019 17:12 16,9 C 20,6 C 18,3 C 90 % 1012,9 hPa 0,0 l/m 15,6 km/h (3 Bft) W 278 0 min 0,000 mm 0,9 UV-I 158 W/m 15,2 C 13,3 C 22,5 km/h (4 Bft) 94,23 %
13.07.2019 17:14 16,8 C 20,6 C 17,8 C 90 % 1012,9 hPa 0,0 l/m 19,7 km/h (3 Bft) W 266 0 min 0,000 mm 0,8 UV-I 150 W/m 15,1 C 12,1 C 32,2 km/h (5 Bft) 93,62 %
13.07.2019 17:16 16,8 C 20,6 C 17,8 C 89 % 1012,9 hPa 0,0 l/m 18,3 km/h (3 Bft) SW 231 0 min 0,000 mm 0,7 UV-I 148 W/m 15,0 C 12,5 C 25,7 km/h (4 Bft) 95,74 %
13.07.2019 17:18 16,7 C 20,6 C 17,2 C 89 % 1013,0 hPa 0,0 l/m 21,0 km/h (4 Bft) W 275 0 min 0,000 mm 0,5 UV-I 120 W/m 14,9 C 11,7 C 35,4 km/h (5 Bft) 95,74 %
13.07.2019 17:20 16,6 C 20,6 C 17,2 C 88 % 1013,0 hPa 0,2 l/m 26,7 km/h (4 Bft) W 271 0 min 0,000 mm 0,5 UV-I 139 W/m 14,6 C 10,5 C 40,2 km/h (6 Bft) 94,00 %
13.07.2019 17:22 16,4 C 20,6 C 16,7 C 87 % 1013,0 hPa 0,0 l/m 26,0 km/h (4 Bft) W-SW 253 0 min 0,000 mm 0,6 UV-I 162 W/m 14,2 C 10,3 C 43,5 km/h (6 Bft) 94,29 %
13.07.2019 17:24 16,3 C 20,6 C 16,7 C 88 % 1013,1 hPa 0,0 l/m 20,7 km/h (4 Bft) W 266 0 min 0,000 mm 0,7 UV-I 173 W/m 14,3 C 11,3 C 41,8 km/h (6 Bft) 96,00 %
13.07.2019 17:26 16,1 C 20,6 C 16,1 C 87 % 1013,0 hPa 0,0 l/m 21,6 km/h (4 Bft) W 261 0 min 0,000 mm 0,7 UV-I 180 W/m 13,9 C 10,8 C 33,8 km/h (5 Bft) 95,74 %
13.07.2019 17:28 15,9 C 20,6 C 16,1 C 88 % 1013,1 hPa 0,0 l/m 24,4 km/h (4 Bft) SW 231 0 min 0,000 mm 0,7 UV-I 192 W/m 13,9 C 9,9 C 32,2 km/h (5 Bft) 93,62 %
13.07.2019 17:30 15,8 C 20,6 C 16,1 C 88 % 1013,1 hPa 0,0 l/m 22,6 km/h (4 Bft) W-SW 244 0 min 0,000 mm 0,7 UV-I 187 W/m 13,8 C 10,2 C 33,8 km/h (5 Bft) 93,62 %
13.07.2019 17:32 15,8 C 20,6 C 16,1 C 88 % 1013,1 hPa 0,0 l/m 16,4 km/h (3 Bft) W 271 0 min 0,000 mm 0,6 UV-I 161 W/m 13,8 C 11,7 C 29,0 km/h (5 Bft) 95,83 %
13.07.2019 17:34 15,7 C 20,6 C 15,6 C 88 % 1013,1 hPa 0,0 l/m 13,9 km/h (3 Bft) W 273 0 min 0,000 mm 0,5 UV-I 138 W/m 13,7 C 12,4 C 19,3 km/h (3 Bft) 98,00 %
13.07.2019 17:36 15,7 C 20,6 C 16,1 C 89 % 1013,2 hPa 0,0 l/m 14,0 km/h (3 Bft) W-SW 252 0 min 0,000 mm 0,5 UV-I 131 W/m 13,9 C 12,4 C 20,9 km/h (4 Bft) 93,88 %
13.07.2019 17:39 15,7 C 20,6 C 16,1 C 88 % 1013,2 hPa 0,0 l/m 16,5 km/h (3 Bft) SW 220 0 min 0,000 mm 0,5 UV-I 162 W/m 13,7 C 11,6 C 27,4 km/h (4 Bft) 93,24 %
13.07.2019 17:40 15,7 C 20,6 C 16,7 C 89 % 1013,2 hPa 0,0 l/m 19,9 km/h (4 Bft) W 260 0 min 0,000 mm 0,7 UV-I 199 W/m 13,9 C 10,7 C 24,1 km/h (4 Bft) 100,00 %
13.07.2019 17:42 15,8 C 20,6 C 17,2 C 89 % 1013,2 hPa 0,0 l/m 14,6 km/h (3 Bft) W-SW 244 0 min 0,000 mm 0,7 UV-I 208 W/m 14,0 C 12,3 C 27,4 km/h (4 Bft) 96,00 %
13.07.2019 17:44 15,9 C 20,6 C 16,7 C 88 % 1013,2 hPa 0,0 l/m 21,7 km/h (4 Bft) W 261 0 min 0,000 mm 0,7 UV-I 205 W/m 13,9 C 10,5 C 32,2 km/h (5 Bft) 95,74 %
13.07.2019 17:46 15,9 C 20,6 C 16,7 C 88 % 1013,2 hPa 0,0 l/m 14,7 km/h (3 Bft) W 272 0 min 0,000 mm 0,6 UV-I 193 W/m 13,9 C 12,4 C 22,5 km/h (4 Bft) 98,00 %
13.07.2019 17:48 16,0 C 20,6 C 16,7 C 89 % 1013,2 hPa 0,0 l/m 14,1 km/h (3 Bft) W-SW 248 0 min 0,000 mm 0,5 UV-I 166 W/m 14,2 C 12,7 C 20,9 km/h (4 Bft) 91,49 %
13.07.2019 17:50 16,0 C 20,6 C 16,7 C 89 % 1013,3 hPa 0,0 l/m 15,5 km/h (3 Bft) SW 234 0 min 0,000 mm 0,1 UV-I 132 W/m 14,2 C 12,3 C 22,5 km/h (4 Bft) 95,74 %
13.07.2019 17:52 16,0 C 20,6 C 16,1 C 88 % 1013,2 hPa 0,0 l/m 19,0 km/h (3 Bft) W-SW 245 0 min 0,000 mm 0,0 UV-I 129 W/m 14,0 C 11,3 C 27,4 km/h (4 Bft) 93,62 %
13.07.2019 17:54 16,0 C 20,6 C 16,1 C 89 % 1013,2 hPa 0,0 l/m 16,0 km/h (3 Bft) W-SW 247 0 min 0,000 mm 0,0 UV-I 126 W/m 14,2 C 12,1 C 27,4 km/h (4 Bft) 93,62 %
13.07.2019 17:56 16,1 C 20,6 C 16,1 C 89 % 1013,2 hPa 0,0 l/m 14,3 km/h (3 Bft) W-SW 240 0 min 0,000 mm 0,0 UV-I 119 W/m 14,3 C 12,7 C 22,5 km/h (4 Bft) 96,00 %
13.07.2019 17:58 16,1 C 20,6 C 16,1 C 89 % 1013,2 hPa 0,0 l/m 16,5 km/h (3 Bft) W-SW 238 0 min 0,000 mm 0,0 UV-I 108 W/m 14,3 C 12,1 C 22,5 km/h (4 Bft) 95,74 %
13.07.2019 18:00 16,1 C 20,6 C 16,1 C 89 % 1013,2 hPa 0,0 l/m 13,6 km/h (3 Bft) W 261 0 min 0,000 mm 0,0 UV-I 83 W/m 14,3 C 13,0 C 22,5 km/h (4 Bft) 93,62 %
13.07.2019 18:02 16,1 C 20,6 C 16,1 C 89 % 1013,2 hPa 0,0 l/m 14,7 km/h (3 Bft) W 279 0 min 0,127 mm 0,0 UV-I 65 W/m 14,3 C 12,6 C 20,9 km/h (4 Bft) 94,74 %
13.07.2019 18:04 16,0 C 20,6 C 16,1 C 89 % 1013,3 hPa 0,0 l/m 15,5 km/h (3 Bft) SW 231 0 min 0,000 mm 0,0 UV-I 61 W/m 14,2 C 12,3 C 27,4 km/h (4 Bft) 93,62 %
13.07.2019 18:06 15,9 C 20,6 C 15,6 C 88 % 1013,3 hPa 0,0 l/m 17,1 km/h (3 Bft) W-SW 239 0 min 0,000 mm 0,0 UV-I 62 W/m 13,9 C 11,7 C 24,1 km/h (4 Bft) 92,00 %
13.07.2019 18:08 15,9 C 20,6 C 15,6 C 88 % 1013,4 hPa 0,0 l/m 16,8 km/h (3 Bft) W-SW 254 0 min 0,000 mm 0,0 UV-I 61 W/m 13,9 C 11,7 C 25,7 km/h (4 Bft) 95,74 %
13.07.2019 18:10 15,8 C 20,6 C 15,6 C 88 % 1013,4 hPa 0,0 l/m 21,0 km/h (4 Bft) W-SW 241 0 min 0,000 mm 0,0 UV-I 56 W/m 13,8 C 10,5 C 32,2 km/h (5 Bft) 93,62 %
13.07.2019 18:12 15,8 C 20,6 C 15,6 C 88 % 1013,4 hPa 0,0 l/m 18,0 km/h (3 Bft) SW 235 0 min 0,000 mm 0,0 UV-I 54 W/m 13,8 C 11,3 C 29,0 km/h (5 Bft) 94,00 %
13.07.2019 18:14 15,8 C 20,6 C 15,6 C 88 % 1013,4 hPa 0,0 l/m 20,5 km/h (4 Bft) SW 234 0 min 0,000 mm 0,0 UV-I 53 W/m 13,8 C 10,7 C 32,2 km/h (5 Bft) 97,92 %
13.07.2019 18:16 15,7 C 20,6 C 15,6 C 89 % 1013,4 hPa 0,0 l/m 14,7 km/h (3 Bft) SW 229 0 min 0,000 mm 0,0 UV-I 61 W/m 13,9 C 12,1 C 24,1 km/h (4 Bft) 97,87 %
13.07.2019 18:18 15,7 C 20,6 C 15,6 C 89 % 1013,4 hPa 0,0 l/m 15,6 km/h (3 Bft) W-SW 258 0 min 0,000 mm 0,0 UV-I 71 W/m 13,9 C 11,9 C 25,7 km/h (4 Bft) 97,87 %
13.07.2019 18:20 15,7 C 20,6 C 15,6 C 89 % 1013,4 hPa 0,0 l/m 12,1 km/h (2 Bft) SW 218 0 min 0,000 mm 0,0 UV-I 70 W/m 13,9 C 13,0 C 19,3 km/h (3 Bft) 97,87 %
13.07.2019 18:22 15,7 C 20,6 C 15,6 C 90 % 1013,5 hPa 0,0 l/m 12,0 km/h (2 Bft) W-SW 245 0 min 0,000 mm 0,0 UV-I 56 W/m 14,1 C 13,1 C 20,9 km/h (4 Bft) 97,87 %
13.07.2019 18:24 15,7 C 20,6 C 15,6 C 90 % 1013,5 hPa 0,0 l/m 15,7 km/h (3 Bft) W-SW 240 0 min 0,000 mm 0,0 UV-I 48 W/m 14,1 C 11,8 C 27,4 km/h (4 Bft) 97,87 %
13.07.2019 18:26 15,7 C 20,6 C 15,6 C 90 % 1013,4 hPa 0,0 l/m 17,2 km/h (3 Bft) W 259 0 min 0,000 mm 0,0 UV-I 54 W/m 14,1 C 11,4 C 24,1 km/h (4 Bft) 93,62 %
13.07.2019 18:28 15,7 C 20,6 C 15,6 C 90 % 1013,4 hPa 0,0 l/m 15,7 km/h (3 Bft) SW 236 0 min 0,000 mm 0,0 UV-I 64 W/m 14,1 C 11,8 C 25,7 km/h (4 Bft) 97,87 %
13.07.2019 18:30 15,7 C 20,6 C 16,1 C 90 % 1013,4 hPa 0,0 l/m 13,7 km/h (3 Bft) W-SW 258 0 min 0,000 mm 0,0 UV-I 81 W/m 14,1 C 12,5 C 22,5 km/h (4 Bft) 97,87 %
13.07.2019 18:32 15,7 C 20,6 C 16,1 C 90 % 1013,4 hPa 0,0 l/m 14,0 km/h (3 Bft) W-SW 257 0 min 0,000 mm 0,0 UV-I 99 W/m 14,1 C 12,4 C 20,9 km/h (4 Bft) 97,37 %
13.07.2019 18:34 15,8 C 20,6 C 16,1 C 90 % 1013,3 hPa 0,0 l/m 16,1 km/h (3 Bft) SW 231 0 min 0,000 mm 0,0 UV-I 127 W/m 14,2 C 11,8 C 24,1 km/h (4 Bft) 97,87 %
13.07.2019 18:36 15,8 C 20,6 C 16,1 C 89 % 1013,3 hPa 0,0 l/m 17,5 km/h (3 Bft) SW 232 0 min 0,000 mm 0,0 UV-I 145 W/m 14,0 C 11,4 C 24,1 km/h (4 Bft) 100,00 %
13.07.2019 18:38 15,9 C 20,6 C 16,7 C 89 % 1013,4 hPa 0,0 l/m 16,5 km/h (3 Bft) W 259 0 min 0,000 mm 0,0 UV-I 152 W/m 14,1 C 11,8 C 27,4 km/h (4 Bft) 100,00 %
13.07.2019 18:40 16,0 C 20,6 C 16,7 C 88 % 1013,3 hPa 0,0 l/m 15,9 km/h (3 Bft) W-SW 238 0 min 0,000 mm 0,0 UV-I 149 W/m 14,0 C 12,1 C 22,5 km/h (4 Bft) 100,00 %
13.07.2019 18:42 16,0 C 20,6 C 16,7 C 88 % 1013,4 hPa 0,0 l/m 14,0 km/h (3 Bft) SW 230 0 min 0,000 mm 0,0 UV-I 116 W/m 14,0 C 12,7 C 22,5 km/h (4 Bft) 100,00 %
13.07.2019 18:44 16,1 C 20,6 C 16,1 C 88 % 1013,4 hPa 0,0 l/m 16,8 km/h (3 Bft) W 262 0 min 0,000 mm 0,0 UV-I 72 W/m 14,1 C 12,0 C 25,7 km/h (4 Bft) 100,00 %
13.07.2019 18:46 16,0 C 20,6 C 16,1 C 87 % 1013,5 hPa 0,0 l/m 15,8 km/h (3 Bft) W 268 0 min 0,000 mm 0,0 UV-I 42 W/m 13,8 C 12,2 C 24,1 km/h (4 Bft) 100,00 %
13.07.2019 18:48 16,0 C 20,6 C 16,1 C 87 % 1013,4 hPa 0,0 l/m 16,3 km/h (3 Bft) SW 232 0 min 0,000 mm 0,0 UV-I 33 W/m 13,8 C 12,0 C 24,1 km/h (4 Bft) 100,00 %
13.07.2019 18:50 15,9 C 20,6 C 15,6 C 87 % 1013,5 hPa 0,0 l/m 19,8 km/h (3 Bft) W 268 0 min 0,000 mm 0,0 UV-I 20 W/m 13,7 C 11,0 C 27,4 km/h (4 Bft) 100,00 %
13.07.2019 18:52 15,9 C 20,6 C 15,6 C 87 % 1013,6 hPa 0,0 l/m 19,2 km/h (3 Bft) W-SW 257 0 min 0,000 mm 0,0 UV-I 25 W/m 13,7 C 11,1 C 25,7 km/h (4 Bft) 100,00 %
13.07.2019 18:54 15,9 C 20,6 C 15,6 C 87 % 1013,8 hPa 0,0 l/m 17,2 km/h (3 Bft) W 277 0 min 0,000 mm 0,0 UV-I 33 W/m 13,7 C 11,6 C 25,7 km/h (4 Bft) 100,00 %
13.07.2019 18:56 15,8 C 20,6 C 15,6 C 87 % 1013,7 hPa 0,0 l/m 16,9 km/h (3 Bft) W-SW 250 0 min 0,000 mm 0,0 UV-I 27 W/m 13,6 C 11,6 C 24,1 km/h (4 Bft) 95,74 %
13.07.2019 18:58 15,8 C 20,6 C 15,6 C 88 % 1014,0 hPa 0,0 l/m 16,7 km/h (3 Bft) W-SW 248 0 min 0,000 mm 0,0 UV-I 22 W/m 13,8 C 11,7 C 25,7 km/h (4 Bft) 100,00 %
13.07.2019 19:00 15,7 C 20,6 C 15,0 C 88 % 1013,9 hPa 0,0 l/m 19,3 km/h (3 Bft) W 277 0 min 0,000 mm 0,0 UV-I 23 W/m 13,7 C 10,8 C 29,0 km/h (5 Bft) 100,00 %
13.07.2019 19:02 15,6 C 20,6 C 15,0 C 88 % 1014,0 hPa 0,2 l/m 20,9 km/h (4 Bft) W-SW 246 0 min 0,051 mm 0,0 UV-I 30 W/m 13,6 C 10,3 C 30,6 km/h (5 Bft) 100,00 %
13.07.2019 19:04 15,3 C 20,6 C 14,4 C 89 % 1013,9 hPa 0,2 l/m 17,2 km/h (3 Bft) SW 233 0 min 0,000 mm 0,0 UV-I 33 W/m 13,5 C 10,9 C 32,2 km/h (5 Bft) 100,00 %
13.07.2019 19:06 15,2 C 20,6 C 15,0 C 90 % 1013,9 hPa 0,2 l/m 14,6 km/h (3 Bft) W 265 0 min 0,000 mm 0,0 UV-I 33 W/m 13,6 C 11,6 C 24,1 km/h (4 Bft) 100,00 %
13.07.2019 19:08 15,0 C 20,6 C 15,0 C 91 % 1013,9 hPa 0,0 l/m 13,1 km/h (3 Bft) W 276 0 min 0,000 mm 0,0 UV-I 32 W/m 13,5 C 11,9 C 16,1 km/h (3 Bft) 100,00 %
13.07.2019 19:10 14,9 C 20,6 C 15,0 C 92 % 1013,9 hPa 0,2 l/m 12,5 km/h (3 Bft) W 259 0 min 0,000 mm 0,0 UV-I 32 W/m 13,6 C 12,0 C 16,1 km/h (3 Bft) 100,00 %
13.07.2019 19:12 14,8 C 20,6 C 14,4 C 92 % 1013,9 hPa 0,0 l/m 17,2 km/h (3 Bft) W-SW 258 0 min 0,000 mm 0,0 UV-I 33 W/m 13,5 C 10,3 C 25,7 km/h (4 Bft) 97,87 %
13.07.2019 19:14 14,7 C 20,6 C 14,4 C 91 % 1013,9 hPa 0,2 l/m 17,5 km/h (3 Bft) W 261 0 min 0,000 mm 0,0 UV-I 36 W/m 13,2 C 10,0 C 24,1 km/h (4 Bft) 97,87 %
13.07.2019 19:16 14,7 C 20,6 C 14,4 C 92 % 1014,0 hPa 0,0 l/m 11,6 km/h (2 Bft) W-NW 288 0 min 0,000 mm 0,0 UV-I 38 W/m 13,4 C 12,1 C 16,1 km/h (3 Bft) 94,00 %
13.07.2019 19:18 14,6 C 20,6 C 14,4 C 92 % 1014,0 hPa 0,2 l/m 16,4 km/h (3 Bft) W-SW 246 0 min 0,000 mm 0,0 UV-I 40 W/m 13,3 C 10,3 C 25,7 km/h (4 Bft) 93,62 %
13.07.2019 19:20 14,6 C 20,6 C 14,4 C 92 % 1014,0 hPa 0,2 l/m 19,3 km/h (3 Bft) W-NW 288 0 min 0,000 mm 0,0 UV-I 42 W/m 13,3 C 9,4 C 32,2 km/h (5 Bft) 94,00 %
13.07.2019 19:22 14,6 C 20,6 C 14,4 C 92 % 1014,0 hPa 0,0 l/m 18,7 km/h (3 Bft) W 267 0 min 0,000 mm 0,0 UV-I 41 W/m 13,3 C 9,6 C 32,2 km/h (5 Bft) 93,62 %
13.07.2019 19:24 14,5 C 20,6 C 14,4 C 92 % 1014,0 hPa 0,2 l/m 19,7 km/h (3 Bft) W 265 0 min 0,000 mm 0,0 UV-I 36 W/m 13,2 C 9,2 C 33,8 km/h (5 Bft) 95,74 %
13.07.2019 19:26 14,5 C 20,6 C 14,4 C 92 % 1014,0 hPa 0,2 l/m 14,7 km/h (3 Bft) SW 231 0 min 0,000 mm 0,0 UV-I 32 W/m 13,2 C 10,7 C 24,1 km/h (4 Bft) 93,62 %
13.07.2019 19:28 14,5 C 20,6 C 14,4 C 92 % 1014,0 hPa 0,0 l/m 13,6 km/h (3 Bft) W-SW 258 0 min 0,000 mm 0,0 UV-I 32 W/m 13,2 C 11,1 C 22,5 km/h (4 Bft) 95,74 %
13.07.2019 19:30 14,4 C 20,6 C 14,4 C 92 % 1014,0 hPa 0,0 l/m 14,2 km/h (3 Bft) W 267 0 min 0,000 mm 0,0 UV-I 34 W/m 13,1 C 10,7 C 22,5 km/h (4 Bft) 94,44 %
13.07.2019 19:32 14,4 C 20,6 C 14,4 C 93 % 1014,0 hPa 0,2 l/m 14,6 km/h (3 Bft) W 265 0 min 0,000 mm 0,0 UV-I 39 W/m 13,3 C 10,6 C 24,1 km/h (4 Bft) 95,74 %
13.07.2019 19:34 14,3 C 20,6 C 14,4 C 93 % 1014,0 hPa 0,0 l/m 13,8 km/h (3 Bft) W-NW 294 0 min 0,000 mm 0,0 UV-I 44 W/m 13,2 C 10,8 C 24,1 km/h (4 Bft) 95,74 %
13.07.2019 19:36 14,3 C 20,6 C 14,4 C 93 % 1014,0 hPa 0,2 l/m 10,6 km/h (2 Bft) SW 225 0 min 0,000 mm 0,0 UV-I 52 W/m 13,2 C 12,1 C 16,1 km/h (3 Bft) 95,74 %
13.07.2019 19:38 14,3 C 20,0 C 14,4 C 93 % 1014,0 hPa 0,0 l/m 11,0 km/h (2 Bft) W 273 0 min 0,000 mm 0,0 UV-I 59 W/m 13,2 C 11,9 C 19,3 km/h (3 Bft) 93,62 %
13.07.2019 19:40 14,3 C 20,0 C 14,4 C 93 % 1014,1 hPa 0,0 l/m 10,4 km/h (2 Bft) W 259 0 min 0,000 mm 0,0 UV-I 64 W/m 13,2 C 12,2 C 16,1 km/h (3 Bft) 95,74 %
13.07.2019 19:42 14,3 C 20,0 C 14,4 C 93 % 1014,1 hPa 0,0 l/m 7,5 km/h (2 Bft) W-SW 256 0 min 0,000 mm 0,0 UV-I 66 W/m 13,2 C 13,7 C 12,9 km/h (3 Bft) 94,00 %
13.07.2019 19:44 14,3 C 20,0 C 15,0 C 94 % 1014,1 hPa 0,0 l/m 12,2 km/h (2 Bft) W 265 0 min 0,000 mm 0,0 UV-I 67 W/m 13,3 C 11,4 C 16,1 km/h (3 Bft) 97,87 %
13.07.2019 19:46 14,4 C 20,0 C 15,0 C 94 % 1014,1 hPa 0,0 l/m 11,5 km/h (2 Bft) W 275 0 min 0,000 mm 0,0 UV-I 65 W/m 13,4 C 11,8 C 14,5 km/h (3 Bft) 93,62 %
13.07.2019 19:48 14,4 C 20,0 C 15,0 C 94 % 1014,0 hPa 0,0 l/m 12,4 km/h (3 Bft) W 261 0 min 0,000 mm 0,0 UV-I 63 W/m 13,4 C 11,4 C 17,7 km/h (3 Bft) 97,87 %
13.07.2019 19:50 14,4 C 20,6 C 15,0 C 94 % 1014,0 hPa 0,0 l/m 12,2 km/h (2 Bft) W-NW 292 0 min 0,000 mm 0,0 UV-I 58 W/m 13,4 C 11,5 C 17,7 km/h (3 Bft) 100,00 %
13.07.2019 19:52 14,4 C 20,0 C 15,0 C 94 % 1013,9 hPa 0,0 l/m 12,6 km/h (3 Bft) W 264 0 min 0,000 mm 0,0 UV-I 48 W/m 13,4 C 11,3 C 17,7 km/h (3 Bft) 100,00 %
13.07.2019 19:54 14,4 C 20,0 C 14,4 C 94 % 1013,9 hPa 0,0 l/m 12,4 km/h (3 Bft) W-SW 252 0 min 0,000 mm 0,0 UV-I 40 W/m 13,4 C 11,4 C 17,7 km/h (3 Bft) 97,87 %
13.07.2019 19:56 14,4 C 20,0 C 14,4 C 94 % 1014,0 hPa 0,0 l/m 13,6 km/h (3 Bft) W 268 0 min 0,000 mm 0,0 UV-I 35 W/m 13,4 C 11,0 C 20,9 km/h (4 Bft) 97,87 %
13.07.2019 19:58 14,4 C 20,0 C 14,4 C 94 % 1013,9 hPa 0,0 l/m 13,1 km/h (3 Bft) W-SW 246 0 min 0,000 mm 0,0 UV-I 33 W/m 13,4 C 11,1 C 19,3 km/h (3 Bft) 100,00 %
13.07.2019 20:00 14,5 C 20,0 C 14,4 C 94 % 1014,0 hPa 0,0 l/m 12,2 km/h (2 Bft) W-NW 285 0 min 0,000 mm 0,0 UV-I 32 W/m 13,5 C 11,6 C 16,1 km/h (3 Bft) 100,00 %
13.07.2019 20:02 14,5 C 20,0 C 14,4 C 93 % 1014,1 hPa 0,0 l/m 13,9 km/h (3 Bft) W 269 0 min 0,025 mm 0,0 UV-I 30 W/m 13,4 C 11,0 C 20,9 km/h (4 Bft) 98,08 %
13.07.2019 20:04 14,5 C 20,0 C 14,4 C 93 % 1014,0 hPa 0,0 l/m 13,9 km/h (3 Bft) W-SW 250 0 min 0,000 mm 0,0 UV-I 29 W/m 13,4 C 11,0 C 19,3 km/h (3 Bft) 100,00 %
13.07.2019 20:06 14,5 C 20,0 C 14,4 C 93 % 1014,1 hPa 0,0 l/m 14,3 km/h (3 Bft) W 259 0 min 0,000 mm 0,0 UV-I 26 W/m 13,4 C 10,8 C 20,9 km/h (4 Bft) 100,00 %
13.07.2019 20:08 14,6 C 20,0 C 14,4 C 93 % 1014,1 hPa 0,0 l/m 14,9 km/h (3 Bft) W 273 0 min 0,000 mm 0,0 UV-I 25 W/m 13,5 C 10,7 C 22,5 km/h (4 Bft) 100,00 %
13.07.2019 20:10 14,6 C 20,0 C 14,4 C 93 % 1014,1 hPa 0,0 l/m 14,7 km/h (3 Bft) W 275 0 min 0,000 mm 0,0 UV-I 24 W/m 13,5 C 10,8 C 22,5 km/h (4 Bft) 97,87 %
13.07.2019 20:12 14,6 C 20,0 C 14,4 C 93 % 1014,1 hPa 0,0 l/m 12,3 km/h (3 Bft) W-SW 237 0 min 0,000 mm 0,0 UV-I 23 W/m 13,5 C 11,7 C 20,9 km/h (4 Bft) 97,87 %
13.07.2019 20:14 14,6 C 20,0 C 14,4 C 92 % 1014,1 hPa 0,0 l/m 11,4 km/h (2 Bft) W-SW 244 0 min 0,000 mm 0,0 UV-I 21 W/m 13,3 C 12,1 C 16,1 km/h (3 Bft) 100,00 %
13.07.2019 20:16 14,6 C 20,0 C 14,4 C 92 % 1014,1 hPa 0,0 l/m 13,6 km/h (3 Bft) W-SW 242 0 min 0,000 mm 0,0 UV-I 25 W/m 13,3 C 11,2 C 19,3 km/h (3 Bft) 96,00 %
13.07.2019 20:18 14,6 C 20,0 C 14,4 C 92 % 1014,1 hPa 0,0 l/m 16,6 km/h (3 Bft) W-SW 252 0 min 0,000 mm 0,0 UV-I 22 W/m 13,3 C 10,2 C 22,5 km/h (4 Bft) 100,00 %
13.07.2019 20:20 14,6 C 20,0 C 14,4 C 92 % 1014,1 hPa 0,0 l/m 13,3 km/h (3 Bft) SW 227 0 min 0,000 mm 0,0 UV-I 19 W/m 13,3 C 11,3 C 19,3 km/h (3 Bft) 100,00 %
13.07.2019 20:22 14,6 C 20,0 C 14,4 C 92 % 1014,1 hPa 0,0 l/m 15,2 km/h (3 Bft) S-SW 213 0 min 0,000 mm 0,0 UV-I 20 W/m 13,3 C 10,6 C 24,1 km/h (4 Bft) 97,87 %
13.07.2019 20:24 14,6 C 20,0 C 14,4 C 92 % 1014,2 hPa 0,0 l/m 11,9 km/h (2 Bft) W 259 0 min 0,000 mm 0,0 UV-I 14 W/m 13,3 C 11,9 C 24,1 km/h (4 Bft) 100,00 %
13.07.2019 20:26 14,6 C 20,0 C 14,4 C 93 % 1014,2 hPa 0,0 l/m 12,6 km/h (3 Bft) W 276 0 min 0,000 mm 0,0 UV-I 21 W/m 13,5 C 11,6 C 19,3 km/h (3 Bft) 98,00 %
13.07.2019 20:28 14,6 C 20,0 C 14,4 C 93 % 1014,2 hPa 0,0 l/m 11,6 km/h (2 Bft) SW 233 0 min 0,000 mm 0,0 UV-I 28 W/m 13,5 C 12,0 C 19,3 km/h (3 Bft) 100,00 %
13.07.2019 20:30 14,6 C 20,0 C 14,4 C 93 % 1014,1 hPa 0,0 l/m 14,4 km/h (3 Bft) S-SW 209 0 min 0,000 mm 0,0 UV-I 20 W/m 13,5 C 10,9 C 20,9 km/h (4 Bft) 100,00 %
13.07.2019 20:32 14,6 C 20,0 C 14,4 C 93 % 1014,2 hPa 0,0 l/m 13,9 km/h (3 Bft) W-SW 258 0 min 0,000 mm 0,0 UV-I 18 W/m 13,5 C 11,1 C 19,3 km/h (3 Bft) 100,00 %
13.07.2019 20:34 14,6 C 20,0 C 14,4 C 94 % 1014,2 hPa 0,0 l/m 12,3 km/h (3 Bft) SW 225 0 min 0,000 mm 0,0 UV-I 17 W/m 13,6 C 11,7 C 19,3 km/h (3 Bft) 100,00 %
13.07.2019 20:36 14,5 C 20,0 C 14,4 C 94 % 1014,2 hPa 0,0 l/m 12,8 km/h (3 Bft) W-SW 252 0 min 0,000 mm 0,0 UV-I 12 W/m 13,5 C 11,4 C 19,3 km/h (3 Bft) 97,87 %
13.07.2019 20:38 14,5 C 20,0 C 14,4 C 94 % 1014,3 hPa 0,0 l/m 10,1 km/h (2 Bft) SW 233 0 min 0,000 mm 0,0 UV-I 10 W/m 13,5 C 12,5 C 17,7 km/h (3 Bft) 94,87 %
13.07.2019 20:40 14,5 C 20,0 C 14,4 C 94 % 1014,3 hPa 0,0 l/m 10,7 km/h (2 Bft) SW 221 0 min 0,000 mm 0,0 UV-I 9 W/m 13,5 C 12,2 C 16,1 km/h (3 Bft) 100,00 %
13.07.2019 20:42 14,5 C 20,0 C 14,4 C 94 % 1014,3 hPa 0,0 l/m 10,4 km/h (2 Bft) S-SW 211 0 min 0,000 mm 0,0 UV-I 8 W/m 13,5 C 12,4 C 19,3 km/h (3 Bft) 93,62 %
13.07.2019 20:44 14,5 C 20,0 C 14,4 C 94 % 1014,3 hPa 0,0 l/m 12,0 km/h (2 Bft) W-SW 252 0 min 0,000 mm 0,0 UV-I 7 W/m 13,5 C 11,7 C 19,3 km/h (3 Bft) 96,00 %
13.07.2019 20:46 14,5 C 20,0 C 14,4 C 94 % 1014,3 hPa 0,0 l/m 12,7 km/h (3 Bft) W 273 0 min 0,000 mm 0,0 UV-I 7 W/m 13,5 C 11,4 C 19,3 km/h (3 Bft) 97,87 %
13.07.2019 20:48 14,5 C 20,0 C 14,4 C 94 % 1014,4 hPa 0,0 l/m 13,5 km/h (3 Bft) W-SW 246 0 min 0,000 mm 0,0 UV-I 7 W/m 13,5 C 11,1 C 19,3 km/h (3 Bft) 95,74 %
13.07.2019 20:50 14,5 C 20,0 C 14,4 C 94 % 1014,4 hPa 0,0 l/m 13,4 km/h (3 Bft) W-SW 238 0 min 0,000 mm 0,0 UV-I 7 W/m 13,5 C 11,2 C 20,9 km/h (4 Bft) 96,00 %
13.07.2019 20:52 14,5 C 20,0 C 14,4 C 94 % 1014,4 hPa 0,0 l/m 11,3 km/h (2 Bft) W-SW 238 0 min 0,000 mm 0,0 UV-I 7 W/m 13,5 C 12,0 C 17,7 km/h (3 Bft) 94,00 %
13.07.2019 20:54 14,5 C 20,0 C 14,4 C 94 % 1014,4 hPa 0,0 l/m 13,5 km/h (3 Bft) W 263 0 min 0,000 mm 0,0 UV-I 7 W/m 13,5 C 11,1 C 22,5 km/h (4 Bft) 94,74 %
13.07.2019 20:56 14,4 C 20,0 C 14,4 C 94 % 1014,4 hPa 0,0 l/m 13,2 km/h (3 Bft) W-SW 251 0 min 0,000 mm 0,0 UV-I 7 W/m 13,4 C 11,1 C 20,9 km/h (4 Bft) 97,87 %
13.07.2019 20:58 14,4 C 20,0 C 14,4 C 94 % 1014,4 hPa 0,0 l/m 16,0 km/h (3 Bft) SW 229 0 min 0,000 mm 0,0 UV-I 7 W/m 13,4 C 10,1 C 22,5 km/h (4 Bft) 97,87 %
13.07.2019 21:00 14,4 C 20,0 C 14,4 C 93 % 1014,4 hPa 0,0 l/m 16,9 km/h (3 Bft) W 267 0 min 0,000 mm 0,0 UV-I 6 W/m 13,3 C 9,9 C 22,5 km/h (4 Bft) 97,87 %
13.07.2019 21:02 14,4 C 20,0 C 14,4 C 93 % 1014,3 hPa 0,0 l/m 15,0 km/h (3 Bft) W 272 0 min 0,025 mm 0,0 UV-I 5 W/m 13,3 C 10,5 C 24,1 km/h (4 Bft) 98,00 %
13.07.2019 21:04 14,3 C 20,0 C 13,9 C 93 % 1014,3 hPa 0,0 l/m 15,7 km/h (3 Bft) W 277 0 min 0,000 mm 0,0 UV-I 5 W/m 13,2 C 10,1 C 22,5 km/h (4 Bft) 97,37 %
13.07.2019 21:06 14,3 C 20,0 C 13,9 C 93 % 1014,3 hPa 0,0 l/m 15,7 km/h (3 Bft) W 265 0 min 0,000 mm 0,0 UV-I 5 W/m 13,2 C 10,1 C 25,7 km/h (4 Bft) 98,00 %
13.07.2019 21:08 14,3 C 20,0 C 13,9 C 93 % 1014,3 hPa 0,0 l/m 15,3 km/h (3 Bft) W-NW 290 0 min 0,000 mm 0,0 UV-I 5 W/m 13,2 C 10,2 C 22,5 km/h (4 Bft) 98,00 %
13.07.2019 21:10 14,3 C 20,0 C 13,9 C 92 % 1014,4 hPa 0,0 l/m 16,5 km/h (3 Bft) W-SW 237 0 min 0,000 mm 0,0 UV-I 0 W/m 13,0 C 9,9 C 25,7 km/h (4 Bft) 97,87 %
13.07.2019 21:12 14,3 C 20,0 C 13,9 C 92 % 1014,4 hPa 0,0 l/m 15,5 km/h (3 Bft) W 263 0 min 0,000 mm 0,0 UV-I 0 W/m 13,0 C 10,2 C 25,7 km/h (4 Bft) 100,00 %
13.07.2019 21:14 14,3 C 20,0 C 13,9 C 92 % 1014,4 hPa 0,0 l/m 15,3 km/h (3 Bft) W-SW 246 0 min 0,000 mm 0,0 UV-I 0 W/m 13,0 C 10,2 C 25,7 km/h (4 Bft) 95,74 %
13.07.2019 21:16 14,3 C 20,0 C 13,9 C 92 % 1014,4 hPa 0,0 l/m 13,4 km/h (3 Bft) W-SW 243 0 min 0,000 mm 0,0 UV-I 0 W/m 13,0 C 10,9 C 19,3 km/h (3 Bft) 95,74 %
13.07.2019 21:18 14,3 C 20,0 C 13,9 C 93 % 1014,5 hPa 0,0 l/m 16,6 km/h (3 Bft) W-SW 237 0 min 0,000 mm 0,0 UV-I 0 W/m 13,2 C 9,8 C 25,7 km/h (4 Bft) 97,87 %
13.07.2019 21:20 14,3 C 20,0 C 13,9 C 93 % 1014,5 hPa 0,0 l/m 15,8 km/h (3 Bft) SW 234 0 min 0,000 mm 0,0 UV-I 0 W/m 13,2 C 10,1 C 20,9 km/h (4 Bft) 96,00 %
13.07.2019 21:22 14,3 C 20,0 C 13,9 C 93 % 1014,6 hPa 0,0 l/m 14,7 km/h (3 Bft) W-SW 248 0 min 0,000 mm 0,0 UV-I 0 W/m 13,2 C 10,4 C 24,1 km/h (4 Bft) 95,83 %
13.07.2019 21:24 14,4 C 20,0 C 13,9 C 93 % 1014,6 hPa 0,0 l/m 13,4 km/h (3 Bft) W-SW 240 0 min 0,000 mm 0,0 UV-I 0 W/m 13,3 C 11,0 C 20,9 km/h (4 Bft) 94,74 %
13.07.2019 21:26 14,4 C 20,0 C 13,9 C 93 % 1014,6 hPa 0,0 l/m 12,5 km/h (3 Bft) SW 227 0 min 0,000 mm 0,0 UV-I 0 W/m 13,3 C 11,4 C 17,7 km/h (3 Bft) 95,74 %
13.07.2019 21:28 14,4 C 20,0 C 13,9 C 93 % 1014,6 hPa 0,0 l/m 13,2 km/h (3 Bft) W 260 0 min 0,000 mm 0,0 UV-I 0 W/m 13,3 C 11,1 C 19,3 km/h (3 Bft) 96,00 %
13.07.2019 21:30 14,4 C 20,0 C 13,9 C 93 % 1014,6 hPa 0,0 l/m 15,0 km/h (3 Bft) W-SW 242 0 min 0,000 mm 0,0 UV-I 0 W/m 13,3 C 10,5 C 25,7 km/h (4 Bft) 93,62 %
13.07.2019 21:32 14,4 C 20,0 C 13,9 C 93 % 1014,6 hPa 0,0 l/m 13,4 km/h (3 Bft) W 265 0 min 0,000 mm 0,0 UV-I 0 W/m 13,3 C 11,0 C 24,1 km/h (4 Bft) 95,74 %
13.07.2019 21:34 14,4 C 20,0 C 13,9 C 93 % 1014,6 hPa 0,0 l/m 17,7 km/h (3 Bft) W 261 0 min 0,000 mm 0,0 UV-I 0 W/m 13,3 C 9,6 C 27,4 km/h (4 Bft) 93,62 %
13.07.2019 21:36 14,4 C 20,0 C 13,9 C 93 % 1014,6 hPa 0,0 l/m 16,1 km/h (3 Bft) W-SW 242 0 min 0,000 mm 0,0 UV-I 0 W/m 13,3 C 10,1 C 29,0 km/h (5 Bft) 95,74 %
13.07.2019 21:38 14,4 C 20,0 C 13,9 C 93 % 1014,6 hPa 0,0 l/m 16,3 km/h (3 Bft) W-SW 248 0 min 0,000 mm 0,0 UV-I 0 W/m 13,3 C 10,0 C 25,7 km/h (4 Bft) 94,00 %
13.07.2019 21:40 14,4 C 20,0 C 13,9 C 93 % 1014,6 hPa 0,0 l/m 14,2 km/h (3 Bft) W-SW 250 0 min 0,000 mm 0,0 UV-I 0 W/m 13,3 C 10,7 C 27,4 km/h (4 Bft) 92,00 %
13.07.2019 21:42 14,4 C 20,0 C 13,9 C 92 % 1014,6 hPa 0,0 l/m 15,1 km/h (3 Bft) W-SW 244 0 min 0,000 mm 0,0 UV-I 0 W/m 13,1 C 10,4 C 24,1 km/h (4 Bft) 93,62 %
13.07.2019 21:44 14,4 C 20,0 C 13,9 C 92 % 1014,6 hPa 0,0 l/m 16,8 km/h (3 Bft) W-SW 238 0 min 0,000 mm 0,0 UV-I 0 W/m 13,1 C 9,9 C 29,0 km/h (5 Bft) 94,29 %
13.07.2019 21:46 14,4 C 20,0 C 13,9 C 92 % 1014,6 hPa 0,0 l/m 12,0 km/h (2 Bft) SW 222 0 min 0,000 mm 0,0 UV-I 0 W/m 13,1 C 11,6 C 19,3 km/h (3 Bft) 92,31 %
13.07.2019 21:48 14,3 C 20,0 C 13,9 C 92 % 1014,6 hPa 0,0 l/m 13,0 km/h (3 Bft) W-SW 251 0 min 0,000 mm 0,0 UV-I 0 W/m 13,0 C 11,1 C 22,5 km/h (4 Bft) 92,00 %
13.07.2019 21:50 14,3 C 20,0 C 13,9 C 92 % 1014,6 hPa 0,0 l/m 16,7 km/h (3 Bft) W-SW 256 0 min 0,000 mm 0,0 UV-I 0 W/m 13,0 C 9,8 C 27,4 km/h (4 Bft) 95,74 %
13.07.2019 21:52 14,4 C 20,0 C 13,9 C 92 % 1014,6 hPa 0,0 l/m 15,7 km/h (3 Bft) W-SW 241 0 min 0,000 mm 0,0 UV-I 0 W/m 13,1 C 10,2 C 27,4 km/h (4 Bft) 95,74 %
13.07.2019 21:54 14,4 C 20,0 C 13,9 C 92 % 1014,6 hPa 0,0 l/m 15,8 km/h (3 Bft) W-SW 258 0 min 0,000 mm 0,0 UV-I 0 W/m 13,1 C 10,2 C 25,7 km/h (4 Bft) 97,87 %
13.07.2019 21:56 14,4 C 20,0 C 13,9 C 92 % 1014,6 hPa 0,0 l/m 17,0 km/h (3 Bft) W 268 0 min 0,000 mm 0,0 UV-I 0 W/m 13,1 C 9,8 C 24,1 km/h (4 Bft) 97,44 %
13.07.2019 21:58 14,4 C 20,0 C 13,9 C 92 % 1014,6 hPa 0,0 l/m 15,5 km/h (3 Bft) W-SW 237 0 min 0,000 mm 0,0 UV-I 0 W/m 13,1 C 10,3 C 22,5 km/h (4 Bft) 97,87 %
13.07.2019 22:00 14,4 C 20,0 C 13,9 C 92 % 1014,6 hPa 0,0 l/m 15,7 km/h (3 Bft) W-SW 244 0 min 0,000 mm 0,0 UV-I 0 W/m 13,1 C 10,2 C 24,1 km/h (4 Bft) 97,87 %
13.07.2019 22:02 14,4 C 20,0 C 13,9 C 92 % 1014,6 hPa 0,0 l/m 17,8 km/h (3 Bft) W 261 0 min 0,026 mm 0,0 UV-I 0 W/m 13,1 C 9,6 C 24,1 km/h (4 Bft) 96,00 %
13.07.2019 22:04 14,4 C 20,0 C 13,9 C 92 % 1014,5 hPa 0,0 l/m 15,7 km/h (3 Bft) W 268 0 min 0,000 mm 0,0 UV-I 0 W/m 13,1 C 10,2 C 27,4 km/h (4 Bft) 98,00 %
13.07.2019 22:06 14,4 C 20,0 C 13,9 C 92 % 1014,5 hPa 0,0 l/m 15,0 km/h (3 Bft) W-SW 256 0 min 0,000 mm 0,0 UV-I 0 W/m 13,1 C 10,5 C 20,9 km/h (4 Bft) 93,62 %
13.07.2019 22:08 14,4 C 20,0 C 13,9 C 92 % 1014,4 hPa 0,0 l/m 19,1 km/h (3 Bft) W-SW 254 0 min 0,000 mm 0,0 UV-I 0 W/m 13,1 C 9,2 C 35,4 km/h (5 Bft) 95,74 %
13.07.2019 22:10 14,4 C 20,0 C 13,9 C 92 % 1014,4 hPa 0,0 l/m 19,6 km/h (3 Bft) SW 231 0 min 0,000 mm 0,0 UV-I 0 W/m 13,1 C 9,1 C 35,4 km/h (5 Bft) 95,74 %
13.07.2019 22:12 14,4 C 20,0 C 13,9 C 92 % 1014,4 hPa 0,0 l/m 18,4 km/h (3 Bft) SW 219 0 min 0,000 mm 0,0 UV-I 0 W/m 13,1 C 9,4 C 29,0 km/h (5 Bft) 91,49 %
13.07.2019 22:14 14,4 C 20,0 C 13,9 C 92 % 1014,4 hPa 0,0 l/m 20,3 km/h (4 Bft) S-SW 202 0 min 0,000 mm 0,0 UV-I 0 W/m 13,1 C 8,9 C 30,6 km/h (5 Bft) 95,74 %
13.07.2019 22:16 14,4 C 20,0 C 13,9 C 92 % 1014,4 hPa 0,0 l/m 17,8 km/h (3 Bft) W-SW 244 0 min 0,000 mm 0,0 UV-I 0 W/m 13,1 C 9,6 C 25,7 km/h (4 Bft) 95,74 %
13.07.2019 22:18 14,4 C 20,0 C 13,9 C 92 % 1014,5 hPa 0,0 l/m 16,8 km/h (3 Bft) W-SW 257 0 min 0,000 mm 0,0 UV-I 0 W/m 13,1 C 9,9 C 27,4 km/h (4 Bft) 95,74 %
13.07.2019 22:20 14,4 C 20,0 C 13,9 C 91 % 1014,4 hPa 0,0 l/m 18,8 km/h (3 Bft) SW 230 0 min 0,000 mm 0,0 UV-I 0 W/m 12,9 C 9,3 C 25,7 km/h (4 Bft) 95,74 %
13.07.2019 22:22 14,4 C 20,0 C 13,9 C 91 % 1014,5 hPa 0,0 l/m 18,2 km/h (3 Bft) W-SW 237 0 min 0,000 mm 0,0 UV-I 0 W/m 12,9 C 9,5 C 24,1 km/h (4 Bft) 95,74 %
13.07.2019 22:24 14,4 C 20,0 C 13,9 C 91 % 1014,4 hPa 0,0 l/m 19,2 km/h (3 Bft) W 275 0 min 0,000 mm 0,0 UV-I 0 W/m 12,9 C 9,2 C 30,6 km/h (5 Bft) 94,74 %
13.07.2019 22:26 14,4 C 20,0 C 13,9 C 91 % 1014,5 hPa 0,0 l/m 18,1 km/h (3 Bft) SW 234 0 min 0,000 mm 0,0 UV-I 0 W/m 12,9 C 9,5 C 22,5 km/h (4 Bft) 95,74 %
13.07.2019 22:28 14,4 C 20,0 C 13,9 C 91 % 1014,5 hPa 0,0 l/m 18,3 km/h (3 Bft) SW 230 0 min 0,000 mm 0,0 UV-I 0 W/m 12,9 C 9,4 C 32,2 km/h (5 Bft) 93,62 %
13.07.2019 22:30 14,4 C 20,0 C 13,9 C 91 % 1014,5 hPa 0,0 l/m 19,6 km/h (3 Bft) W 277 0 min 0,000 mm 0,0 UV-I 0 W/m 12,9 C 9,1 C 35,4 km/h (5 Bft) 97,87 %
13.07.2019 22:32 14,4 C 20,0 C 13,9 C 91 % 1014,5 hPa 0,0 l/m 20,9 km/h (4 Bft) W 261 0 min 0,000 mm 0,0 UV-I 0 W/m 12,9 C 8,7 C 29,0 km/h (5 Bft) 90,00 %
13.07.2019 22:34 14,4 C 20,0 C 13,9 C 91 % 1014,5 hPa 0,0 l/m 21,1 km/h (4 Bft) W-SW 246 0 min 0,000 mm 0,0 UV-I 0 W/m 12,9 C 8,7 C 35,4 km/h (5 Bft) 97,87 %
13.07.2019 22:36 14,4 C 20,0 C 13,9 C 91 % 1014,6 hPa 0,0 l/m 17,9 km/h (3 Bft) W 265 0 min 0,000 mm 0,0 UV-I 0 W/m 12,9 C 9,6 C 29,0 km/h (5 Bft) 98,00 %
13.07.2019 22:38 14,4 C 20,0 C 13,9 C 91 % 1014,6 hPa 0,0 l/m 20,2 km/h (4 Bft) W-NW 284 0 min 0,000 mm 0,0 UV-I 0 W/m 12,9 C 8,9 C 25,7 km/h (4 Bft) 98,00 %
13.07.2019 22:40 14,3 C 20,0 C 13,9 C 91 % 1014,6 hPa 0,0 l/m 17,1 km/h (3 Bft) W-SW 253 0 min 0,000 mm 0,0 UV-I 0 W/m 12,8 C 9,7 C 25,7 km/h (4 Bft) 100,00 %
13.07.2019 22:42 14,3 C 20,0 C 13,9 C 91 % 1014,6 hPa 0,0 l/m 18,6 km/h (3 Bft) SW 217 0 min 0,000 mm 0,0 UV-I 0 W/m 12,8 C 9,2 C 25,7 km/h (4 Bft) 100,00 %
13.07.2019 22:44 14,3 C 20,0 C 13,9 C 91 % 1014,6 hPa 0,0 l/m 18,2 km/h (3 Bft) W 267 0 min 0,000 mm 0,0 UV-I 0 W/m 12,8 C 9,3 C 25,7 km/h (4 Bft) 97,87 %
13.07.2019 22:46 14,3 C 20,0 C 13,9 C 91 % 1014,5 hPa 0,0 l/m 19,2 km/h (3 Bft) W-SW 251 0 min 0,000 mm 0,0 UV-I 0 W/m 12,8 C 9,1 C 29,0 km/h (5 Bft) 97,87 %
13.07.2019 22:48 14,3 C 20,0 C 13,9 C 91 % 1014,5 hPa 0,0 l/m 18,0 km/h (3 Bft) SW 232 0 min 0,000 mm 0,0 UV-I 0 W/m 12,8 C 9,4 C 29,0 km/h (5 Bft) 100,00 %
13.07.2019 22:50 14,3 C 20,0 C 13,9 C 91 % 1014,6 hPa 0,0 l/m 16,1 km/h (3 Bft) W-SW 257 0 min 0,000 mm 0,0 UV-I 0 W/m 12,8 C 10,0 C 24,1 km/h (4 Bft) 100,00 %
13.07.2019 22:52 14,3 C 20,0 C 13,9 C 91 % 1014,5 hPa 0,0 l/m 18,4 km/h (3 Bft) W-NW 284 0 min 0,000 mm 0,0 UV-I 0 W/m 12,8 C 9,3 C 29,0 km/h (5 Bft) 100,00 %
13.07.2019 22:54 14,3 C 20,0 C 13,9 C 91 % 1014,5 hPa 0,0 l/m 17,3 km/h (3 Bft) W 263 0 min 0,000 mm 0,0 UV-I 0 W/m 12,8 C 9,6 C 24,1 km/h (4 Bft) 100,00 %
13.07.2019 22:56 14,3 C 20,0 C 13,9 C 91 % 1014,5 hPa 0,0 l/m 17,3 km/h (3 Bft) W 264 0 min 0,000 mm 0,0 UV-I 0 W/m 12,8 C 9,6 C 25,7 km/h (4 Bft) 98,00 %
13.07.2019 22:58 14,3 C 20,0 C 13,9 C 91 % 1014,5 hPa 0,0 l/m 15,4 km/h (3 Bft) W 281 0 min 0,000 mm 0,0 UV-I 0 W/m 12,8 C 10,2 C 24,1 km/h (4 Bft) 95,74 %
13.07.2019 23:00 14,2 C 20,0 C 13,9 C 91 % 1014,5 hPa 0,0 l/m 17,4 km/h (3 Bft) W 275 0 min 0,000 mm 0,0 UV-I 0 W/m 12,8 C 9,4 C 22,5 km/h (4 Bft) 97,87 %
13.07.2019 23:02 14,2 C 20,0 C 13,9 C 91 % 1014,6 hPa 0,0 l/m 13,3 km/h (3 Bft) W-SW 250 0 min 0,025 mm 0,0 UV-I 0 W/m 12,8 C 10,8 C 19,3 km/h (3 Bft) 100,00 %
13.07.2019 23:04 14,2 C 20,0 C 13,9 C 91 % 1014,6 hPa 0,0 l/m 17,0 km/h (3 Bft) W 265 0 min 0,000 mm 0,0 UV-I 0 W/m 12,8 C 9,6 C 27,4 km/h (4 Bft) 100,00 %
13.07.2019 23:06 14,2 C 20,0 C 13,9 C 91 % 1014,7 hPa 0,0 l/m 12,3 km/h (3 Bft) W-SW 240 0 min 0,000 mm 0,0 UV-I 0 W/m 12,8 C 11,2 C 17,7 km/h (3 Bft) 97,87 %
13.07.2019 23:08 14,2 C 20,0 C 13,9 C 92 % 1014,7 hPa 0,0 l/m 14,0 km/h (3 Bft) W 265 0 min 0,000 mm 0,0 UV-I 0 W/m 12,9 C 10,6 C 19,3 km/h (3 Bft) 100,00 %
13.07.2019 23:10 14,2 C 20,0 C 13,9 C 92 % 1014,7 hPa 0,0 l/m 13,4 km/h (3 Bft) W-SW 244 0 min 0,000 mm 0,0 UV-I 0 W/m 12,9 C 10,8 C 19,3 km/h (3 Bft) 97,87 %
13.07.2019 23:12 14,2 C 20,0 C 13,9 C 92 % 1014,7 hPa 0,0 l/m 15,8 km/h (3 Bft) W-SW 252 0 min 0,000 mm 0,0 UV-I 0 W/m 12,9 C 10,0 C 24,1 km/h (4 Bft) 97,92 %
13.07.2019 23:14 14,2 C 20,0 C 13,9 C 92 % 1014,7 hPa 0,0 l/m 17,6 km/h (3 Bft) W-SW 256 0 min 0,000 mm 0,0 UV-I 0 W/m 12,9 C 9,4 C 25,7 km/h (4 Bft) 100,00 %
13.07.2019 23:16 14,2 C 20,0 C 13,9 C 92 % 1014,7 hPa 0,0 l/m 13,5 km/h (3 Bft) W 269 0 min 0,000 mm 0,0 UV-I 0 W/m 12,9 C 10,8 C 22,5 km/h (4 Bft) 100,00 %
13.07.2019 23:19 14,2 C 20,0 C 13,9 C 92 % 1014,7 hPa 0,0 l/m 15,4 km/h (3 Bft) W 279 0 min 0,000 mm 0,0 UV-I 0 W/m 12,9 C 10,1 C 24,1 km/h (4 Bft) 95,89 %
13.07.2019 23:20 14,2 C 20,0 C 13,9 C 92 % 1014,7 hPa 0,0 l/m 15,5 km/h (3 Bft) W-SW 249 0 min 0,000 mm 0,0 UV-I 0 W/m 12,9 C 10,1 C 22,5 km/h (4 Bft) 100,00 %
13.07.2019 23:22 14,2 C 20,0 C 13,9 C 91 % 1014,7 hPa 0,0 l/m 13,9 km/h (3 Bft) SW 236 0 min 0,000 mm 0,0 UV-I 0 W/m 12,8 C 10,6 C 22,5 km/h (4 Bft) 97,87 %
13.07.2019 23:24 14,2 C 20,0 C 13,9 C 91 % 1014,7 hPa 0,0 l/m 13,2 km/h (3 Bft) S-SW 195 0 min 0,000 mm 0,0 UV-I 0 W/m 12,8 C 10,9 C 19,3 km/h (3 Bft) 95,74 %
13.07.2019 23:26 14,2 C 20,0 C 13,9 C 91 % 1014,6 hPa 0,0 l/m 12,1 km/h (2 Bft) SW 229 0 min 0,000 mm 0,0 UV-I 0 W/m 12,8 C 11,3 C 22,5 km/h (4 Bft) 97,87 %
13.07.2019 23:29 14,2 C 20,0 C 13,9 C 91 % 1014,7 hPa 0,0 l/m 12,5 km/h (3 Bft) W-SW 245 0 min 0,000 mm 0,0 UV-I 0 W/m 12,8 C 11,1 C 20,9 km/h (4 Bft) 96,34 %
13.07.2019 23:30 14,2 C 20,0 C 13,9 C 91 % 1014,7 hPa 0,0 l/m 11,8 km/h (2 Bft) W 268 0 min 0,000 mm 0,0 UV-I 0 W/m 12,8 C 11,4 C 19,3 km/h (3 Bft) 100,00 %
13.07.2019 23:32 14,2 C 20,0 C 13,9 C 91 % 1014,8 hPa 0,0 l/m 10,8 km/h (2 Bft) W-SW 258 0 min 0,000 mm 0,0 UV-I 0 W/m 12,8 C 11,9 C 16,1 km/h (3 Bft) 93,62 %
13.07.2019 23:34 14,2 C 20,0 C 13,9 C 91 % 1014,7 hPa 0,0 l/m 12,4 km/h (3 Bft) S-SW 211 0 min 0,000 mm 0,0 UV-I 0 W/m 12,8 C 11,2 C 24,1 km/h (4 Bft) 98,00 %
13.07.2019 23:36 14,2 C 20,0 C 13,9 C 91 % 1014,8 hPa 0,0 l/m 16,8 km/h (3 Bft) W-SW 258 0 min 0,000 mm 0,0 UV-I 0 W/m 12,8 C 9,6 C 24,1 km/h (4 Bft) 95,74 %
13.07.2019 23:39 14,2 C 20,0 C 13,9 C 91 % 1014,8 hPa 0,0 l/m 11,6 km/h (2 Bft) W-SW 250 0 min 0,000 mm 0,0 UV-I 0 W/m 12,8 C 11,5 C 24,1 km/h (4 Bft) 91,89 %
13.07.2019 23:40 14,2 C 20,0 C 13,9 C 91 % 1014,8 hPa 0,0 l/m 12,7 km/h (3 Bft) W 269 0 min 0,000 mm 0,0 UV-I 0 W/m 12,8 C 11,1 C 16,1 km/h (3 Bft) 100,00 %
13.07.2019 23:42 14,2 C 20,0 C 13,9 C 91 % 1014,9 hPa 0,0 l/m 16,3 km/h (3 Bft) W-SW 258 0 min 0,000 mm 0,0 UV-I 0 W/m 12,8 C 9,8 C 25,7 km/h (4 Bft) 95,74 %
13.07.2019 23:44 14,2 C 20,0 C 13,9 C 91 % 1014,9 hPa 0,0 l/m 17,1 km/h (3 Bft) W 279 0 min 0,000 mm 0,0 UV-I 0 W/m 12,8 C 9,5 C 24,1 km/h (4 Bft) 95,74 %
13.07.2019 23:46 14,2 C 20,0 C 13,9 C 91 % 1014,8 hPa 0,0 l/m 17,3 km/h (3 Bft) W-SW 252 0 min 0,000 mm 0,0 UV-I 0 W/m 12,8 C 9,5 C 25,7 km/h (4 Bft) 97,87 %
13.07.2019 23:49 14,2 C 20,0 C 13,9 C 91 % 1014,9 hPa 0,0 l/m 15,6 km/h (3 Bft) W-NW 294 0 min 0,000 mm 0,0 UV-I 0 W/m 12,8 C 10,0 C 20,9 km/h (4 Bft) 93,55 %
13.07.2019 23:50 14,2 C 20,0 C 13,9 C 91 % 1014,9 hPa 0,0 l/m 19,8 km/h (3 Bft) SW 235 0 min 0,000 mm 0,0 UV-I 0 W/m 12,8 C 8,8 C 29,0 km/h (5 Bft) 96,30 %
13.07.2019 23:52 14,2 C 20,0 C 13,9 C 91 % 1014,9 hPa 0,0 l/m 14,0 km/h (3 Bft) W-SW 254 0 min 0,000 mm 0,0 UV-I 0 W/m 12,8 C 10,6 C 22,5 km/h (4 Bft) 95,65 %
13.07.2019 23:54 14,2 C 20,0 C 13,9 C 91 % 1014,9 hPa 0,0 l/m 15,4 km/h (3 Bft) SW 225 0 min 0,000 mm 0,0 UV-I 0 W/m 12,8 C 10,1 C 24,1 km/h (4 Bft) 95,74 %
13.07.2019 23:56 14,2 C 20,0 C 13,9 C 91 % 1014,9 hPa 0,0 l/m 14,6 km/h (3 Bft) W-SW 244 0 min 0,000 mm 0,0 UV-I 0 W/m 12,8 C 10,4 C 22,5 km/h (4 Bft) 97,87 %
13.07.2019 23:58 14,2 C 20,0 C 13,9 C 91 % 1014,8 hPa 0,0 l/m 14,5 km/h (3 Bft) SW 231 0 min 0,000 mm 0,0 UV-I 0 W/m 12,8 C 10,4 C 22,5 km/h (4 Bft) 95,74 %
_ Min-Zeit 03:56 19:38 02:46 17:22 00:52 - 01:00 - - - - - - 03:24 02:44 00:56 00:02
Minimum _ 13,7 C 20,0 C 13,3 C 87 % 1009,8 hPa - 2,1 km/h (1 Bft) - - - - - - 12,2 C 8,2 C 3,2 km/h (1 Bft) 9,09 %
_ Max-Zeit 17:08 00:00 17:04 02:30 23:42 01:56 17:20 - - 17:00 12:00 11:58 17:04 17:06 00:20 17:22 00:00
Maximum _ 17,1 C 21,7 C 22,8 C 95 % 1014,9 hPa 1,2 l/m 26,7 km/h
W (4 Bft)
- - 2 min 0,127 mm 2,0 UV-I 642 W/m 15,7 C 15,2 C 43,5 km/h
W (6 Bft)
100,00 %
Durchschnitt _ 14,6 C 20,7 C 15,1 C 93 % 1012,4 hPa #26,0 l/m 13,1 km/h (3 Bft) W-SW - #10 min. #1,219 mm 1,0 UV-I 121 W/m 13,5 C 11,6 C 20,3 km/h (4 Bft) 97,02 %